<?xml version="1.0" encoding="UTF-8" standalone="no" ?>
<gpx xmlns="http://www.topografix.com/GPX/1/1" xmlns:xsi="http://www.w3.org/2001/XMLSchema-instance" xsi:schemaLocation="http://www.topografix.com/GPX/1/1 http://www.topografix.com/GPX/1/1/gpx.xsd" version="1.1" creator="VisuGPX - https://www.visugpx.com">
  <metadata>
    <name>Boucle Mont Thou</name>
    <desc><![CDATA[Départ/arrivée depuis le parking de la demeure du Chaos]]></desc>
  </metadata>
  <trk>
    <name><![CDATA[Boucle Mont Thou_1]]></name>
    <trkseg>
      <trkpt lat="45.83828" lon="4.82505">
        <ele>197</ele>
        <time>2012-09-01T09:58:59Z</time>
      </trkpt>
      <trkpt lat="45.83829" lon="4.82502">
        <ele>196</ele>
        <time>2012-09-01T09:59:00Z</time>
      </trkpt>
      <trkpt lat="45.83832" lon="4.82496">
        <ele>197</ele>
        <time>2012-09-01T09:59:09Z</time>
      </trkpt>
      <trkpt lat="45.83833" lon="4.82493">
        <ele>197</ele>
        <time>2012-09-01T09:59:16Z</time>
      </trkpt>
      <trkpt lat="45.83833" lon="4.82489">
        <ele>197</ele>
        <time>2012-09-01T09:59:17Z</time>
      </trkpt>
      <trkpt lat="45.83834" lon="4.82446">
        <ele>199</ele>
        <time>2012-09-01T09:59:28Z</time>
      </trkpt>
      <trkpt lat="45.83841" lon="4.82387">
        <ele>201</ele>
        <time>2012-09-01T09:59:44Z</time>
      </trkpt>
      <trkpt lat="45.83846" lon="4.8235">
        <ele>203</ele>
        <time>2012-09-01T09:59:56Z</time>
      </trkpt>
      <trkpt lat="45.83852" lon="4.82312">
        <ele>205</ele>
        <time>2012-09-01T10:00:09Z</time>
      </trkpt>
      <trkpt lat="45.83852" lon="4.82309">
        <ele>205</ele>
        <time>2012-09-01T10:00:10Z</time>
      </trkpt>
      <trkpt lat="45.83854" lon="4.8227">
        <ele>207</ele>
        <time>2012-09-01T10:00:23Z</time>
      </trkpt>
      <trkpt lat="45.83856" lon="4.82215">
        <ele>210</ele>
        <time>2012-09-01T10:00:40Z</time>
      </trkpt>
      <trkpt lat="45.83863" lon="4.8218">
        <ele>213</ele>
        <time>2012-09-01T10:00:51Z</time>
      </trkpt>
      <trkpt lat="45.83864" lon="4.82166">
        <ele>213</ele>
        <time>2012-09-01T10:00:56Z</time>
      </trkpt>
      <trkpt lat="45.83864" lon="4.82163">
        <ele>213</ele>
        <time>2012-09-01T10:00:57Z</time>
      </trkpt>
      <trkpt lat="45.83866" lon="4.8213">
        <ele>215</ele>
        <time>2012-09-01T10:01:10Z</time>
      </trkpt>
      <trkpt lat="45.83869" lon="4.82106">
        <ele>217</ele>
        <time>2012-09-01T10:01:19Z</time>
      </trkpt>
      <trkpt lat="45.83873" lon="4.82079">
        <ele>219</ele>
        <time>2012-09-01T10:01:30Z</time>
      </trkpt>
      <trkpt lat="45.83872" lon="4.8206">
        <ele>221</ele>
        <time>2012-09-01T10:01:38Z</time>
      </trkpt>
      <trkpt lat="45.83874" lon="4.82026">
        <ele>223</ele>
        <time>2012-09-01T10:01:52Z</time>
      </trkpt>
      <trkpt lat="45.83874" lon="4.82007">
        <ele>224</ele>
        <time>2012-09-01T10:02:00Z</time>
      </trkpt>
      <trkpt lat="45.83874" lon="4.82005">
        <ele>225</ele>
        <time>2012-09-01T10:02:01Z</time>
      </trkpt>
      <trkpt lat="45.83867" lon="4.81969">
        <ele>227</ele>
        <time>2012-09-01T10:02:17Z</time>
      </trkpt>
      <trkpt lat="45.83865" lon="4.81946">
        <ele>228</ele>
        <time>2012-09-01T10:02:28Z</time>
      </trkpt>
      <trkpt lat="45.83866" lon="4.81939">
        <ele>229</ele>
        <time>2012-09-01T10:02:31Z</time>
      </trkpt>
      <trkpt lat="45.83866" lon="4.81913">
        <ele>231</ele>
        <time>2012-09-01T10:02:43Z</time>
      </trkpt>
      <trkpt lat="45.83867" lon="4.81875">
        <ele>233</ele>
        <time>2012-09-01T10:02:58Z</time>
      </trkpt>
      <trkpt lat="45.83857" lon="4.81846">
        <ele>236</ele>
        <time>2012-09-01T10:03:13Z</time>
      </trkpt>
      <trkpt lat="45.83848" lon="4.81832">
        <ele>237</ele>
        <time>2012-09-01T10:03:22Z</time>
      </trkpt>
      <trkpt lat="45.83843" lon="4.81818">
        <ele>239</ele>
        <time>2012-09-01T10:03:34Z</time>
      </trkpt>
      <trkpt lat="45.83838" lon="4.81796">
        <ele>241</ele>
        <time>2012-09-01T10:03:47Z</time>
      </trkpt>
      <trkpt lat="45.83835" lon="4.81775">
        <ele>242</ele>
        <time>2012-09-01T10:03:59Z</time>
      </trkpt>
      <trkpt lat="45.83833" lon="4.81769">
        <ele>243</ele>
        <time>2012-09-01T10:04:03Z</time>
      </trkpt>
      <trkpt lat="45.83833" lon="4.81767">
        <ele>243</ele>
        <time>2012-09-01T10:04:04Z</time>
      </trkpt>
      <trkpt lat="45.83832" lon="4.81766">
        <ele>243</ele>
        <time>2012-09-01T10:04:05Z</time>
      </trkpt>
      <trkpt lat="45.83832" lon="4.81764">
        <ele>243</ele>
        <time>2012-09-01T10:04:06Z</time>
      </trkpt>
      <trkpt lat="45.83832" lon="4.81762">
        <ele>244</ele>
        <time>2012-09-01T10:04:07Z</time>
      </trkpt>
      <trkpt lat="45.83829" lon="4.81753">
        <ele>245</ele>
        <time>2012-09-01T10:04:13Z</time>
      </trkpt>
      <trkpt lat="45.83828" lon="4.8173">
        <ele>247</ele>
        <time>2012-09-01T10:04:25Z</time>
      </trkpt>
      <trkpt lat="45.83828" lon="4.81727">
        <ele>248</ele>
        <time>2012-09-01T10:04:26Z</time>
      </trkpt>
      <trkpt lat="45.83826" lon="4.81716">
        <ele>249</ele>
        <time>2012-09-01T10:04:32Z</time>
      </trkpt>
      <trkpt lat="45.8382" lon="4.81698">
        <ele>252</ele>
        <time>2012-09-01T10:04:46Z</time>
      </trkpt>
      <trkpt lat="45.83812" lon="4.81676">
        <ele>252</ele>
        <time>2012-09-01T10:05:00Z</time>
      </trkpt>
      <trkpt lat="45.83805" lon="4.81652">
        <ele>255</ele>
        <time>2012-09-01T10:05:19Z</time>
      </trkpt>
      <trkpt lat="45.83796" lon="4.81635">
        <ele>258</ele>
        <time>2012-09-01T10:05:33Z</time>
      </trkpt>
      <trkpt lat="45.83793" lon="4.81609">
        <ele>262</ele>
        <time>2012-09-01T10:05:49Z</time>
      </trkpt>
      <trkpt lat="45.83788" lon="4.81587">
        <ele>265</ele>
        <time>2012-09-01T10:06:04Z</time>
      </trkpt>
      <trkpt lat="45.83784" lon="4.81568">
        <ele>268</ele>
        <time>2012-09-01T10:06:17Z</time>
      </trkpt>
      <trkpt lat="45.8378" lon="4.81545">
        <ele>271</ele>
        <time>2012-09-01T10:06:32Z</time>
      </trkpt>
      <trkpt lat="45.83783" lon="4.81523">
        <ele>274</ele>
        <time>2012-09-01T10:06:45Z</time>
      </trkpt>
      <trkpt lat="45.83776" lon="4.81507">
        <ele>278</ele>
        <time>2012-09-01T10:06:59Z</time>
      </trkpt>
      <trkpt lat="45.83781" lon="4.81489">
        <ele>280</ele>
        <time>2012-09-01T10:07:14Z</time>
      </trkpt>
      <trkpt lat="45.83781" lon="4.81471">
        <ele>284</ele>
        <time>2012-09-01T10:07:26Z</time>
      </trkpt>
      <trkpt lat="45.83777" lon="4.81448">
        <ele>287</ele>
        <time>2012-09-01T10:07:36Z</time>
      </trkpt>
      <trkpt lat="45.83779" lon="4.81436">
        <ele>289</ele>
        <time>2012-09-01T10:07:43Z</time>
      </trkpt>
      <trkpt lat="45.83777" lon="4.8143">
        <ele>291</ele>
        <time>2012-09-01T10:07:47Z</time>
      </trkpt>
      <trkpt lat="45.83775" lon="4.81413">
        <ele>294</ele>
        <time>2012-09-01T10:08:00Z</time>
      </trkpt>
      <trkpt lat="45.83776" lon="4.814">
        <ele>295</ele>
        <time>2012-09-01T10:08:10Z</time>
      </trkpt>
      <trkpt lat="45.83774" lon="4.8139">
        <ele>297</ele>
        <time>2012-09-01T10:08:17Z</time>
      </trkpt>
      <trkpt lat="45.83773" lon="4.81367">
        <ele>300</ele>
        <time>2012-09-01T10:08:30Z</time>
      </trkpt>
      <trkpt lat="45.83767" lon="4.81349">
        <ele>303</ele>
        <time>2012-09-01T10:08:44Z</time>
      </trkpt>
      <trkpt lat="45.83767" lon="4.8134">
        <ele>306</ele>
        <time>2012-09-01T10:08:58Z</time>
      </trkpt>
      <trkpt lat="45.83764" lon="4.81337">
        <ele>307</ele>
        <time>2012-09-01T10:09:19Z</time>
      </trkpt>
      <trkpt lat="45.83771" lon="4.81328">
        <ele>309</ele>
        <time>2012-09-01T10:10:19Z</time>
      </trkpt>
      <trkpt lat="45.83767" lon="4.8132">
        <ele>312</ele>
        <time>2012-09-01T10:11:06Z</time>
      </trkpt>
      <trkpt lat="45.83766" lon="4.81298">
        <ele>314</ele>
        <time>2012-09-01T10:11:35Z</time>
      </trkpt>
      <trkpt lat="45.83762" lon="4.81287">
        <ele>317</ele>
        <time>2012-09-01T10:11:49Z</time>
      </trkpt>
      <trkpt lat="45.83763" lon="4.81275">
        <ele>320</ele>
        <time>2012-09-01T10:12:04Z</time>
      </trkpt>
      <trkpt lat="45.83766" lon="4.81263">
        <ele>323</ele>
        <time>2012-09-01T10:12:12Z</time>
      </trkpt>
      <trkpt lat="45.83766" lon="4.81251">
        <ele>326</ele>
        <time>2012-09-01T10:12:20Z</time>
      </trkpt>
      <trkpt lat="45.83771" lon="4.81231">
        <ele>329</ele>
        <time>2012-09-01T10:12:36Z</time>
      </trkpt>
      <trkpt lat="45.83772" lon="4.81203">
        <ele>332</ele>
        <time>2012-09-01T10:12:56Z</time>
      </trkpt>
      <trkpt lat="45.8377" lon="4.81178">
        <ele>335</ele>
        <time>2012-09-01T10:13:10Z</time>
      </trkpt>
      <trkpt lat="45.8377" lon="4.81163">
        <ele>339</ele>
        <time>2012-09-01T10:13:23Z</time>
      </trkpt>
      <trkpt lat="45.83771" lon="4.81157">
        <ele>340</ele>
        <time>2012-09-01T10:13:49Z</time>
      </trkpt>
      <trkpt lat="45.83766" lon="4.81161">
        <ele>340</ele>
        <time>2012-09-01T10:14:24Z</time>
      </trkpt>
      <trkpt lat="45.83772" lon="4.81171">
        <ele>341</ele>
        <time>2012-09-01T10:14:57Z</time>
      </trkpt>
      <trkpt lat="45.83777" lon="4.81192">
        <ele>343</ele>
        <time>2012-09-01T10:15:09Z</time>
      </trkpt>
      <trkpt lat="45.8377" lon="4.81194">
        <ele>343</ele>
        <time>2012-09-01T10:15:12Z</time>
      </trkpt>
      <trkpt lat="45.83765" lon="4.81198">
        <ele>344</ele>
        <time>2012-09-01T10:15:16Z</time>
      </trkpt>
      <trkpt lat="45.83759" lon="4.81204">
        <ele>346</ele>
        <time>2012-09-01T10:15:25Z</time>
      </trkpt>
      <trkpt lat="45.83747" lon="4.81208">
        <ele>347</ele>
        <time>2012-09-01T10:15:36Z</time>
      </trkpt>
      <trkpt lat="45.83732" lon="4.81207">
        <ele>350</ele>
        <time>2012-09-01T10:15:49Z</time>
      </trkpt>
      <trkpt lat="45.83729" lon="4.81211">
        <ele>350</ele>
        <time>2012-09-01T10:15:51Z</time>
      </trkpt>
      <trkpt lat="45.83727" lon="4.81212">
        <ele>350</ele>
        <time>2012-09-01T10:15:52Z</time>
      </trkpt>
      <trkpt lat="45.83708" lon="4.8122">
        <ele>352</ele>
        <time>2012-09-01T10:16:06Z</time>
      </trkpt>
      <trkpt lat="45.83696" lon="4.81224">
        <ele>356</ele>
        <time>2012-09-01T10:16:18Z</time>
      </trkpt>
      <trkpt lat="45.83683" lon="4.81227">
        <ele>359</ele>
        <time>2012-09-01T10:16:31Z</time>
      </trkpt>
      <trkpt lat="45.83682" lon="4.81228">
        <ele>359</ele>
        <time>2012-09-01T10:16:32Z</time>
      </trkpt>
      <trkpt lat="45.83672" lon="4.81237">
        <ele>360</ele>
        <time>2012-09-01T10:16:41Z</time>
      </trkpt>
      <trkpt lat="45.83654" lon="4.81245">
        <ele>362</ele>
        <time>2012-09-01T10:16:56Z</time>
      </trkpt>
      <trkpt lat="45.83648" lon="4.81248">
        <ele>363</ele>
        <time>2012-09-01T10:17:00Z</time>
      </trkpt>
      <trkpt lat="45.83644" lon="4.81249">
        <ele>363</ele>
        <time>2012-09-01T10:17:15Z</time>
      </trkpt>
      <trkpt lat="45.83644" lon="4.81252">
        <ele>363</ele>
        <time>2012-09-01T10:17:19Z</time>
      </trkpt>
      <trkpt lat="45.83638" lon="4.81262">
        <ele>364</ele>
        <time>2012-09-01T10:17:26Z</time>
      </trkpt>
      <trkpt lat="45.83618" lon="4.81271">
        <ele>366</ele>
        <time>2012-09-01T10:17:40Z</time>
      </trkpt>
      <trkpt lat="45.836" lon="4.81274">
        <ele>367</ele>
        <time>2012-09-01T10:17:51Z</time>
      </trkpt>
      <trkpt lat="45.83582" lon="4.81289">
        <ele>367</ele>
        <time>2012-09-01T10:18:02Z</time>
      </trkpt>
      <trkpt lat="45.83569" lon="4.81299">
        <ele>367</ele>
        <time>2012-09-01T10:18:12Z</time>
      </trkpt>
      <trkpt lat="45.83562" lon="4.81292">
        <ele>369</ele>
        <time>2012-09-01T10:18:20Z</time>
      </trkpt>
      <trkpt lat="45.83558" lon="4.81264">
        <ele>370</ele>
        <time>2012-09-01T10:18:33Z</time>
      </trkpt>
      <trkpt lat="45.83554" lon="4.81231">
        <ele>371</ele>
        <time>2012-09-01T10:18:48Z</time>
      </trkpt>
      <trkpt lat="45.8355" lon="4.81211">
        <ele>374</ele>
        <time>2012-09-01T10:18:59Z</time>
      </trkpt>
      <trkpt lat="45.83547" lon="4.81208">
        <ele>374</ele>
        <time>2012-09-01T10:19:02Z</time>
      </trkpt>
      <trkpt lat="45.83547" lon="4.81201">
        <ele>375</ele>
        <time>2012-09-01T10:19:06Z</time>
      </trkpt>
      <trkpt lat="45.83547" lon="4.81184">
        <ele>376</ele>
        <time>2012-09-01T10:19:16Z</time>
      </trkpt>
      <trkpt lat="45.83545" lon="4.81169">
        <ele>379</ele>
        <time>2012-09-01T10:19:26Z</time>
      </trkpt>
      <trkpt lat="45.83543" lon="4.81157">
        <ele>380</ele>
        <time>2012-09-01T10:19:33Z</time>
      </trkpt>
      <trkpt lat="45.83542" lon="4.81148">
        <ele>381</ele>
        <time>2012-09-01T10:19:38Z</time>
      </trkpt>
      <trkpt lat="45.83544" lon="4.81133">
        <ele>383</ele>
        <time>2012-09-01T10:19:48Z</time>
      </trkpt>
      <trkpt lat="45.83548" lon="4.81126">
        <ele>386</ele>
        <time>2012-09-01T10:19:54Z</time>
      </trkpt>
      <trkpt lat="45.83549" lon="4.81117">
        <ele>387</ele>
        <time>2012-09-01T10:20:06Z</time>
      </trkpt>
      <trkpt lat="45.83556" lon="4.81106">
        <ele>389</ele>
        <time>2012-09-01T10:21:02Z</time>
      </trkpt>
      <trkpt lat="45.83563" lon="4.81095">
        <ele>391</ele>
        <time>2012-09-01T10:21:13Z</time>
      </trkpt>
      <trkpt lat="45.83569" lon="4.81083">
        <ele>393</ele>
        <time>2012-09-01T10:21:26Z</time>
      </trkpt>
      <trkpt lat="45.8357" lon="4.81077">
        <ele>393</ele>
        <time>2012-09-01T10:21:41Z</time>
      </trkpt>
      <trkpt lat="45.83574" lon="4.81063">
        <ele>395</ele>
        <time>2012-09-01T10:22:01Z</time>
      </trkpt>
      <trkpt lat="45.83577" lon="4.81049">
        <ele>397</ele>
        <time>2012-09-01T10:22:10Z</time>
      </trkpt>
      <trkpt lat="45.83584" lon="4.81022">
        <ele>400</ele>
        <time>2012-09-01T10:22:25Z</time>
      </trkpt>
      <trkpt lat="45.83586" lon="4.81008">
        <ele>402</ele>
        <time>2012-09-01T10:22:36Z</time>
      </trkpt>
      <trkpt lat="45.83591" lon="4.80992">
        <ele>406</ele>
        <time>2012-09-01T10:22:48Z</time>
      </trkpt>
      <trkpt lat="45.83592" lon="4.80991">
        <ele>407</ele>
        <time>2012-09-01T10:22:50Z</time>
      </trkpt>
      <trkpt lat="45.836" lon="4.80978">
        <ele>408</ele>
        <time>2012-09-01T10:23:01Z</time>
      </trkpt>
      <trkpt lat="45.83603" lon="4.80977">
        <ele>408</ele>
        <time>2012-09-01T10:23:05Z</time>
      </trkpt>
      <trkpt lat="45.8362" lon="4.80974">
        <ele>410</ele>
        <time>2012-09-01T10:23:20Z</time>
      </trkpt>
      <trkpt lat="45.83638" lon="4.80973">
        <ele>411</ele>
        <time>2012-09-01T10:23:32Z</time>
      </trkpt>
      <trkpt lat="45.83645" lon="4.80969">
        <ele>412</ele>
        <time>2012-09-01T10:23:37Z</time>
      </trkpt>
      <trkpt lat="45.8365" lon="4.80961">
        <ele>412</ele>
        <time>2012-09-01T10:23:45Z</time>
      </trkpt>
      <trkpt lat="45.83652" lon="4.80938">
        <ele>413</ele>
        <time>2012-09-01T10:23:56Z</time>
      </trkpt>
      <trkpt lat="45.83657" lon="4.80908">
        <ele>415</ele>
        <time>2012-09-01T10:24:10Z</time>
      </trkpt>
      <trkpt lat="45.8366" lon="4.80873">
        <ele>416</ele>
        <time>2012-09-01T10:24:24Z</time>
      </trkpt>
      <trkpt lat="45.83661" lon="4.80846">
        <ele>417</ele>
        <time>2012-09-01T10:24:38Z</time>
      </trkpt>
      <trkpt lat="45.83661" lon="4.80844">
        <ele>418</ele>
        <time>2012-09-01T10:24:39Z</time>
      </trkpt>
      <trkpt lat="45.83664" lon="4.80822">
        <ele>420</ele>
        <time>2012-09-01T10:24:48Z</time>
      </trkpt>
      <trkpt lat="45.83672" lon="4.80784">
        <ele>422</ele>
        <time>2012-09-01T10:25:04Z</time>
      </trkpt>
      <trkpt lat="45.8369" lon="4.8075">
        <ele>422</ele>
        <time>2012-09-01T10:25:20Z</time>
      </trkpt>
      <trkpt lat="45.83713" lon="4.80713">
        <ele>424</ele>
        <time>2012-09-01T10:25:37Z</time>
      </trkpt>
      <trkpt lat="45.83725" lon="4.80697">
        <ele>425</ele>
        <time>2012-09-01T10:25:47Z</time>
      </trkpt>
      <trkpt lat="45.83724" lon="4.80674">
        <ele>426</ele>
        <time>2012-09-01T10:25:59Z</time>
      </trkpt>
      <trkpt lat="45.83723" lon="4.8067">
        <ele>427</ele>
        <time>2012-09-01T10:26:01Z</time>
      </trkpt>
      <trkpt lat="45.83722" lon="4.80667">
        <ele>427</ele>
        <time>2012-09-01T10:26:03Z</time>
      </trkpt>
      <trkpt lat="45.83722" lon="4.80661">
        <ele>428</ele>
        <time>2012-09-01T10:26:06Z</time>
      </trkpt>
      <trkpt lat="45.83721" lon="4.80653">
        <ele>429</ele>
        <time>2012-09-01T10:26:12Z</time>
      </trkpt>
      <trkpt lat="45.83718" lon="4.80629">
        <ele>433</ele>
        <time>2012-09-01T10:26:27Z</time>
      </trkpt>
      <trkpt lat="45.83718" lon="4.80621">
        <ele>434</ele>
        <time>2012-09-01T10:26:31Z</time>
      </trkpt>
      <trkpt lat="45.83717" lon="4.80601">
        <ele>435</ele>
        <time>2012-09-01T10:26:43Z</time>
      </trkpt>
      <trkpt lat="45.83714" lon="4.80582">
        <ele>438</ele>
        <time>2012-09-01T10:26:55Z</time>
      </trkpt>
      <trkpt lat="45.83709" lon="4.80564">
        <ele>441</ele>
        <time>2012-09-01T10:27:07Z</time>
      </trkpt>
      <trkpt lat="45.83705" lon="4.80554">
        <ele>442</ele>
        <time>2012-09-01T10:27:22Z</time>
      </trkpt>
      <trkpt lat="45.83711" lon="4.80553">
        <ele>443</ele>
        <time>2012-09-01T10:27:26Z</time>
      </trkpt>
      <trkpt lat="45.83724" lon="4.80549">
        <ele>445</ele>
        <time>2012-09-01T10:27:37Z</time>
      </trkpt>
      <trkpt lat="45.83736" lon="4.80541">
        <ele>448</ele>
        <time>2012-09-01T10:27:48Z</time>
      </trkpt>
      <trkpt lat="45.83734" lon="4.80539">
        <ele>448</ele>
        <time>2012-09-01T10:27:51Z</time>
      </trkpt>
      <trkpt lat="45.83713" lon="4.80539">
        <ele>446</ele>
        <time>2012-09-01T10:28:03Z</time>
      </trkpt>
      <trkpt lat="45.83703" lon="4.80536">
        <ele>446</ele>
        <time>2012-09-01T10:28:08Z</time>
      </trkpt>
      <trkpt lat="45.837" lon="4.80524">
        <ele>447</ele>
        <time>2012-09-01T10:28:22Z</time>
      </trkpt>
      <trkpt lat="45.83699" lon="4.80529">
        <ele>446</ele>
        <time>2012-09-01T10:28:29Z</time>
      </trkpt>
      <trkpt lat="45.83692" lon="4.80544">
        <ele>445</ele>
        <time>2012-09-01T10:28:36Z</time>
      </trkpt>
      <trkpt lat="45.8366" lon="4.80575">
        <ele>444</ele>
        <time>2012-09-01T10:28:50Z</time>
      </trkpt>
      <trkpt lat="45.83637" lon="4.80596">
        <ele>446</ele>
        <time>2012-09-01T10:29:02Z</time>
      </trkpt>
      <trkpt lat="45.83614" lon="4.80608">
        <ele>445</ele>
        <time>2012-09-01T10:29:10Z</time>
      </trkpt>
      <trkpt lat="45.83588" lon="4.80623">
        <ele>445</ele>
        <time>2012-09-01T10:29:16Z</time>
      </trkpt>
      <trkpt lat="45.83565" lon="4.80639">
        <ele>442</ele>
        <time>2012-09-01T10:29:21Z</time>
      </trkpt>
      <trkpt lat="45.83555" lon="4.80647">
        <ele>442</ele>
        <time>2012-09-01T10:29:23Z</time>
      </trkpt>
      <trkpt lat="45.83536" lon="4.8066">
        <ele>440</ele>
        <time>2012-09-01T10:29:26Z</time>
      </trkpt>
      <trkpt lat="45.83524" lon="4.80669">
        <ele>439</ele>
        <time>2012-09-01T10:29:28Z</time>
      </trkpt>
      <trkpt lat="45.83517" lon="4.80674">
        <ele>438</ele>
        <time>2012-09-01T10:29:29Z</time>
      </trkpt>
      <trkpt lat="45.83428" lon="4.80723">
        <ele>438</ele>
        <time>2012-09-01T10:29:42Z</time>
      </trkpt>
      <trkpt lat="45.83423" lon="4.80723">
        <ele>438</ele>
        <time>2012-09-01T10:29:43Z</time>
      </trkpt>
      <trkpt lat="45.83418" lon="4.80721">
        <ele>438</ele>
        <time>2012-09-01T10:29:44Z</time>
      </trkpt>
      <trkpt lat="45.83414" lon="4.80718">
        <ele>439</ele>
        <time>2012-09-01T10:29:45Z</time>
      </trkpt>
      <trkpt lat="45.83411" lon="4.80713">
        <ele>439</ele>
        <time>2012-09-01T10:29:46Z</time>
      </trkpt>
      <trkpt lat="45.83408" lon="4.80708">
        <ele>439</ele>
        <time>2012-09-01T10:29:47Z</time>
      </trkpt>
      <trkpt lat="45.83406" lon="4.80703">
        <ele>440</ele>
        <time>2012-09-01T10:29:48Z</time>
      </trkpt>
      <trkpt lat="45.83388" lon="4.80656">
        <ele>441</ele>
        <time>2012-09-01T10:29:59Z</time>
      </trkpt>
      <trkpt lat="45.83381" lon="4.806">
        <ele>440</ele>
        <time>2012-09-01T10:30:10Z</time>
      </trkpt>
      <trkpt lat="45.83374" lon="4.80565">
        <ele>440</ele>
        <time>2012-09-01T10:30:20Z</time>
      </trkpt>
      <trkpt lat="45.83376" lon="4.80562">
        <ele>440</ele>
        <time>2012-09-01T10:30:21Z</time>
      </trkpt>
      <trkpt lat="45.83377" lon="4.8056">
        <ele>441</ele>
        <time>2012-09-01T10:30:22Z</time>
      </trkpt>
      <trkpt lat="45.83379" lon="4.80559">
        <ele>441</ele>
        <time>2012-09-01T10:30:23Z</time>
      </trkpt>
      <trkpt lat="45.8338" lon="4.80559">
        <ele>441</ele>
        <time>2012-09-01T10:30:24Z</time>
      </trkpt>
      <trkpt lat="45.83381" lon="4.80559">
        <ele>441</ele>
        <time>2012-09-01T10:30:25Z</time>
      </trkpt>
      <trkpt lat="45.83397" lon="4.80553">
        <ele>444</ele>
        <time>2012-09-01T10:30:38Z</time>
      </trkpt>
      <trkpt lat="45.83411" lon="4.80553">
        <ele>446</ele>
        <time>2012-09-01T10:30:48Z</time>
      </trkpt>
      <trkpt lat="45.83423" lon="4.80548">
        <ele>448</ele>
        <time>2012-09-01T10:30:59Z</time>
      </trkpt>
      <trkpt lat="45.83424" lon="4.80546">
        <ele>448</ele>
        <time>2012-09-01T10:31:00Z</time>
      </trkpt>
      <trkpt lat="45.83433" lon="4.80537">
        <ele>450</ele>
        <time>2012-09-01T10:31:08Z</time>
      </trkpt>
      <trkpt lat="45.83446" lon="4.80527">
        <ele>451</ele>
        <time>2012-09-01T10:31:21Z</time>
      </trkpt>
      <trkpt lat="45.8345" lon="4.80527">
        <ele>452</ele>
        <time>2012-09-01T10:31:23Z</time>
      </trkpt>
      <trkpt lat="45.83457" lon="4.80526">
        <ele>452</ele>
        <time>2012-09-01T10:31:31Z</time>
      </trkpt>
      <trkpt lat="45.8347" lon="4.80525">
        <ele>453</ele>
        <time>2012-09-01T10:31:41Z</time>
      </trkpt>
      <trkpt lat="45.83476" lon="4.80523">
        <ele>454</ele>
        <time>2012-09-01T10:31:45Z</time>
      </trkpt>
      <trkpt lat="45.83486" lon="4.80518">
        <ele>455</ele>
        <time>2012-09-01T10:31:52Z</time>
      </trkpt>
      <trkpt lat="45.83487" lon="4.80517">
        <ele>455</ele>
        <time>2012-09-01T10:31:53Z</time>
      </trkpt>
      <trkpt lat="45.83497" lon="4.80509">
        <ele>457</ele>
        <time>2012-09-01T10:32:04Z</time>
      </trkpt>
      <trkpt lat="45.83499" lon="4.80506">
        <ele>457</ele>
        <time>2012-09-01T10:32:07Z</time>
      </trkpt>
      <trkpt lat="45.835" lon="4.80504">
        <ele>458</ele>
        <time>2012-09-01T10:32:08Z</time>
      </trkpt>
      <trkpt lat="45.83501" lon="4.80503">
        <ele>458</ele>
        <time>2012-09-01T10:32:09Z</time>
      </trkpt>
      <trkpt lat="45.83504" lon="4.80493">
        <ele>459</ele>
        <time>2012-09-01T10:32:19Z</time>
      </trkpt>
      <trkpt lat="45.83511" lon="4.80487">
        <ele>459</ele>
        <time>2012-09-01T10:32:25Z</time>
      </trkpt>
      <trkpt lat="45.83513" lon="4.80485">
        <ele>460</ele>
        <time>2012-09-01T10:32:26Z</time>
      </trkpt>
      <trkpt lat="45.83514" lon="4.80484">
        <ele>459</ele>
        <time>2012-09-01T10:32:27Z</time>
      </trkpt>
      <trkpt lat="45.83532" lon="4.80472">
        <ele>462</ele>
        <time>2012-09-01T10:32:40Z</time>
      </trkpt>
      <trkpt lat="45.83534" lon="4.8047">
        <ele>462</ele>
        <time>2012-09-01T10:32:41Z</time>
      </trkpt>
      <trkpt lat="45.83538" lon="4.80467">
        <ele>462</ele>
        <time>2012-09-01T10:32:44Z</time>
      </trkpt>
      <trkpt lat="45.83545" lon="4.80466">
        <ele>463</ele>
        <time>2012-09-01T10:32:50Z</time>
      </trkpt>
      <trkpt lat="45.83553" lon="4.80462">
        <ele>464</ele>
        <time>2012-09-01T10:32:58Z</time>
      </trkpt>
      <trkpt lat="45.83553" lon="4.80461">
        <ele>465</ele>
        <time>2012-09-01T10:32:59Z</time>
      </trkpt>
      <trkpt lat="45.83565" lon="4.80449">
        <ele>467</ele>
        <time>2012-09-01T10:33:12Z</time>
      </trkpt>
      <trkpt lat="45.8357" lon="4.80446">
        <ele>467</ele>
        <time>2012-09-01T10:33:16Z</time>
      </trkpt>
      <trkpt lat="45.83586" lon="4.80442">
        <ele>468</ele>
        <time>2012-09-01T10:33:26Z</time>
      </trkpt>
      <trkpt lat="45.83587" lon="4.8044">
        <ele>468</ele>
        <time>2012-09-01T10:33:27Z</time>
      </trkpt>
      <trkpt lat="45.83588" lon="4.80438">
        <ele>468</ele>
        <time>2012-09-01T10:33:28Z</time>
      </trkpt>
      <trkpt lat="45.83593" lon="4.80436">
        <ele>469</ele>
        <time>2012-09-01T10:33:32Z</time>
      </trkpt>
      <trkpt lat="45.83604" lon="4.80434">
        <ele>470</ele>
        <time>2012-09-01T10:33:42Z</time>
      </trkpt>
      <trkpt lat="45.83606" lon="4.80432">
        <ele>470</ele>
        <time>2012-09-01T10:33:43Z</time>
      </trkpt>
      <trkpt lat="45.83609" lon="4.8042">
        <ele>471</ele>
        <time>2012-09-01T10:33:51Z</time>
      </trkpt>
      <trkpt lat="45.83607" lon="4.80412">
        <ele>471</ele>
        <time>2012-09-01T10:33:56Z</time>
      </trkpt>
      <trkpt lat="45.83604" lon="4.80408">
        <ele>471</ele>
        <time>2012-09-01T10:33:59Z</time>
      </trkpt>
      <trkpt lat="45.83594" lon="4.80382">
        <ele>472</ele>
        <time>2012-09-01T10:34:13Z</time>
      </trkpt>
      <trkpt lat="45.83578" lon="4.80376">
        <ele>475</ele>
        <time>2012-09-01T10:34:25Z</time>
      </trkpt>
      <trkpt lat="45.83576" lon="4.80373">
        <ele>475</ele>
        <time>2012-09-01T10:34:28Z</time>
      </trkpt>
      <trkpt lat="45.83568" lon="4.80367">
        <ele>476</ele>
        <time>2012-09-01T10:34:34Z</time>
      </trkpt>
      <trkpt lat="45.83566" lon="4.80366">
        <ele>476</ele>
        <time>2012-09-01T10:34:35Z</time>
      </trkpt>
      <trkpt lat="45.83565" lon="4.80363">
        <ele>476</ele>
        <time>2012-09-01T10:34:36Z</time>
      </trkpt>
      <trkpt lat="45.83552" lon="4.80344">
        <ele>479</ele>
        <time>2012-09-01T10:34:49Z</time>
      </trkpt>
      <trkpt lat="45.83545" lon="4.80333">
        <ele>479</ele>
        <time>2012-09-01T10:34:56Z</time>
      </trkpt>
      <trkpt lat="45.83541" lon="4.80326">
        <ele>480</ele>
        <time>2012-09-01T10:35:01Z</time>
      </trkpt>
      <trkpt lat="45.8353" lon="4.80301">
        <ele>480</ele>
        <time>2012-09-01T10:35:12Z</time>
      </trkpt>
      <trkpt lat="45.83526" lon="4.80294">
        <ele>480</ele>
        <time>2012-09-01T10:35:16Z</time>
      </trkpt>
      <trkpt lat="45.83524" lon="4.80292">
        <ele>480</ele>
        <time>2012-09-01T10:35:17Z</time>
      </trkpt>
      <trkpt lat="45.83514" lon="4.80276">
        <ele>482</ele>
        <time>2012-09-01T10:35:24Z</time>
      </trkpt>
      <trkpt lat="45.83507" lon="4.80253">
        <ele>483</ele>
        <time>2012-09-01T10:35:34Z</time>
      </trkpt>
      <trkpt lat="45.83505" lon="4.80241">
        <ele>483</ele>
        <time>2012-09-01T10:35:39Z</time>
      </trkpt>
      <trkpt lat="45.83505" lon="4.8024">
        <ele>484</ele>
        <time>2012-09-01T10:35:40Z</time>
      </trkpt>
      <trkpt lat="45.83503" lon="4.80217">
        <ele>486</ele>
        <time>2012-09-01T10:35:52Z</time>
      </trkpt>
      <trkpt lat="45.83505" lon="4.802">
        <ele>488</ele>
        <time>2012-09-01T10:36:01Z</time>
      </trkpt>
      <trkpt lat="45.83506" lon="4.80198">
        <ele>488</ele>
        <time>2012-09-01T10:36:02Z</time>
      </trkpt>
      <trkpt lat="45.83507" lon="4.80196">
        <ele>488</ele>
        <time>2012-09-01T10:36:03Z</time>
      </trkpt>
      <trkpt lat="45.83508" lon="4.80192">
        <ele>489</ele>
        <time>2012-09-01T10:36:05Z</time>
      </trkpt>
      <trkpt lat="45.83512" lon="4.80169">
        <ele>491</ele>
        <time>2012-09-01T10:36:16Z</time>
      </trkpt>
      <trkpt lat="45.83514" lon="4.80166">
        <ele>491</ele>
        <time>2012-09-01T10:36:19Z</time>
      </trkpt>
      <trkpt lat="45.83519" lon="4.80155">
        <ele>492</ele>
        <time>2012-09-01T10:36:25Z</time>
      </trkpt>
      <trkpt lat="45.83519" lon="4.80153">
        <ele>493</ele>
        <time>2012-09-01T10:36:26Z</time>
      </trkpt>
      <trkpt lat="45.83524" lon="4.80145">
        <ele>494</ele>
        <time>2012-09-01T10:36:31Z</time>
      </trkpt>
      <trkpt lat="45.83537" lon="4.80133">
        <ele>494</ele>
        <time>2012-09-01T10:36:43Z</time>
      </trkpt>
      <trkpt lat="45.8354" lon="4.80128">
        <ele>494</ele>
        <time>2012-09-01T10:36:47Z</time>
      </trkpt>
      <trkpt lat="45.83554" lon="4.80102">
        <ele>496</ele>
        <time>2012-09-01T10:37:04Z</time>
      </trkpt>
      <trkpt lat="45.8356" lon="4.80094">
        <ele>497</ele>
        <time>2012-09-01T10:37:11Z</time>
      </trkpt>
      <trkpt lat="45.83562" lon="4.80092">
        <ele>496</ele>
        <time>2012-09-01T10:37:13Z</time>
      </trkpt>
      <trkpt lat="45.83562" lon="4.8009">
        <ele>498</ele>
        <time>2012-09-01T10:37:14Z</time>
      </trkpt>
      <trkpt lat="45.83567" lon="4.80083">
        <ele>498</ele>
        <time>2012-09-01T10:37:20Z</time>
      </trkpt>
      <trkpt lat="45.83572" lon="4.80076">
        <ele>499</ele>
        <time>2012-09-01T10:37:26Z</time>
      </trkpt>
      <trkpt lat="45.83573" lon="4.80074">
        <ele>499</ele>
        <time>2012-09-01T10:37:27Z</time>
      </trkpt>
      <trkpt lat="45.83574" lon="4.80074">
        <ele>499</ele>
        <time>2012-09-01T10:37:28Z</time>
      </trkpt>
      <trkpt lat="45.83586" lon="4.8006">
        <ele>500</ele>
        <time>2012-09-01T10:37:40Z</time>
      </trkpt>
      <trkpt lat="45.83594" lon="4.80048">
        <ele>502</ele>
        <time>2012-09-01T10:37:52Z</time>
      </trkpt>
      <trkpt lat="45.83601" lon="4.80041">
        <ele>503</ele>
        <time>2012-09-01T10:37:59Z</time>
      </trkpt>
      <trkpt lat="45.83602" lon="4.80038">
        <ele>503</ele>
        <time>2012-09-01T10:38:01Z</time>
      </trkpt>
      <trkpt lat="45.83608" lon="4.80025">
        <ele>505</ele>
        <time>2012-09-01T10:38:13Z</time>
      </trkpt>
      <trkpt lat="45.83618" lon="4.80015">
        <ele>506</ele>
        <time>2012-09-01T10:38:24Z</time>
      </trkpt>
      <trkpt lat="45.83617" lon="4.80013">
        <ele>506</ele>
        <time>2012-09-01T10:38:26Z</time>
      </trkpt>
      <trkpt lat="45.83609" lon="4.8001">
        <ele>508</ele>
        <time>2012-09-01T10:38:38Z</time>
      </trkpt>
      <trkpt lat="45.83608" lon="4.80011">
        <ele>508</ele>
        <time>2012-09-01T10:38:39Z</time>
      </trkpt>
      <trkpt lat="45.83592" lon="4.80021">
        <ele>506</ele>
        <time>2012-09-01T10:38:50Z</time>
      </trkpt>
      <trkpt lat="45.83591" lon="4.80021">
        <ele>506</ele>
        <time>2012-09-01T10:38:51Z</time>
      </trkpt>
      <trkpt lat="45.83585" lon="4.8002">
        <ele>506</ele>
        <time>2012-09-01T10:38:59Z</time>
      </trkpt>
      <trkpt lat="45.83575" lon="4.80012">
        <ele>506</ele>
        <time>2012-09-01T10:39:13Z</time>
      </trkpt>
      <trkpt lat="45.83569" lon="4.79994">
        <ele>510</ele>
        <time>2012-09-01T10:39:28Z</time>
      </trkpt>
      <trkpt lat="45.83567" lon="4.79981">
        <ele>511</ele>
        <time>2012-09-01T10:39:35Z</time>
      </trkpt>
      <trkpt lat="45.83561" lon="4.79959">
        <ele>514</ele>
        <time>2012-09-01T10:39:45Z</time>
      </trkpt>
      <trkpt lat="45.83562" lon="4.79955">
        <ele>515</ele>
        <time>2012-09-01T10:39:47Z</time>
      </trkpt>
      <trkpt lat="45.83567" lon="4.79947">
        <ele>516</ele>
        <time>2012-09-01T10:39:57Z</time>
      </trkpt>
      <trkpt lat="45.83567" lon="4.79927">
        <ele>518</ele>
        <time>2012-09-01T10:40:09Z</time>
      </trkpt>
      <trkpt lat="45.83568" lon="4.79918">
        <ele>517</ele>
        <time>2012-09-01T10:40:23Z</time>
      </trkpt>
      <trkpt lat="45.83562" lon="4.79914">
        <ele>517</ele>
        <time>2012-09-01T10:40:37Z</time>
      </trkpt>
      <trkpt lat="45.83558" lon="4.79916">
        <ele>517</ele>
        <time>2012-09-01T10:40:50Z</time>
      </trkpt>
      <trkpt lat="45.83562" lon="4.79916">
        <ele>517</ele>
        <time>2012-09-01T10:40:55Z</time>
      </trkpt>
      <trkpt lat="45.83561" lon="4.79911">
        <ele>517</ele>
        <time>2012-09-01T10:40:59Z</time>
      </trkpt>
      <trkpt lat="45.8356" lon="4.79907">
        <ele>514</ele>
        <time>2012-09-01T10:41:01Z</time>
      </trkpt>
      <trkpt lat="45.83552" lon="4.79903">
        <ele>513</ele>
        <time>2012-09-01T10:41:09Z</time>
      </trkpt>
      <trkpt lat="45.83528" lon="4.79905">
        <ele>513</ele>
        <time>2012-09-01T10:41:20Z</time>
      </trkpt>
      <trkpt lat="45.83521" lon="4.79902">
        <ele>511</ele>
        <time>2012-09-01T10:41:33Z</time>
      </trkpt>
      <trkpt lat="45.83516" lon="4.79904">
        <ele>511</ele>
        <time>2012-09-01T10:41:38Z</time>
      </trkpt>
      <trkpt lat="45.8351" lon="4.79907">
        <ele>511</ele>
        <time>2012-09-01T10:41:42Z</time>
      </trkpt>
      <trkpt lat="45.83508" lon="4.79907">
        <ele>511</ele>
        <time>2012-09-01T10:41:44Z</time>
      </trkpt>
      <trkpt lat="45.83485" lon="4.79908">
        <ele>510</ele>
        <time>2012-09-01T10:41:53Z</time>
      </trkpt>
      <trkpt lat="45.8344" lon="4.79926">
        <ele>509</ele>
        <time>2012-09-01T10:42:05Z</time>
      </trkpt>
      <trkpt lat="45.83429" lon="4.7993">
        <ele>507</ele>
        <time>2012-09-01T10:42:08Z</time>
      </trkpt>
      <trkpt lat="45.83424" lon="4.79932">
        <ele>507</ele>
        <time>2012-09-01T10:42:09Z</time>
      </trkpt>
      <trkpt lat="45.83412" lon="4.79936">
        <ele>506</ele>
        <time>2012-09-01T10:42:12Z</time>
      </trkpt>
      <trkpt lat="45.83393" lon="4.79943">
        <ele>506</ele>
        <time>2012-09-01T10:42:16Z</time>
      </trkpt>
      <trkpt lat="45.83381" lon="4.7995">
        <ele>505</ele>
        <time>2012-09-01T10:42:19Z</time>
      </trkpt>
      <trkpt lat="45.83342" lon="4.79966">
        <ele>503</ele>
        <time>2012-09-01T10:42:30Z</time>
      </trkpt>
      <trkpt lat="45.83313" lon="4.79972">
        <ele>503</ele>
        <time>2012-09-01T10:42:37Z</time>
      </trkpt>
      <trkpt lat="45.83309" lon="4.79971">
        <ele>503</ele>
        <time>2012-09-01T10:42:38Z</time>
      </trkpt>
      <trkpt lat="45.83307" lon="4.79969">
        <ele>503</ele>
        <time>2012-09-01T10:42:39Z</time>
      </trkpt>
      <trkpt lat="45.83305" lon="4.79969">
        <ele>503</ele>
        <time>2012-09-01T10:42:40Z</time>
      </trkpt>
      <trkpt lat="45.83303" lon="4.79971">
        <ele>503</ele>
        <time>2012-09-01T10:42:41Z</time>
      </trkpt>
      <trkpt lat="45.83302" lon="4.79973">
        <ele>503</ele>
        <time>2012-09-01T10:42:42Z</time>
      </trkpt>
      <trkpt lat="45.833" lon="4.79975">
        <ele>503</ele>
        <time>2012-09-01T10:42:43Z</time>
      </trkpt>
      <trkpt lat="45.83297" lon="4.79975">
        <ele>503</ele>
        <time>2012-09-01T10:42:44Z</time>
      </trkpt>
      <trkpt lat="45.83278" lon="4.79975">
        <ele>504</ele>
        <time>2012-09-01T10:42:50Z</time>
      </trkpt>
      <trkpt lat="45.8326" lon="4.79991">
        <ele>501</ele>
        <time>2012-09-01T10:42:56Z</time>
      </trkpt>
      <trkpt lat="45.83242" lon="4.80001">
        <ele>502</ele>
        <time>2012-09-01T10:43:04Z</time>
      </trkpt>
      <trkpt lat="45.83239" lon="4.79998">
        <ele>502</ele>
        <time>2012-09-01T10:43:13Z</time>
      </trkpt>
      <trkpt lat="45.83242" lon="4.79991">
        <ele>503</ele>
        <time>2012-09-01T10:43:22Z</time>
      </trkpt>
      <trkpt lat="45.83239" lon="4.79983">
        <ele>504</ele>
        <time>2012-09-01T10:43:36Z</time>
      </trkpt>
      <trkpt lat="45.83227" lon="4.79972">
        <ele>506</ele>
        <time>2012-09-01T10:43:48Z</time>
      </trkpt>
      <trkpt lat="45.83226" lon="4.79972">
        <ele>506</ele>
        <time>2012-09-01T10:43:49Z</time>
      </trkpt>
      <trkpt lat="45.83217" lon="4.79968">
        <ele>508</ele>
        <time>2012-09-01T10:43:58Z</time>
      </trkpt>
      <trkpt lat="45.83206" lon="4.79969">
        <ele>508</ele>
        <time>2012-09-01T10:44:12Z</time>
      </trkpt>
      <trkpt lat="45.83199" lon="4.79969">
        <ele>508</ele>
        <time>2012-09-01T10:44:27Z</time>
      </trkpt>
      <trkpt lat="45.83192" lon="4.7997">
        <ele>511</ele>
        <time>2012-09-01T10:44:33Z</time>
      </trkpt>
      <trkpt lat="45.83188" lon="4.79955">
        <ele>514</ele>
        <time>2012-09-01T10:44:45Z</time>
      </trkpt>
      <trkpt lat="45.83179" lon="4.7994">
        <ele>516</ele>
        <time>2012-09-01T10:45:01Z</time>
      </trkpt>
      <trkpt lat="45.83176" lon="4.79938">
        <ele>518</ele>
        <time>2012-09-01T10:45:06Z</time>
      </trkpt>
      <trkpt lat="45.83168" lon="4.79937">
        <ele>520</ele>
        <time>2012-09-01T10:45:21Z</time>
      </trkpt>
      <trkpt lat="45.83164" lon="4.79936">
        <ele>523</ele>
        <time>2012-09-01T10:45:37Z</time>
      </trkpt>
      <trkpt lat="45.83154" lon="4.79934">
        <ele>526</ele>
        <time>2012-09-01T10:45:47Z</time>
      </trkpt>
      <trkpt lat="45.83153" lon="4.79932">
        <ele>526</ele>
        <time>2012-09-01T10:46:01Z</time>
      </trkpt>
      <trkpt lat="45.83147" lon="4.79933">
        <ele>528</ele>
        <time>2012-09-01T10:46:21Z</time>
      </trkpt>
      <trkpt lat="45.83141" lon="4.79934">
        <ele>530</ele>
        <time>2012-09-01T10:46:24Z</time>
      </trkpt>
      <trkpt lat="45.83132" lon="4.79935">
        <ele>532</ele>
        <time>2012-09-01T10:46:32Z</time>
      </trkpt>
      <trkpt lat="45.83119" lon="4.7993">
        <ele>535</ele>
        <time>2012-09-01T10:46:42Z</time>
      </trkpt>
      <trkpt lat="45.83117" lon="4.79931">
        <ele>535</ele>
        <time>2012-09-01T10:46:43Z</time>
      </trkpt>
      <trkpt lat="45.83115" lon="4.79931">
        <ele>534</ele>
        <time>2012-09-01T10:46:44Z</time>
      </trkpt>
      <trkpt lat="45.83114" lon="4.79931">
        <ele>533</ele>
        <time>2012-09-01T10:46:45Z</time>
      </trkpt>
      <trkpt lat="45.83112" lon="4.79928">
        <ele>535</ele>
        <time>2012-09-01T10:46:49Z</time>
      </trkpt>
      <trkpt lat="45.831" lon="4.7993">
        <ele>535</ele>
        <time>2012-09-01T10:47:00Z</time>
      </trkpt>
      <trkpt lat="45.83098" lon="4.7993">
        <ele>534</ele>
        <time>2012-09-01T10:47:02Z</time>
      </trkpt>
      <trkpt lat="45.83094" lon="4.79928">
        <ele>535</ele>
        <time>2012-09-01T10:47:07Z</time>
      </trkpt>
      <trkpt lat="45.83093" lon="4.79928">
        <ele>536</ele>
        <time>2012-09-01T10:47:08Z</time>
      </trkpt>
      <trkpt lat="45.83079" lon="4.79935">
        <ele>535</ele>
        <time>2012-09-01T10:47:17Z</time>
      </trkpt>
      <trkpt lat="45.83068" lon="4.79938">
        <ele>536</ele>
        <time>2012-09-01T10:47:24Z</time>
      </trkpt>
      <trkpt lat="45.8305" lon="4.79944">
        <ele>534</ele>
        <time>2012-09-01T10:47:33Z</time>
      </trkpt>
      <trkpt lat="45.83031" lon="4.79948">
        <ele>535</ele>
        <time>2012-09-01T10:47:42Z</time>
      </trkpt>
      <trkpt lat="45.83021" lon="4.79948">
        <ele>534</ele>
        <time>2012-09-01T10:47:49Z</time>
      </trkpt>
      <trkpt lat="45.83012" lon="4.79952">
        <ele>533</ele>
        <time>2012-09-01T10:47:57Z</time>
      </trkpt>
      <trkpt lat="45.83009" lon="4.79959">
        <ele>537</ele>
        <time>2012-09-01T10:48:06Z</time>
      </trkpt>
      <trkpt lat="45.83009" lon="4.79959">
        <ele>536</ele>
        <time>2012-09-01T10:48:33Z</time>
      </trkpt>
      <trkpt lat="45.82999" lon="4.79968">
        <ele>533</ele>
        <time>2012-09-01T10:49:22Z</time>
      </trkpt>
      <trkpt lat="45.8297" lon="4.79987">
        <ele>530</ele>
        <time>2012-09-01T10:49:27Z</time>
      </trkpt>
      <trkpt lat="45.82959" lon="4.79996">
        <ele>528</ele>
        <time>2012-09-01T10:49:29Z</time>
      </trkpt>
      <trkpt lat="45.82947" lon="4.80006">
        <ele>527</ele>
        <time>2012-09-01T10:49:31Z</time>
      </trkpt>
      <trkpt lat="45.8293" lon="4.80019">
        <ele>525</ele>
        <time>2012-09-01T10:49:34Z</time>
      </trkpt>
      <trkpt lat="45.82912" lon="4.8003">
        <ele>523</ele>
        <time>2012-09-01T10:49:37Z</time>
      </trkpt>
      <trkpt lat="45.82907" lon="4.80036">
        <ele>523</ele>
        <time>2012-09-01T10:49:38Z</time>
      </trkpt>
      <trkpt lat="45.82894" lon="4.80051">
        <ele>520</ele>
        <time>2012-09-01T10:49:41Z</time>
      </trkpt>
      <trkpt lat="45.82881" lon="4.80063">
        <ele>517</ele>
        <time>2012-09-01T10:49:44Z</time>
      </trkpt>
      <trkpt lat="45.82878" lon="4.80068">
        <ele>517</ele>
        <time>2012-09-01T10:49:45Z</time>
      </trkpt>
      <trkpt lat="45.82868" lon="4.80088">
        <ele>514</ele>
        <time>2012-09-01T10:49:48Z</time>
      </trkpt>
      <trkpt lat="45.82858" lon="4.80106">
        <ele>511</ele>
        <time>2012-09-01T10:49:50Z</time>
      </trkpt>
      <trkpt lat="45.82852" lon="4.80115">
        <ele>511</ele>
        <time>2012-09-01T10:49:51Z</time>
      </trkpt>
      <trkpt lat="45.82841" lon="4.8013">
        <ele>507</ele>
        <time>2012-09-01T10:49:54Z</time>
      </trkpt>
      <trkpt lat="45.82834" lon="4.80135">
        <ele>505</ele>
        <time>2012-09-01T10:49:57Z</time>
      </trkpt>
      <trkpt lat="45.82831" lon="4.80135">
        <ele>504</ele>
        <time>2012-09-01T10:49:58Z</time>
      </trkpt>
      <trkpt lat="45.82829" lon="4.80134">
        <ele>504</ele>
        <time>2012-09-01T10:49:59Z</time>
      </trkpt>
      <trkpt lat="45.8281" lon="4.80128">
        <ele>502</ele>
        <time>2012-09-01T10:50:04Z</time>
      </trkpt>
      <trkpt lat="45.82806" lon="4.80129">
        <ele>502</ele>
        <time>2012-09-01T10:50:05Z</time>
      </trkpt>
      <trkpt lat="45.82802" lon="4.80132">
        <ele>501</ele>
        <time>2012-09-01T10:50:06Z</time>
      </trkpt>
      <trkpt lat="45.82787" lon="4.8014">
        <ele>497</ele>
        <time>2012-09-01T10:50:09Z</time>
      </trkpt>
      <trkpt lat="45.82775" lon="4.80147">
        <ele>494</ele>
        <time>2012-09-01T10:50:11Z</time>
      </trkpt>
      <trkpt lat="45.82768" lon="4.80151">
        <ele>492</ele>
        <time>2012-09-01T10:50:12Z</time>
      </trkpt>
      <trkpt lat="45.82749" lon="4.80159">
        <ele>489</ele>
        <time>2012-09-01T10:50:15Z</time>
      </trkpt>
      <trkpt lat="45.82735" lon="4.80165">
        <ele>485</ele>
        <time>2012-09-01T10:50:18Z</time>
      </trkpt>
      <trkpt lat="45.82731" lon="4.80168">
        <ele>485</ele>
        <time>2012-09-01T10:50:19Z</time>
      </trkpt>
      <trkpt lat="45.82716" lon="4.80182">
        <ele>480</ele>
        <time>2012-09-01T10:50:22Z</time>
      </trkpt>
      <trkpt lat="45.82699" lon="4.80189">
        <ele>477</ele>
        <time>2012-09-01T10:50:26Z</time>
      </trkpt>
      <trkpt lat="45.82695" lon="4.80191">
        <ele>476</ele>
        <time>2012-09-01T10:50:27Z</time>
      </trkpt>
      <trkpt lat="45.82692" lon="4.80195">
        <ele>475</ele>
        <time>2012-09-01T10:50:28Z</time>
      </trkpt>
      <trkpt lat="45.82688" lon="4.80197">
        <ele>475</ele>
        <time>2012-09-01T10:50:29Z</time>
      </trkpt>
      <trkpt lat="45.82675" lon="4.80208">
        <ele>472</ele>
        <time>2012-09-01T10:50:34Z</time>
      </trkpt>
      <trkpt lat="45.82669" lon="4.80208">
        <ele>470</ele>
        <time>2012-09-01T10:50:36Z</time>
      </trkpt>
      <trkpt lat="45.82663" lon="4.80213">
        <ele>469</ele>
        <time>2012-09-01T10:50:38Z</time>
      </trkpt>
      <trkpt lat="45.8265" lon="4.80225">
        <ele>465</ele>
        <time>2012-09-01T10:50:42Z</time>
      </trkpt>
      <trkpt lat="45.82647" lon="4.80229">
        <ele>465</ele>
        <time>2012-09-01T10:50:43Z</time>
      </trkpt>
      <trkpt lat="45.82643" lon="4.80241">
        <ele>464</ele>
        <time>2012-09-01T10:50:48Z</time>
      </trkpt>
      <trkpt lat="45.82644" lon="4.80242">
        <ele>465</ele>
        <time>2012-09-01T10:51:01Z</time>
      </trkpt>
      <trkpt lat="45.82654" lon="4.8025">
        <ele>466</ele>
        <time>2012-09-01T10:51:21Z</time>
      </trkpt>
      <trkpt lat="45.82656" lon="4.80264">
        <ele>466</ele>
        <time>2012-09-01T10:51:26Z</time>
      </trkpt>
      <trkpt lat="45.82655" lon="4.80266">
        <ele>466</ele>
        <time>2012-09-01T10:51:27Z</time>
      </trkpt>
      <trkpt lat="45.82657" lon="4.80274">
        <ele>465</ele>
        <time>2012-09-01T10:51:36Z</time>
      </trkpt>
      <trkpt lat="45.82656" lon="4.8028">
        <ele>465</ele>
        <time>2012-09-01T10:51:50Z</time>
      </trkpt>
      <trkpt lat="45.82662" lon="4.80282">
        <ele>465</ele>
        <time>2012-09-01T10:51:54Z</time>
      </trkpt>
      <trkpt lat="45.82664" lon="4.80282">
        <ele>465</ele>
        <time>2012-09-01T10:51:55Z</time>
      </trkpt>
      <trkpt lat="45.82666" lon="4.80279">
        <ele>465</ele>
        <time>2012-09-01T10:51:56Z</time>
      </trkpt>
      <trkpt lat="45.82667" lon="4.80277">
        <ele>465</ele>
        <time>2012-09-01T10:51:57Z</time>
      </trkpt>
      <trkpt lat="45.82664" lon="4.80275">
        <ele>466</ele>
        <time>2012-09-01T10:51:59Z</time>
      </trkpt>
      <trkpt lat="45.8265" lon="4.8025">
        <ele>466</ele>
        <time>2012-09-01T10:52:08Z</time>
      </trkpt>
      <trkpt lat="45.82649" lon="4.80249">
        <ele>465</ele>
        <time>2012-09-01T10:52:09Z</time>
      </trkpt>
      <trkpt lat="45.82647" lon="4.80247">
        <ele>465</ele>
        <time>2012-09-01T10:52:10Z</time>
      </trkpt>
      <trkpt lat="45.82645" lon="4.80247">
        <ele>465</ele>
        <time>2012-09-01T10:52:11Z</time>
      </trkpt>
      <trkpt lat="45.82637" lon="4.80245">
        <ele>463</ele>
        <time>2012-09-01T10:52:16Z</time>
      </trkpt>
      <trkpt lat="45.82628" lon="4.80251">
        <ele>463</ele>
        <time>2012-09-01T10:52:19Z</time>
      </trkpt>
      <trkpt lat="45.82625" lon="4.80251">
        <ele>461</ele>
        <time>2012-09-01T10:52:20Z</time>
      </trkpt>
      <trkpt lat="45.82623" lon="4.80252">
        <ele>461</ele>
        <time>2012-09-01T10:52:21Z</time>
      </trkpt>
      <trkpt lat="45.82622" lon="4.80255">
        <ele>460</ele>
        <time>2012-09-01T10:52:22Z</time>
      </trkpt>
      <trkpt lat="45.82618" lon="4.80259">
        <ele>460</ele>
        <time>2012-09-01T10:52:23Z</time>
      </trkpt>
      <trkpt lat="45.82602" lon="4.80272">
        <ele>455</ele>
        <time>2012-09-01T10:52:28Z</time>
      </trkpt>
      <trkpt lat="45.82585" lon="4.80291">
        <ele>452</ele>
        <time>2012-09-01T10:52:33Z</time>
      </trkpt>
      <trkpt lat="45.82584" lon="4.80294">
        <ele>451</ele>
        <time>2012-09-01T10:52:34Z</time>
      </trkpt>
      <trkpt lat="45.82578" lon="4.80301">
        <ele>451</ele>
        <time>2012-09-01T10:52:44Z</time>
      </trkpt>
      <trkpt lat="45.82575" lon="4.80296">
        <ele>450</ele>
        <time>2012-09-01T10:52:50Z</time>
      </trkpt>
      <trkpt lat="45.82574" lon="4.80293">
        <ele>449</ele>
        <time>2012-09-01T10:52:51Z</time>
      </trkpt>
      <trkpt lat="45.82574" lon="4.8029">
        <ele>449</ele>
        <time>2012-09-01T10:52:52Z</time>
      </trkpt>
      <trkpt lat="45.82573" lon="4.80275">
        <ele>446</ele>
        <time>2012-09-01T10:52:55Z</time>
      </trkpt>
      <trkpt lat="45.82572" lon="4.8026">
        <ele>444</ele>
        <time>2012-09-01T10:52:58Z</time>
      </trkpt>
      <trkpt lat="45.82572" lon="4.80254">
        <ele>443</ele>
        <time>2012-09-01T10:52:59Z</time>
      </trkpt>
      <trkpt lat="45.8257" lon="4.8025">
        <ele>441</ele>
        <time>2012-09-01T10:53:00Z</time>
      </trkpt>
      <trkpt lat="45.82568" lon="4.80248">
        <ele>440</ele>
        <time>2012-09-01T10:53:01Z</time>
      </trkpt>
      <trkpt lat="45.82566" lon="4.80247">
        <ele>440</ele>
        <time>2012-09-01T10:53:02Z</time>
      </trkpt>
      <trkpt lat="45.82564" lon="4.80247">
        <ele>439</ele>
        <time>2012-09-01T10:53:03Z</time>
      </trkpt>
      <trkpt lat="45.82561" lon="4.80249">
        <ele>438</ele>
        <time>2012-09-01T10:53:04Z</time>
      </trkpt>
      <trkpt lat="45.82557" lon="4.80251">
        <ele>437</ele>
        <time>2012-09-01T10:53:05Z</time>
      </trkpt>
      <trkpt lat="45.82552" lon="4.80255">
        <ele>436</ele>
        <time>2012-09-01T10:53:06Z</time>
      </trkpt>
      <trkpt lat="45.8252" lon="4.80277">
        <ele>433</ele>
        <time>2012-09-01T10:53:10Z</time>
      </trkpt>
      <trkpt lat="45.82496" lon="4.80294">
        <ele>429</ele>
        <time>2012-09-01T10:53:13Z</time>
      </trkpt>
      <trkpt lat="45.82472" lon="4.80314">
        <ele>426</ele>
        <time>2012-09-01T10:53:16Z</time>
      </trkpt>
      <trkpt lat="45.82437" lon="4.80344">
        <ele>423</ele>
        <time>2012-09-01T10:53:21Z</time>
      </trkpt>
      <trkpt lat="45.82432" lon="4.80352">
        <ele>423</ele>
        <time>2012-09-01T10:53:22Z</time>
      </trkpt>
      <trkpt lat="45.82413" lon="4.80384">
        <ele>421</ele>
        <time>2012-09-01T10:53:26Z</time>
      </trkpt>
      <trkpt lat="45.82408" lon="4.8039">
        <ele>420</ele>
        <time>2012-09-01T10:53:27Z</time>
      </trkpt>
      <trkpt lat="45.82403" lon="4.80401">
        <ele>419</ele>
        <time>2012-09-01T10:53:30Z</time>
      </trkpt>
      <trkpt lat="45.82395" lon="4.80433">
        <ele>417</ele>
        <time>2012-09-01T10:53:36Z</time>
      </trkpt>
      <trkpt lat="45.82394" lon="4.80453">
        <ele>415</ele>
        <time>2012-09-01T10:53:39Z</time>
      </trkpt>
      <trkpt lat="45.82392" lon="4.8046">
        <ele>414</ele>
        <time>2012-09-01T10:53:40Z</time>
      </trkpt>
      <trkpt lat="45.82386" lon="4.80485">
        <ele>412</ele>
        <time>2012-09-01T10:53:43Z</time>
      </trkpt>
      <trkpt lat="45.82383" lon="4.80494">
        <ele>411</ele>
        <time>2012-09-01T10:53:44Z</time>
      </trkpt>
      <trkpt lat="45.82376" lon="4.8052">
        <ele>408</ele>
        <time>2012-09-01T10:53:47Z</time>
      </trkpt>
      <trkpt lat="45.82372" lon="4.80543">
        <ele>404</ele>
        <time>2012-09-01T10:53:50Z</time>
      </trkpt>
      <trkpt lat="45.82369" lon="4.8055">
        <ele>403</ele>
        <time>2012-09-01T10:53:51Z</time>
      </trkpt>
      <trkpt lat="45.82363" lon="4.80574">
        <ele>401</ele>
        <time>2012-09-01T10:53:54Z</time>
      </trkpt>
      <trkpt lat="45.82363" lon="4.80582">
        <ele>400</ele>
        <time>2012-09-01T10:53:55Z</time>
      </trkpt>
      <trkpt lat="45.82361" lon="4.80616">
        <ele>396</ele>
        <time>2012-09-01T10:53:59Z</time>
      </trkpt>
      <trkpt lat="45.82359" lon="4.80643">
        <ele>392</ele>
        <time>2012-09-01T10:54:02Z</time>
      </trkpt>
      <trkpt lat="45.82358" lon="4.80651">
        <ele>392</ele>
        <time>2012-09-01T10:54:03Z</time>
      </trkpt>
      <trkpt lat="45.82353" lon="4.80669">
        <ele>388</ele>
        <time>2012-09-01T10:54:07Z</time>
      </trkpt>
      <trkpt lat="45.82355" lon="4.8067">
        <ele>388</ele>
        <time>2012-09-01T10:54:44Z</time>
      </trkpt>
      <trkpt lat="45.82357" lon="4.80674">
        <ele>388</ele>
        <time>2012-09-01T10:54:55Z</time>
      </trkpt>
      <trkpt lat="45.82358" lon="4.80676">
        <ele>388</ele>
        <time>2012-09-01T10:54:56Z</time>
      </trkpt>
      <trkpt lat="45.82361" lon="4.80685">
        <ele>388</ele>
        <time>2012-09-01T10:54:59Z</time>
      </trkpt>
      <trkpt lat="45.82363" lon="4.80686">
        <ele>388</ele>
        <time>2012-09-01T10:55:00Z</time>
      </trkpt>
      <trkpt lat="45.82378" lon="4.80706">
        <ele>386</ele>
        <time>2012-09-01T10:55:07Z</time>
      </trkpt>
      <trkpt lat="45.82379" lon="4.80713">
        <ele>386</ele>
        <time>2012-09-01T10:55:08Z</time>
      </trkpt>
      <trkpt lat="45.82378" lon="4.80721">
        <ele>384</ele>
        <time>2012-09-01T10:55:09Z</time>
      </trkpt>
      <trkpt lat="45.82376" lon="4.8073">
        <ele>384</ele>
        <time>2012-09-01T10:55:10Z</time>
      </trkpt>
      <trkpt lat="45.82372" lon="4.80738">
        <ele>383</ele>
        <time>2012-09-01T10:55:11Z</time>
      </trkpt>
      <trkpt lat="45.82369" lon="4.80762">
        <ele>381</ele>
        <time>2012-09-01T10:55:13Z</time>
      </trkpt>
      <trkpt lat="45.82367" lon="4.80779">
        <ele>377</ele>
        <time>2012-09-01T10:55:15Z</time>
      </trkpt>
      <trkpt lat="45.82366" lon="4.80788">
        <ele>376</ele>
        <time>2012-09-01T10:55:17Z</time>
      </trkpt>
      <trkpt lat="45.82366" lon="4.8079">
        <ele>376</ele>
        <time>2012-09-01T10:55:18Z</time>
      </trkpt>
      <trkpt lat="45.82367" lon="4.80792">
        <ele>376</ele>
        <time>2012-09-01T10:55:19Z</time>
      </trkpt>
      <trkpt lat="45.82369" lon="4.80793">
        <ele>376</ele>
        <time>2012-09-01T10:55:20Z</time>
      </trkpt>
      <trkpt lat="45.82371" lon="4.80801">
        <ele>375</ele>
        <time>2012-09-01T10:55:31Z</time>
      </trkpt>
      <trkpt lat="45.82371" lon="4.80801">
        <ele>375</ele>
        <time>2012-09-01T10:55:52Z</time>
      </trkpt>
      <trkpt lat="45.82371" lon="4.80801">
        <ele>375</ele>
        <time>2012-09-01T10:56:08Z</time>
      </trkpt>
      <trkpt lat="45.82371" lon="4.80804">
        <ele>375</ele>
        <time>2012-09-01T10:56:09Z</time>
      </trkpt>
      <trkpt lat="45.82372" lon="4.80808">
        <ele>375</ele>
        <time>2012-09-01T10:56:10Z</time>
      </trkpt>
      <trkpt lat="45.82371" lon="4.80844">
        <ele>370.9</ele>
      </trkpt>
      <trkpt lat="45.82321" lon="4.80817">
        <ele>369.1</ele>
      </trkpt>
      <trkpt lat="45.82288" lon="4.80786">
        <ele>369.9</ele>
      </trkpt>
      <trkpt lat="45.82268" lon="4.8071">
        <ele>376.2</ele>
      </trkpt>
      <trkpt lat="45.82234" lon="4.80643">
        <ele>375.9</ele>
      </trkpt>
      <trkpt lat="45.82211" lon="4.80604">
        <ele>376.5</ele>
      </trkpt>
      <trkpt lat="45.82182" lon="4.80577">
        <ele>378.3</ele>
      </trkpt>
      <trkpt lat="45.82155" lon="4.80545">
        <ele>375.8</ele>
      </trkpt>
      <trkpt lat="45.82126" lon="4.80501">
        <ele>376.1</ele>
      </trkpt>
      <trkpt lat="45.82114" lon="4.80481">
        <ele>374.9</ele>
      </trkpt>
      <trkpt lat="45.82108" lon="4.80474">
        <ele>374.5</ele>
      </trkpt>
      <trkpt lat="45.82111" lon="4.80475">
        <ele>374.7</ele>
        <time>2012-09-01T07:17:37Z</time>
      </trkpt>
      <trkpt lat="45.8211" lon="4.80454">
        <ele>326</ele>
        <time>2012-09-01T07:17:44Z</time>
      </trkpt>
      <trkpt lat="45.8212" lon="4.80441">
        <ele>325</ele>
        <time>2012-09-01T07:17:52Z</time>
      </trkpt>
      <trkpt lat="45.82132" lon="4.8042">
        <ele>322</ele>
        <time>2012-09-01T07:17:56Z</time>
      </trkpt>
      <trkpt lat="45.82139" lon="4.8041">
        <ele>321</ele>
        <time>2012-09-01T07:17:58Z</time>
      </trkpt>
      <trkpt lat="45.82166" lon="4.80385">
        <ele>318</ele>
        <time>2012-09-01T07:18:04Z</time>
      </trkpt>
      <trkpt lat="45.8219" lon="4.80367">
        <ele>318</ele>
        <time>2012-09-01T07:18:09Z</time>
      </trkpt>
      <trkpt lat="45.82194" lon="4.80363">
        <ele>317</ele>
        <time>2012-09-01T07:18:10Z</time>
      </trkpt>
      <trkpt lat="45.82198" lon="4.8036">
        <ele>317</ele>
        <time>2012-09-01T07:18:11Z</time>
      </trkpt>
      <trkpt lat="45.82203" lon="4.80358">
        <ele>317</ele>
        <time>2012-09-01T07:18:12Z</time>
      </trkpt>
      <trkpt lat="45.82206" lon="4.80357">
        <ele>317</ele>
        <time>2012-09-01T07:18:13Z</time>
      </trkpt>
      <trkpt lat="45.8221" lon="4.80356">
        <ele>317</ele>
        <time>2012-09-01T07:18:14Z</time>
      </trkpt>
      <trkpt lat="45.82235" lon="4.80344">
        <ele>319</ele>
        <time>2012-09-01T07:18:24Z</time>
      </trkpt>
      <trkpt lat="45.82264" lon="4.80329">
        <ele>321</ele>
        <time>2012-09-01T07:18:37Z</time>
      </trkpt>
      <trkpt lat="45.82283" lon="4.8032">
        <ele>324</ele>
        <time>2012-09-01T07:18:46Z</time>
      </trkpt>
      <trkpt lat="45.82306" lon="4.80306">
        <ele>327</ele>
        <time>2012-09-01T07:18:58Z</time>
      </trkpt>
      <trkpt lat="45.82324" lon="4.80271">
        <ele>327</ele>
        <time>2012-09-01T07:19:08Z</time>
      </trkpt>
      <trkpt lat="45.82345" lon="4.80212">
        <ele>325</ele>
        <time>2012-09-01T07:19:19Z</time>
      </trkpt>
      <trkpt lat="45.82364" lon="4.80162">
        <ele>325</ele>
        <time>2012-09-01T07:19:29Z</time>
      </trkpt>
      <trkpt lat="45.82387" lon="4.80109">
        <ele>328</ele>
        <time>2012-09-01T07:19:44Z</time>
      </trkpt>
      <trkpt lat="45.82407" lon="4.80057">
        <ele>331</ele>
        <time>2012-09-01T07:20:01Z</time>
      </trkpt>
      <trkpt lat="45.82418" lon="4.80038">
        <ele>332</ele>
        <time>2012-09-01T07:20:09Z</time>
      </trkpt>
      <trkpt lat="45.82433" lon="4.80008">
        <ele>335</ele>
        <time>2012-09-01T07:20:22Z</time>
      </trkpt>
      <trkpt lat="45.82446" lon="4.79968">
        <ele>339</ele>
        <time>2012-09-01T07:20:38Z</time>
      </trkpt>
      <trkpt lat="45.82458" lon="4.79941">
        <ele>340</ele>
        <time>2012-09-01T07:20:52Z</time>
      </trkpt>
      <trkpt lat="45.82462" lon="4.79936">
        <ele>342</ele>
        <time>2012-09-01T07:20:55Z</time>
      </trkpt>
      <trkpt lat="45.82474" lon="4.79919">
        <ele>345</ele>
        <time>2012-09-01T07:21:06Z</time>
      </trkpt>
      <trkpt lat="45.82476" lon="4.79917">
        <ele>346</ele>
        <time>2012-09-01T07:21:07Z</time>
      </trkpt>
      <trkpt lat="45.82484" lon="4.79907">
        <ele>348</ele>
        <time>2012-09-01T07:21:14Z</time>
      </trkpt>
      <trkpt lat="45.82501" lon="4.79884">
        <ele>349</ele>
        <time>2012-09-01T07:21:30Z</time>
      </trkpt>
      <trkpt lat="45.82502" lon="4.79885">
        <ele>349</ele>
        <time>2012-09-01T07:21:31Z</time>
      </trkpt>
      <trkpt lat="45.82503" lon="4.79886">
        <ele>350</ele>
        <time>2012-09-01T07:21:32Z</time>
      </trkpt>
      <trkpt lat="45.82504" lon="4.79887">
        <ele>350</ele>
        <time>2012-09-01T07:21:33Z</time>
      </trkpt>
      <trkpt lat="45.82505" lon="4.79889">
        <ele>350</ele>
        <time>2012-09-01T07:21:34Z</time>
      </trkpt>
      <trkpt lat="45.82513" lon="4.79928">
        <ele>353</ele>
        <time>2012-09-01T07:21:50Z</time>
      </trkpt>
      <trkpt lat="45.82516" lon="4.79933">
        <ele>353</ele>
        <time>2012-09-01T07:21:53Z</time>
      </trkpt>
      <trkpt lat="45.82533" lon="4.79956">
        <ele>356</ele>
        <time>2012-09-01T07:22:08Z</time>
      </trkpt>
      <trkpt lat="45.82549" lon="4.79982">
        <ele>359</ele>
        <time>2012-09-01T07:22:24Z</time>
      </trkpt>
      <trkpt lat="45.82563" lon="4.8">
        <ele>363</ele>
        <time>2012-09-01T07:22:37Z</time>
      </trkpt>
      <trkpt lat="45.82566" lon="4.80004">
        <ele>363</ele>
        <time>2012-09-01T07:22:40Z</time>
      </trkpt>
      <trkpt lat="45.8257" lon="4.8">
        <ele>364</ele>
        <time>2012-09-01T07:22:44Z</time>
      </trkpt>
      <trkpt lat="45.8257" lon="4.79998">
        <ele>365</ele>
        <time>2012-09-01T07:22:45Z</time>
      </trkpt>
      <trkpt lat="45.82572" lon="4.79992">
        <ele>364</ele>
        <time>2012-09-01T07:22:58Z</time>
      </trkpt>
      <trkpt lat="45.82574" lon="4.79989">
        <ele>366</ele>
        <time>2012-09-01T07:23:52Z</time>
      </trkpt>
      <trkpt lat="45.82585" lon="4.79954">
        <ele>367</ele>
        <time>2012-09-01T07:24:04Z</time>
      </trkpt>
      <trkpt lat="45.82591" lon="4.79905">
        <ele>366</ele>
        <time>2012-09-01T07:24:16Z</time>
      </trkpt>
      <trkpt lat="45.82603" lon="4.79855">
        <ele>367</ele>
        <time>2012-09-01T07:24:29Z</time>
      </trkpt>
      <trkpt lat="45.82605" lon="4.79841">
        <ele>369</ele>
        <time>2012-09-01T07:24:33Z</time>
      </trkpt>
      <trkpt lat="45.82612" lon="4.79803">
        <ele>368</ele>
        <time>2012-09-01T07:24:43Z</time>
      </trkpt>
      <trkpt lat="45.82617" lon="4.79764">
        <ele>368</ele>
        <time>2012-09-01T07:24:52Z</time>
      </trkpt>
      <trkpt lat="45.82628" lon="4.79718">
        <ele>369</ele>
        <time>2012-09-01T07:25:02Z</time>
      </trkpt>
      <trkpt lat="45.82646" lon="4.79691">
        <ele>370</ele>
        <time>2012-09-01T07:25:12Z</time>
      </trkpt>
      <trkpt lat="45.82669" lon="4.79675">
        <ele>374</ele>
        <time>2012-09-01T07:25:25Z</time>
      </trkpt>
      <trkpt lat="45.8269" lon="4.79668">
        <ele>376</ele>
        <time>2012-09-01T07:25:37Z</time>
      </trkpt>
      <trkpt lat="45.82692" lon="4.79666">
        <ele>377</ele>
        <time>2012-09-01T07:25:38Z</time>
      </trkpt>
      <trkpt lat="45.82709" lon="4.79662">
        <ele>379</ele>
        <time>2012-09-01T07:25:48Z</time>
      </trkpt>
      <trkpt lat="45.82723" lon="4.79657">
        <ele>381</ele>
        <time>2012-09-01T07:25:56Z</time>
      </trkpt>
      <trkpt lat="45.82743" lon="4.79647">
        <ele>383</ele>
        <time>2012-09-01T07:26:08Z</time>
      </trkpt>
      <trkpt lat="45.82752" lon="4.79631">
        <ele>386</ele>
        <time>2012-09-01T07:26:13Z</time>
      </trkpt>
      <trkpt lat="45.8275" lon="4.79629">
        <ele>385</ele>
        <time>2012-09-01T07:26:14Z</time>
      </trkpt>
      <trkpt lat="45.82745" lon="4.7963">
        <ele>386</ele>
        <time>2012-09-01T07:26:17Z</time>
      </trkpt>
      <trkpt lat="45.82742" lon="4.79632">
        <ele>386</ele>
        <time>2012-09-01T07:26:18Z</time>
      </trkpt>
      <trkpt lat="45.82724" lon="4.79637">
        <ele>386</ele>
        <time>2012-09-01T07:26:27Z</time>
      </trkpt>
      <trkpt lat="45.82723" lon="4.79638">
        <ele>386</ele>
        <time>2012-09-01T07:26:28Z</time>
      </trkpt>
      <trkpt lat="45.82722" lon="4.79639">
        <ele>386</ele>
        <time>2012-09-01T07:26:29Z</time>
      </trkpt>
      <trkpt lat="45.82716" lon="4.79639">
        <ele>386</ele>
        <time>2012-09-01T07:26:34Z</time>
      </trkpt>
      <trkpt lat="45.82725" lon="4.79639">
        <ele>386</ele>
        <time>2012-09-01T07:26:40Z</time>
      </trkpt>
      <trkpt lat="45.82727" lon="4.79636">
        <ele>386</ele>
        <time>2012-09-01T07:26:41Z</time>
      </trkpt>
      <trkpt lat="45.82726" lon="4.79629">
        <ele>387</ele>
        <time>2012-09-01T07:26:43Z</time>
      </trkpt>
      <trkpt lat="45.82724" lon="4.79615">
        <ele>389</ele>
        <time>2012-09-01T07:26:47Z</time>
      </trkpt>
      <trkpt lat="45.8272" lon="4.79589">
        <ele>392</ele>
        <time>2012-09-01T07:26:59Z</time>
      </trkpt>
      <trkpt lat="45.82719" lon="4.79581">
        <ele>394</ele>
        <time>2012-09-01T07:27:03Z</time>
      </trkpt>
      <trkpt lat="45.82717" lon="4.79566">
        <ele>396</ele>
        <time>2012-09-01T07:27:18Z</time>
      </trkpt>
      <trkpt lat="45.82715" lon="4.79556">
        <ele>396</ele>
        <time>2012-09-01T07:27:27Z</time>
      </trkpt>
      <trkpt lat="45.82711" lon="4.79529">
        <ele>400</ele>
        <time>2012-09-01T07:27:41Z</time>
      </trkpt>
      <trkpt lat="45.82709" lon="4.79519">
        <ele>401</ele>
        <time>2012-09-01T07:27:45Z</time>
      </trkpt>
      <trkpt lat="45.82708" lon="4.7951">
        <ele>402</ele>
        <time>2012-09-01T07:27:49Z</time>
      </trkpt>
      <trkpt lat="45.82708" lon="4.79506">
        <ele>403</ele>
        <time>2012-09-01T07:27:52Z</time>
      </trkpt>
      <trkpt lat="45.8271" lon="4.79501">
        <ele>404</ele>
        <time>2012-09-01T07:27:57Z</time>
      </trkpt>
      <trkpt lat="45.82712" lon="4.79502">
        <ele>404</ele>
        <time>2012-09-01T07:27:59Z</time>
      </trkpt>
      <trkpt lat="45.82729" lon="4.79497">
        <ele>405</ele>
        <time>2012-09-01T07:28:09Z</time>
      </trkpt>
      <trkpt lat="45.82733" lon="4.79498">
        <ele>406</ele>
        <time>2012-09-01T07:28:12Z</time>
      </trkpt>
      <trkpt lat="45.82742" lon="4.79492">
        <ele>407</ele>
        <time>2012-09-01T07:28:18Z</time>
      </trkpt>
      <trkpt lat="45.82743" lon="4.79489">
        <ele>408</ele>
        <time>2012-09-01T07:28:20Z</time>
      </trkpt>
      <trkpt lat="45.8275" lon="4.79488">
        <ele>408</ele>
        <time>2012-09-01T07:28:23Z</time>
      </trkpt>
      <trkpt lat="45.82765" lon="4.79487">
        <ele>409</ele>
        <time>2012-09-01T07:28:31Z</time>
      </trkpt>
      <trkpt lat="45.82782" lon="4.79484">
        <ele>411</ele>
        <time>2012-09-01T07:28:44Z</time>
      </trkpt>
      <trkpt lat="45.82788" lon="4.79482">
        <ele>413</ele>
        <time>2012-09-01T07:28:48Z</time>
      </trkpt>
      <trkpt lat="45.82804" lon="4.79477">
        <ele>414</ele>
        <time>2012-09-01T07:28:59Z</time>
      </trkpt>
      <trkpt lat="45.82807" lon="4.79476">
        <ele>415</ele>
        <time>2012-09-01T07:29:02Z</time>
      </trkpt>
      <trkpt lat="45.82816" lon="4.79473">
        <ele>415</ele>
        <time>2012-09-01T07:29:10Z</time>
      </trkpt>
      <trkpt lat="45.82823" lon="4.79469">
        <ele>416</ele>
        <time>2012-09-01T07:29:15Z</time>
      </trkpt>
      <trkpt lat="45.82838" lon="4.79461">
        <ele>418</ele>
        <time>2012-09-01T07:29:24Z</time>
      </trkpt>
      <trkpt lat="45.82857" lon="4.79448">
        <ele>420</ele>
        <time>2012-09-01T07:29:34Z</time>
      </trkpt>
      <trkpt lat="45.82886" lon="4.79434">
        <ele>423</ele>
        <time>2012-09-01T07:29:49Z</time>
      </trkpt>
      <trkpt lat="45.82902" lon="4.79412">
        <ele>424</ele>
        <time>2012-09-01T07:30:01Z</time>
      </trkpt>
      <trkpt lat="45.82908" lon="4.79381">
        <ele>426</ele>
        <time>2012-09-01T07:30:14Z</time>
      </trkpt>
      <trkpt lat="45.82906" lon="4.79354">
        <ele>428</ele>
        <time>2012-09-01T07:30:25Z</time>
      </trkpt>
      <trkpt lat="45.82892" lon="4.79321">
        <ele>431</ele>
        <time>2012-09-01T07:30:40Z</time>
      </trkpt>
      <trkpt lat="45.82879" lon="4.79288">
        <ele>434</ele>
        <time>2012-09-01T07:30:53Z</time>
      </trkpt>
      <trkpt lat="45.82874" lon="4.79254">
        <ele>435</ele>
        <time>2012-09-01T07:31:05Z</time>
      </trkpt>
      <trkpt lat="45.82859" lon="4.79205">
        <ele>433</ele>
        <time>2012-09-01T07:31:14Z</time>
      </trkpt>
      <trkpt lat="45.82845" lon="4.79159">
        <ele>431</ele>
        <time>2012-09-01T07:31:20Z</time>
      </trkpt>
      <trkpt lat="45.82825" lon="4.79103">
        <ele>431</ele>
        <time>2012-09-01T07:31:29Z</time>
      </trkpt>
      <trkpt lat="45.82812" lon="4.79051">
        <ele>435</ele>
        <time>2012-09-01T07:31:42Z</time>
      </trkpt>
      <trkpt lat="45.82814" lon="4.79026">
        <ele>435</ele>
        <time>2012-09-01T07:31:50Z</time>
      </trkpt>
      <trkpt lat="45.82816" lon="4.79025">
        <ele>436</ele>
        <time>2012-09-01T07:31:51Z</time>
      </trkpt>
      <trkpt lat="45.82817" lon="4.79024">
        <ele>436</ele>
        <time>2012-09-01T07:31:52Z</time>
      </trkpt>
      <trkpt lat="45.82833" lon="4.79021">
        <ele>438</ele>
        <time>2012-09-01T07:32:03Z</time>
      </trkpt>
      <trkpt lat="45.82857" lon="4.79006">
        <ele>441</ele>
        <time>2012-09-01T07:32:17Z</time>
      </trkpt>
      <trkpt lat="45.82871" lon="4.78998">
        <ele>443</ele>
        <time>2012-09-01T07:32:29Z</time>
      </trkpt>
      <trkpt lat="45.82881" lon="4.78991">
        <ele>444</ele>
        <time>2012-09-01T07:32:38Z</time>
      </trkpt>
      <trkpt lat="45.82896" lon="4.78982">
        <ele>446</ele>
        <time>2012-09-01T07:32:48Z</time>
      </trkpt>
      <trkpt lat="45.82914" lon="4.78976">
        <ele>449</ele>
        <time>2012-09-01T07:32:59Z</time>
      </trkpt>
      <trkpt lat="45.82927" lon="4.7897">
        <ele>451</ele>
        <time>2012-09-01T07:33:09Z</time>
      </trkpt>
      <trkpt lat="45.8294" lon="4.78962">
        <ele>454</ele>
        <time>2012-09-01T07:33:20Z</time>
      </trkpt>
      <trkpt lat="45.82953" lon="4.78957">
        <ele>455</ele>
        <time>2012-09-01T07:33:30Z</time>
      </trkpt>
      <trkpt lat="45.82969" lon="4.78948">
        <ele>458</ele>
        <time>2012-09-01T07:33:40Z</time>
      </trkpt>
      <trkpt lat="45.82988" lon="4.78938">
        <ele>461</ele>
        <time>2012-09-01T07:33:55Z</time>
      </trkpt>
      <trkpt lat="45.82999" lon="4.78937">
        <ele>463</ele>
        <time>2012-09-01T07:34:03Z</time>
      </trkpt>
      <trkpt lat="45.83005" lon="4.78943">
        <ele>465</ele>
        <time>2012-09-01T07:34:12Z</time>
      </trkpt>
      <trkpt lat="45.83006" lon="4.78944">
        <ele>465</ele>
        <time>2012-09-01T07:34:13Z</time>
      </trkpt>
      <trkpt lat="45.83013" lon="4.7897">
        <ele>467</ele>
        <time>2012-09-01T07:34:25Z</time>
      </trkpt>
      <trkpt lat="45.83016" lon="4.78983">
        <ele>468</ele>
        <time>2012-09-01T07:34:30Z</time>
      </trkpt>
      <trkpt lat="45.83021" lon="4.78992">
        <ele>468</ele>
        <time>2012-09-01T07:34:35Z</time>
      </trkpt>
      <trkpt lat="45.83023" lon="4.78997">
        <ele>469</ele>
        <time>2012-09-01T07:34:38Z</time>
      </trkpt>
      <trkpt lat="45.83025" lon="4.79">
        <ele>469</ele>
        <time>2012-09-01T07:34:40Z</time>
      </trkpt>
      <trkpt lat="45.83027" lon="4.79">
        <ele>469</ele>
        <time>2012-09-01T07:34:41Z</time>
      </trkpt>
      <trkpt lat="45.83038" lon="4.78998">
        <ele>470</ele>
        <time>2012-09-01T07:34:51Z</time>
      </trkpt>
      <trkpt lat="45.8305" lon="4.7899">
        <ele>474</ele>
        <time>2012-09-01T07:35:01Z</time>
      </trkpt>
      <trkpt lat="45.83064" lon="4.78984">
        <ele>475</ele>
        <time>2012-09-01T07:35:10Z</time>
      </trkpt>
      <trkpt lat="45.83075" lon="4.78976">
        <ele>478</ele>
        <time>2012-09-01T07:35:21Z</time>
      </trkpt>
      <trkpt lat="45.83078" lon="4.78974">
        <ele>478</ele>
        <time>2012-09-01T07:35:23Z</time>
      </trkpt>
      <trkpt lat="45.83086" lon="4.78967">
        <ele>480</ele>
        <time>2012-09-01T07:35:30Z</time>
      </trkpt>
      <trkpt lat="45.83101" lon="4.78956">
        <ele>482</ele>
        <time>2012-09-01T07:35:42Z</time>
      </trkpt>
      <trkpt lat="45.83115" lon="4.78947">
        <ele>485</ele>
        <time>2012-09-01T07:35:54Z</time>
      </trkpt>
      <trkpt lat="45.83128" lon="4.78938">
        <ele>487</ele>
        <time>2012-09-01T07:36:06Z</time>
      </trkpt>
      <trkpt lat="45.83129" lon="4.78937">
        <ele>488</ele>
        <time>2012-09-01T07:36:07Z</time>
      </trkpt>
      <trkpt lat="45.83131" lon="4.78936">
        <ele>488</ele>
        <time>2012-09-01T07:36:08Z</time>
      </trkpt>
      <trkpt lat="45.83142" lon="4.78928">
        <ele>488</ele>
        <time>2012-09-01T07:36:17Z</time>
      </trkpt>
      <trkpt lat="45.83153" lon="4.78916">
        <ele>491</ele>
        <time>2012-09-01T07:36:28Z</time>
      </trkpt>
      <trkpt lat="45.83163" lon="4.78906">
        <ele>492</ele>
        <time>2012-09-01T07:36:37Z</time>
      </trkpt>
      <trkpt lat="45.83164" lon="4.78904">
        <ele>492</ele>
        <time>2012-09-01T07:36:39Z</time>
      </trkpt>
      <trkpt lat="45.83165" lon="4.78902">
        <ele>492</ele>
        <time>2012-09-01T07:36:40Z</time>
      </trkpt>
      <trkpt lat="45.83165" lon="4.78901">
        <ele>493</ele>
        <time>2012-09-01T07:36:41Z</time>
      </trkpt>
      <trkpt lat="45.83171" lon="4.78894">
        <ele>494</ele>
        <time>2012-09-01T07:36:54Z</time>
      </trkpt>
      <trkpt lat="45.83174" lon="4.78892">
        <ele>495</ele>
        <time>2012-09-01T07:37:36Z</time>
      </trkpt>
      <trkpt lat="45.83173" lon="4.78893">
        <ele>495</ele>
        <time>2012-09-01T07:38:24Z</time>
      </trkpt>
      <trkpt lat="45.83173" lon="4.78893">
        <ele>496</ele>
        <time>2012-09-01T07:38:46Z</time>
      </trkpt>
      <trkpt lat="45.83174" lon="4.7889">
        <ele>496</ele>
        <time>2012-09-01T07:38:57Z</time>
      </trkpt>
      <trkpt lat="45.83173" lon="4.78891">
        <ele>499</ele>
        <time>2012-09-01T07:41:24Z</time>
      </trkpt>
      <trkpt lat="45.83174" lon="4.78892">
        <ele>500</ele>
        <time>2012-09-01T07:44:01Z</time>
      </trkpt>
      <trkpt lat="45.83176" lon="4.78892">
        <ele>501</ele>
        <time>2012-09-01T07:44:02Z</time>
      </trkpt>
      <trkpt lat="45.83177" lon="4.78891">
        <ele>501</ele>
        <time>2012-09-01T07:44:03Z</time>
      </trkpt>
      <trkpt lat="45.83178" lon="4.78889">
        <ele>501</ele>
        <time>2012-09-01T07:44:04Z</time>
      </trkpt>
      <trkpt lat="45.83179" lon="4.78888">
        <ele>501</ele>
        <time>2012-09-01T07:44:05Z</time>
      </trkpt>
      <trkpt lat="45.83181" lon="4.78886">
        <ele>501</ele>
        <time>2012-09-01T07:44:06Z</time>
      </trkpt>
      <trkpt lat="45.83183" lon="4.78886">
        <ele>502</ele>
        <time>2012-09-01T07:44:07Z</time>
      </trkpt>
      <trkpt lat="45.83184" lon="4.78885">
        <ele>503</ele>
        <time>2012-09-01T07:44:08Z</time>
      </trkpt>
      <trkpt lat="45.83199" lon="4.78882">
        <ele>505</ele>
        <time>2012-09-01T07:44:19Z</time>
      </trkpt>
      <trkpt lat="45.83213" lon="4.78874">
        <ele>507</ele>
        <time>2012-09-01T07:44:31Z</time>
      </trkpt>
      <trkpt lat="45.83224" lon="4.78865">
        <ele>509</ele>
        <time>2012-09-01T07:44:39Z</time>
      </trkpt>
      <trkpt lat="45.83225" lon="4.78864">
        <ele>510</ele>
        <time>2012-09-01T07:44:40Z</time>
      </trkpt>
      <trkpt lat="45.83227" lon="4.78863">
        <ele>510</ele>
        <time>2012-09-01T07:44:41Z</time>
      </trkpt>
      <trkpt lat="45.83235" lon="4.78857">
        <ele>511</ele>
        <time>2012-09-01T07:44:46Z</time>
      </trkpt>
      <trkpt lat="45.83252" lon="4.78845">
        <ele>514</ele>
        <time>2012-09-01T07:44:59Z</time>
      </trkpt>
      <trkpt lat="45.83265" lon="4.78838">
        <ele>517</ele>
        <time>2012-09-01T07:45:10Z</time>
      </trkpt>
      <trkpt lat="45.83271" lon="4.78837">
        <ele>518</ele>
        <time>2012-09-01T07:45:14Z</time>
      </trkpt>
      <trkpt lat="45.83287" lon="4.78833">
        <ele>519</ele>
        <time>2012-09-01T07:45:26Z</time>
      </trkpt>
      <trkpt lat="45.83297" lon="4.78826">
        <ele>521</ele>
        <time>2012-09-01T07:45:36Z</time>
      </trkpt>
      <trkpt lat="45.83298" lon="4.78824">
        <ele>522</ele>
        <time>2012-09-01T07:45:38Z</time>
      </trkpt>
      <trkpt lat="45.83301" lon="4.78822">
        <ele>522</ele>
        <time>2012-09-01T07:45:41Z</time>
      </trkpt>
      <trkpt lat="45.83305" lon="4.78819">
        <ele>523</ele>
        <time>2012-09-01T07:45:44Z</time>
      </trkpt>
      <trkpt lat="45.83306" lon="4.78818">
        <ele>523</ele>
        <time>2012-09-01T07:45:45Z</time>
      </trkpt>
      <trkpt lat="45.8331" lon="4.78813">
        <ele>523</ele>
        <time>2012-09-01T07:45:49Z</time>
      </trkpt>
      <trkpt lat="45.83318" lon="4.78805">
        <ele>525</ele>
        <time>2012-09-01T07:45:56Z</time>
      </trkpt>
      <trkpt lat="45.83335" lon="4.78794">
        <ele>527</ele>
        <time>2012-09-01T07:46:09Z</time>
      </trkpt>
      <trkpt lat="45.83347" lon="4.78788">
        <ele>528</ele>
        <time>2012-09-01T07:46:19Z</time>
      </trkpt>
      <trkpt lat="45.83362" lon="4.78774">
        <ele>530</ele>
        <time>2012-09-01T07:46:33Z</time>
      </trkpt>
      <trkpt lat="45.83379" lon="4.78763">
        <ele>531</ele>
        <time>2012-09-01T07:46:44Z</time>
      </trkpt>
      <trkpt lat="45.83388" lon="4.7876">
        <ele>532</ele>
        <time>2012-09-01T07:46:50Z</time>
      </trkpt>
      <trkpt lat="45.83398" lon="4.78759">
        <ele>534</ele>
        <time>2012-09-01T07:46:59Z</time>
      </trkpt>
      <trkpt lat="45.83416" lon="4.7875">
        <ele>536</ele>
        <time>2012-09-01T07:47:12Z</time>
      </trkpt>
      <trkpt lat="45.83433" lon="4.78746">
        <ele>537</ele>
        <time>2012-09-01T07:47:25Z</time>
      </trkpt>
      <trkpt lat="45.83445" lon="4.78741">
        <ele>539</ele>
        <time>2012-09-01T07:47:34Z</time>
      </trkpt>
      <trkpt lat="45.83455" lon="4.78737">
        <ele>541</ele>
        <time>2012-09-01T07:47:43Z</time>
      </trkpt>
      <trkpt lat="45.83469" lon="4.78732">
        <ele>543</ele>
        <time>2012-09-01T07:47:54Z</time>
      </trkpt>
      <trkpt lat="45.83479" lon="4.78728">
        <ele>545</ele>
        <time>2012-09-01T07:48:03Z</time>
      </trkpt>
      <trkpt lat="45.83491" lon="4.78724">
        <ele>546</ele>
        <time>2012-09-01T07:48:11Z</time>
      </trkpt>
      <trkpt lat="45.83492" lon="4.78724">
        <ele>547</ele>
        <time>2012-09-01T07:48:12Z</time>
      </trkpt>
      <trkpt lat="45.83508" lon="4.78716">
        <ele>549</ele>
        <time>2012-09-01T07:48:24Z</time>
      </trkpt>
      <trkpt lat="45.83522" lon="4.7871">
        <ele>551</ele>
        <time>2012-09-01T07:48:34Z</time>
      </trkpt>
      <trkpt lat="45.83532" lon="4.78708">
        <ele>552</ele>
        <time>2012-09-01T07:48:43Z</time>
      </trkpt>
      <trkpt lat="45.83542" lon="4.78705">
        <ele>554</ele>
        <time>2012-09-01T07:48:51Z</time>
      </trkpt>
      <trkpt lat="45.83547" lon="4.78701">
        <ele>554</ele>
        <time>2012-09-01T07:48:55Z</time>
      </trkpt>
      <trkpt lat="45.83567" lon="4.78692">
        <ele>557</ele>
        <time>2012-09-01T07:49:09Z</time>
      </trkpt>
      <trkpt lat="45.83573" lon="4.78689">
        <ele>558</ele>
        <time>2012-09-01T07:49:15Z</time>
      </trkpt>
      <trkpt lat="45.83591" lon="4.78679">
        <ele>560</ele>
        <time>2012-09-01T07:49:28Z</time>
      </trkpt>
      <trkpt lat="45.83602" lon="4.78676">
        <ele>562</ele>
        <time>2012-09-01T07:49:36Z</time>
      </trkpt>
      <trkpt lat="45.83609" lon="4.7867">
        <ele>562</ele>
        <time>2012-09-01T07:49:42Z</time>
      </trkpt>
      <trkpt lat="45.83608" lon="4.78667">
        <ele>562</ele>
        <time>2012-09-01T07:49:44Z</time>
      </trkpt>
      <trkpt lat="45.83605" lon="4.78663">
        <ele>562</ele>
        <time>2012-09-01T07:49:48Z</time>
      </trkpt>
      <trkpt lat="45.83603" lon="4.78662">
        <ele>563</ele>
        <time>2012-09-01T07:49:49Z</time>
      </trkpt>
      <trkpt lat="45.836" lon="4.78662">
        <ele>562</ele>
        <time>2012-09-01T07:49:51Z</time>
      </trkpt>
      <trkpt lat="45.83586" lon="4.78663">
        <ele>560</ele>
        <time>2012-09-01T07:50:01Z</time>
      </trkpt>
      <trkpt lat="45.83586" lon="4.7866">
        <ele>560</ele>
        <time>2012-09-01T07:50:04Z</time>
      </trkpt>
      <trkpt lat="45.83589" lon="4.78661">
        <ele>561</ele>
        <time>2012-09-01T07:50:15Z</time>
      </trkpt>
      <trkpt lat="45.83598" lon="4.78662">
        <ele>562</ele>
        <time>2012-09-01T07:50:25Z</time>
      </trkpt>
      <trkpt lat="45.836" lon="4.78659">
        <ele>562</ele>
        <time>2012-09-01T07:50:27Z</time>
      </trkpt>
      <trkpt lat="45.83591" lon="4.78641">
        <ele>559</ele>
        <time>2012-09-01T07:50:36Z</time>
      </trkpt>
      <trkpt lat="45.83584" lon="4.78633">
        <ele>556</ele>
        <time>2012-09-01T07:50:40Z</time>
      </trkpt>
      <trkpt lat="45.83575" lon="4.78623">
        <ele>553</ele>
        <time>2012-09-01T07:50:47Z</time>
      </trkpt>
      <trkpt lat="45.83571" lon="4.78638">
        <ele>554</ele>
        <time>2012-09-01T07:51:14Z</time>
      </trkpt>
      <trkpt lat="45.83571" lon="4.78639">
        <ele>554</ele>
        <time>2012-09-01T07:51:15Z</time>
      </trkpt>
      <trkpt lat="45.83564" lon="4.78649">
        <ele>554</ele>
        <time>2012-09-01T07:51:21Z</time>
      </trkpt>
      <trkpt lat="45.83559" lon="4.78652">
        <ele>555</ele>
        <time>2012-09-01T07:51:32Z</time>
      </trkpt>
      <trkpt lat="45.83557" lon="4.7865">
        <ele>554</ele>
        <time>2012-09-01T07:51:51Z</time>
      </trkpt>
      <trkpt lat="45.83548" lon="4.78641">
        <ele>550</ele>
        <time>2012-09-01T07:51:55Z</time>
      </trkpt>
      <trkpt lat="45.8354" lon="4.78629">
        <ele>548</ele>
        <time>2012-09-01T07:51:59Z</time>
      </trkpt>
      <trkpt lat="45.83539" lon="4.78628">
        <ele>547</ele>
        <time>2012-09-01T07:52:00Z</time>
      </trkpt>
      <trkpt lat="45.83534" lon="4.78624">
        <ele>546</ele>
        <time>2012-09-01T07:52:07Z</time>
      </trkpt>
      <trkpt lat="45.83532" lon="4.78618">
        <ele>545</ele>
        <time>2012-09-01T07:52:11Z</time>
      </trkpt>
      <trkpt lat="45.83521" lon="4.78594">
        <ele>543</ele>
        <time>2012-09-01T07:52:17Z</time>
      </trkpt>
      <trkpt lat="45.83521" lon="4.78588">
        <ele>541</ele>
        <time>2012-09-01T07:52:20Z</time>
      </trkpt>
      <trkpt lat="45.83523" lon="4.78569">
        <ele>540</ele>
        <time>2012-09-01T07:52:30Z</time>
      </trkpt>
      <trkpt lat="45.83528" lon="4.78566">
        <ele>541</ele>
        <time>2012-09-01T07:52:35Z</time>
      </trkpt>
      <trkpt lat="45.83545" lon="4.78545">
        <ele>543</ele>
        <time>2012-09-01T07:52:48Z</time>
      </trkpt>
      <trkpt lat="45.83553" lon="4.78531">
        <ele>544</ele>
        <time>2012-09-01T07:52:53Z</time>
      </trkpt>
      <trkpt lat="45.83561" lon="4.78516">
        <ele>544</ele>
        <time>2012-09-01T07:52:57Z</time>
      </trkpt>
      <trkpt lat="45.83585" lon="4.7848">
        <ele>543</ele>
        <time>2012-09-01T07:53:09Z</time>
      </trkpt>
      <trkpt lat="45.83603" lon="4.78452">
        <ele>542</ele>
        <time>2012-09-01T07:53:16Z</time>
      </trkpt>
      <trkpt lat="45.83615" lon="4.78438">
        <ele>540</ele>
        <time>2012-09-01T07:53:19Z</time>
      </trkpt>
      <trkpt lat="45.83644" lon="4.78411">
        <ele>538</ele>
        <time>2012-09-01T07:53:26Z</time>
      </trkpt>
      <trkpt lat="45.83648" lon="4.78407">
        <ele>538</ele>
        <time>2012-09-01T07:53:27Z</time>
      </trkpt>
      <trkpt lat="45.83662" lon="4.78397">
        <ele>537</ele>
        <time>2012-09-01T07:53:30Z</time>
      </trkpt>
      <trkpt lat="45.83667" lon="4.78394">
        <ele>537</ele>
        <time>2012-09-01T07:53:31Z</time>
      </trkpt>
      <trkpt lat="45.83677" lon="4.78388">
        <ele>536</ele>
        <time>2012-09-01T07:53:33Z</time>
      </trkpt>
      <trkpt lat="45.83683" lon="4.78388">
        <ele>535</ele>
        <time>2012-09-01T07:53:34Z</time>
      </trkpt>
      <trkpt lat="45.83733" lon="4.78397">
        <ele>533</ele>
        <time>2012-09-01T07:53:41Z</time>
      </trkpt>
      <trkpt lat="45.83744" lon="4.78396">
        <ele>533</ele>
        <time>2012-09-01T07:53:43Z</time>
      </trkpt>
      <trkpt lat="45.83781" lon="4.78389">
        <ele>532</ele>
        <time>2012-09-01T07:53:52Z</time>
      </trkpt>
      <trkpt lat="45.83814" lon="4.78376">
        <ele>533</ele>
        <time>2012-09-01T07:54:01Z</time>
      </trkpt>
      <trkpt lat="45.83833" lon="4.78363">
        <ele>534</ele>
        <time>2012-09-01T07:54:08Z</time>
      </trkpt>
      <trkpt lat="45.83862" lon="4.78361">
        <ele>536</ele>
        <time>2012-09-01T07:54:19Z</time>
      </trkpt>
      <trkpt lat="45.83869" lon="4.78362">
        <ele>536</ele>
        <time>2012-09-01T07:54:21Z</time>
      </trkpt>
      <trkpt lat="45.83877" lon="4.78364">
        <ele>536</ele>
        <time>2012-09-01T07:54:24Z</time>
      </trkpt>
      <trkpt lat="45.83895" lon="4.78361">
        <ele>535</ele>
        <time>2012-09-01T07:54:31Z</time>
      </trkpt>
      <trkpt lat="45.83922" lon="4.78361">
        <ele>535</ele>
        <time>2012-09-01T07:54:39Z</time>
      </trkpt>
      <trkpt lat="45.83927" lon="4.78358">
        <ele>536</ele>
        <time>2012-09-01T07:54:41Z</time>
      </trkpt>
      <trkpt lat="45.83934" lon="4.78359">
        <ele>536</ele>
        <time>2012-09-01T07:54:44Z</time>
      </trkpt>
      <trkpt lat="45.83936" lon="4.78359">
        <ele>537</ele>
        <time>2012-09-01T07:54:45Z</time>
      </trkpt>
      <trkpt lat="45.83938" lon="4.7836">
        <ele>537</ele>
        <time>2012-09-01T07:54:46Z</time>
      </trkpt>
      <trkpt lat="45.83941" lon="4.78359">
        <ele>537</ele>
        <time>2012-09-01T07:54:47Z</time>
      </trkpt>
      <trkpt lat="45.83956" lon="4.78357">
        <ele>538</ele>
        <time>2012-09-01T07:54:58Z</time>
      </trkpt>
      <trkpt lat="45.83968" lon="4.78355">
        <ele>538</ele>
        <time>2012-09-01T07:55:09Z</time>
      </trkpt>
      <trkpt lat="45.8398" lon="4.78354">
        <ele>537</ele>
        <time>2012-09-01T07:55:19Z</time>
      </trkpt>
      <trkpt lat="45.83984" lon="4.78354">
        <ele>537</ele>
        <time>2012-09-01T07:55:20Z</time>
      </trkpt>
      <trkpt lat="45.84016" lon="4.78355">
        <ele>535</ele>
        <time>2012-09-01T07:55:28Z</time>
      </trkpt>
      <trkpt lat="45.84023" lon="4.78353">
        <ele>535</ele>
        <time>2012-09-01T07:55:30Z</time>
      </trkpt>
      <trkpt lat="45.84032" lon="4.78355">
        <ele>534</ele>
        <time>2012-09-01T07:55:32Z</time>
      </trkpt>
      <trkpt lat="45.84055" lon="4.7836">
        <ele>534</ele>
        <time>2012-09-01T07:55:40Z</time>
      </trkpt>
      <trkpt lat="45.84069" lon="4.78362">
        <ele>534</ele>
        <time>2012-09-01T07:55:46Z</time>
      </trkpt>
      <trkpt lat="45.84071" lon="4.78361">
        <ele>534</ele>
        <time>2012-09-01T07:55:47Z</time>
      </trkpt>
      <trkpt lat="45.84097" lon="4.78369">
        <ele>535</ele>
        <time>2012-09-01T07:55:56Z</time>
      </trkpt>
      <trkpt lat="45.84121" lon="4.78366">
        <ele>535</ele>
        <time>2012-09-01T07:56:04Z</time>
      </trkpt>
      <trkpt lat="45.84147" lon="4.78357">
        <ele>535</ele>
        <time>2012-09-01T07:56:13Z</time>
      </trkpt>
      <trkpt lat="45.84149" lon="4.7836">
        <ele>535</ele>
        <time>2012-09-01T07:56:14Z</time>
      </trkpt>
      <trkpt lat="45.84153" lon="4.78371">
        <ele>537</ele>
        <time>2012-09-01T07:56:21Z</time>
      </trkpt>
      <trkpt lat="45.84148" lon="4.78382">
        <ele>540</ele>
        <time>2012-09-01T07:56:35Z</time>
      </trkpt>
      <trkpt lat="45.84136" lon="4.7839">
        <ele>543</ele>
        <time>2012-09-01T07:56:49Z</time>
      </trkpt>
      <trkpt lat="45.84123" lon="4.78407">
        <ele>546</ele>
        <time>2012-09-01T07:56:59Z</time>
      </trkpt>
      <trkpt lat="45.84108" lon="4.78417">
        <ele>548</ele>
        <time>2012-09-01T07:57:10Z</time>
      </trkpt>
      <trkpt lat="45.84098" lon="4.78423">
        <ele>550</ele>
        <time>2012-09-01T07:57:19Z</time>
      </trkpt>
      <trkpt lat="45.84092" lon="4.78426">
        <ele>550</ele>
        <time>2012-09-01T07:57:23Z</time>
      </trkpt>
      <trkpt lat="45.84091" lon="4.78425">
        <ele>550</ele>
        <time>2012-09-01T07:57:24Z</time>
      </trkpt>
      <trkpt lat="45.84083" lon="4.78425">
        <ele>550</ele>
        <time>2012-09-01T07:57:29Z</time>
      </trkpt>
      <trkpt lat="45.84071" lon="4.78428">
        <ele>550</ele>
        <time>2012-09-01T07:57:34Z</time>
      </trkpt>
      <trkpt lat="45.84061" lon="4.78426">
        <ele>551</ele>
        <time>2012-09-01T07:57:42Z</time>
      </trkpt>
      <trkpt lat="45.8406" lon="4.78426">
        <ele>551</ele>
        <time>2012-09-01T07:57:43Z</time>
      </trkpt>
      <trkpt lat="45.84058" lon="4.78426">
        <ele>550</ele>
        <time>2012-09-01T07:57:44Z</time>
      </trkpt>
      <trkpt lat="45.84048" lon="4.78423">
        <ele>550</ele>
        <time>2012-09-01T07:57:49Z</time>
      </trkpt>
      <trkpt lat="45.84038" lon="4.78415">
        <ele>549</ele>
        <time>2012-09-01T07:57:52Z</time>
      </trkpt>
      <trkpt lat="45.84033" lon="4.78412">
        <ele>549</ele>
        <time>2012-09-01T07:57:53Z</time>
      </trkpt>
      <trkpt lat="45.84007" lon="4.78405">
        <ele>548</ele>
        <time>2012-09-01T07:57:59Z</time>
      </trkpt>
      <trkpt lat="45.83974" lon="4.78405">
        <ele>550</ele>
        <time>2012-09-01T07:58:10Z</time>
      </trkpt>
      <trkpt lat="45.83966" lon="4.78409">
        <ele>550</ele>
        <time>2012-09-01T07:58:13Z</time>
      </trkpt>
      <trkpt lat="45.83959" lon="4.78422">
        <ele>551</ele>
        <time>2012-09-01T07:58:21Z</time>
      </trkpt>
      <trkpt lat="45.83944" lon="4.7844">
        <ele>554</ele>
        <time>2012-09-01T07:58:34Z</time>
      </trkpt>
      <trkpt lat="45.83939" lon="4.78444">
        <ele>556</ele>
        <time>2012-09-01T07:58:37Z</time>
      </trkpt>
      <trkpt lat="45.83925" lon="4.78461">
        <ele>559</ele>
        <time>2012-09-01T07:58:49Z</time>
      </trkpt>
      <trkpt lat="45.83924" lon="4.78462">
        <ele>559</ele>
        <time>2012-09-01T07:58:50Z</time>
      </trkpt>
      <trkpt lat="45.83918" lon="4.78473">
        <ele>563</ele>
        <time>2012-09-01T07:58:57Z</time>
      </trkpt>
      <trkpt lat="45.83918" lon="4.78475">
        <ele>563</ele>
        <time>2012-09-01T07:58:58Z</time>
      </trkpt>
      <trkpt lat="45.83911" lon="4.78488">
        <ele>566</ele>
        <time>2012-09-01T07:59:06Z</time>
      </trkpt>
      <trkpt lat="45.83902" lon="4.78495">
        <ele>568</ele>
        <time>2012-09-01T07:59:14Z</time>
      </trkpt>
      <trkpt lat="45.83896" lon="4.78499">
        <ele>568</ele>
        <time>2012-09-01T07:59:21Z</time>
      </trkpt>
      <trkpt lat="45.83895" lon="4.785">
        <ele>570</ele>
        <time>2012-09-01T07:59:31Z</time>
      </trkpt>
      <trkpt lat="45.83903" lon="4.78494">
        <ele>568</ele>
        <time>2012-09-01T07:59:46Z</time>
      </trkpt>
      <trkpt lat="45.8391" lon="4.78488">
        <ele>567</ele>
        <time>2012-09-01T07:59:49Z</time>
      </trkpt>
      <trkpt lat="45.83913" lon="4.78487">
        <ele>567</ele>
        <time>2012-09-01T07:59:50Z</time>
      </trkpt>
      <trkpt lat="45.83917" lon="4.78486">
        <ele>567</ele>
        <time>2012-09-01T07:59:52Z</time>
      </trkpt>
      <trkpt lat="45.83922" lon="4.78484">
        <ele>565</ele>
        <time>2012-09-01T07:59:56Z</time>
      </trkpt>
      <trkpt lat="45.83926" lon="4.78483">
        <ele>565</ele>
        <time>2012-09-01T07:59:58Z</time>
      </trkpt>
      <trkpt lat="45.83929" lon="4.78484">
        <ele>565</ele>
        <time>2012-09-01T07:59:59Z</time>
      </trkpt>
      <trkpt lat="45.83943" lon="4.78485">
        <ele>567</ele>
        <time>2012-09-01T08:00:07Z</time>
      </trkpt>
      <trkpt lat="45.83951" lon="4.78486">
        <ele>566</ele>
        <time>2012-09-01T08:00:11Z</time>
      </trkpt>
      <trkpt lat="45.83953" lon="4.78485">
        <ele>566</ele>
        <time>2012-09-01T08:00:12Z</time>
      </trkpt>
      <trkpt lat="45.83955" lon="4.78486">
        <ele>566</ele>
        <time>2012-09-01T08:00:13Z</time>
      </trkpt>
      <trkpt lat="45.83956" lon="4.78487">
        <ele>567</ele>
        <time>2012-09-01T08:00:14Z</time>
      </trkpt>
      <trkpt lat="45.83961" lon="4.78489">
        <ele>567</ele>
        <time>2012-09-01T08:00:16Z</time>
      </trkpt>
      <trkpt lat="45.83977" lon="4.78489">
        <ele>567</ele>
        <time>2012-09-01T08:00:23Z</time>
      </trkpt>
      <trkpt lat="45.83983" lon="4.78489">
        <ele>567</ele>
        <time>2012-09-01T08:00:26Z</time>
      </trkpt>
      <trkpt lat="45.84008" lon="4.78488">
        <ele>567</ele>
        <time>2012-09-01T08:00:36Z</time>
      </trkpt>
      <trkpt lat="45.8401" lon="4.78488">
        <ele>567</ele>
        <time>2012-09-01T08:00:37Z</time>
      </trkpt>
      <trkpt lat="45.84029" lon="4.78489">
        <ele>566</ele>
        <time>2012-09-01T08:00:45Z</time>
      </trkpt>
      <trkpt lat="45.84037" lon="4.7849">
        <ele>566</ele>
        <time>2012-09-01T08:00:49Z</time>
      </trkpt>
      <trkpt lat="45.84038" lon="4.78491">
        <ele>566</ele>
        <time>2012-09-01T08:00:50Z</time>
      </trkpt>
      <trkpt lat="45.84045" lon="4.78495">
        <ele>566</ele>
        <time>2012-09-01T08:00:53Z</time>
      </trkpt>
      <trkpt lat="45.84048" lon="4.78499">
        <ele>567</ele>
        <time>2012-09-01T08:00:54Z</time>
      </trkpt>
      <trkpt lat="45.8406" lon="4.7852">
        <ele>569</ele>
        <time>2012-09-01T08:01:03Z</time>
      </trkpt>
      <trkpt lat="45.84063" lon="4.78525">
        <ele>570</ele>
        <time>2012-09-01T08:01:06Z</time>
      </trkpt>
      <trkpt lat="45.84063" lon="4.78531">
        <ele>571</ele>
        <time>2012-09-01T08:01:09Z</time>
      </trkpt>
      <trkpt lat="45.84063" lon="4.78533">
        <ele>570</ele>
        <time>2012-09-01T08:01:10Z</time>
      </trkpt>
      <trkpt lat="45.84063" lon="4.78536">
        <ele>571</ele>
        <time>2012-09-01T08:01:11Z</time>
      </trkpt>
      <trkpt lat="45.84063" lon="4.78539">
        <ele>570</ele>
        <time>2012-09-01T08:01:12Z</time>
      </trkpt>
      <trkpt lat="45.84063" lon="4.78542">
        <ele>570</ele>
        <time>2012-09-01T08:01:13Z</time>
      </trkpt>
      <trkpt lat="45.84061" lon="4.78581">
        <ele>571</ele>
        <time>2012-09-01T08:01:24Z</time>
      </trkpt>
      <trkpt lat="45.84064" lon="4.78631">
        <ele>572</ele>
        <time>2012-09-01T08:01:38Z</time>
      </trkpt>
      <trkpt lat="45.84066" lon="4.78663">
        <ele>574</ele>
        <time>2012-09-01T08:01:48Z</time>
      </trkpt>
      <trkpt lat="45.84066" lon="4.78665">
        <ele>572</ele>
        <time>2012-09-01T08:01:49Z</time>
      </trkpt>
      <trkpt lat="45.84065" lon="4.78667">
        <ele>572</ele>
        <time>2012-09-01T08:01:50Z</time>
      </trkpt>
      <trkpt lat="45.84065" lon="4.78673">
        <ele>573</ele>
        <time>2012-09-01T08:01:53Z</time>
      </trkpt>
      <trkpt lat="45.84065" lon="4.78677">
        <ele>572</ele>
        <time>2012-09-01T08:02:03Z</time>
      </trkpt>
      <trkpt lat="45.84065" lon="4.78677">
        <ele>573</ele>
        <time>2012-09-01T08:02:47Z</time>
      </trkpt>
      <trkpt lat="45.84083" lon="4.78699">
        <ele>571</ele>
        <time>2012-09-01T08:02:55Z</time>
      </trkpt>
      <trkpt lat="45.84087" lon="4.78703">
        <ele>570</ele>
        <time>2012-09-01T08:02:56Z</time>
      </trkpt>
      <trkpt lat="45.84098" lon="4.78713">
        <ele>568</ele>
        <time>2012-09-01T08:02:59Z</time>
      </trkpt>
      <trkpt lat="45.84111" lon="4.78733">
        <ele>566</ele>
        <time>2012-09-01T08:03:07Z</time>
      </trkpt>
      <trkpt lat="45.84113" lon="4.78733">
        <ele>566</ele>
        <time>2012-09-01T08:03:08Z</time>
      </trkpt>
      <trkpt lat="45.84115" lon="4.78733">
        <ele>566</ele>
        <time>2012-09-01T08:03:09Z</time>
      </trkpt>
      <trkpt lat="45.84117" lon="4.78732">
        <ele>565</ele>
        <time>2012-09-01T08:03:10Z</time>
      </trkpt>
      <trkpt lat="45.8412" lon="4.78731">
        <ele>565</ele>
        <time>2012-09-01T08:03:11Z</time>
      </trkpt>
      <trkpt lat="45.84133" lon="4.78734">
        <ele>564</ele>
        <time>2012-09-01T08:03:15Z</time>
      </trkpt>
      <trkpt lat="45.84136" lon="4.78737">
        <ele>562</ele>
        <time>2012-09-01T08:03:16Z</time>
      </trkpt>
      <trkpt lat="45.8414" lon="4.7874">
        <ele>562</ele>
        <time>2012-09-01T08:03:17Z</time>
      </trkpt>
      <trkpt lat="45.84162" lon="4.78769">
        <ele>559</ele>
        <time>2012-09-01T08:03:26Z</time>
      </trkpt>
      <trkpt lat="45.84182" lon="4.78794">
        <ele>556</ele>
        <time>2012-09-01T08:03:34Z</time>
      </trkpt>
      <trkpt lat="45.84189" lon="4.78813">
        <ele>554</ele>
        <time>2012-09-01T08:03:41Z</time>
      </trkpt>
      <trkpt lat="45.84205" lon="4.78842">
        <ele>552</ele>
        <time>2012-09-01T08:03:50Z</time>
      </trkpt>
      <trkpt lat="45.84212" lon="4.78879">
        <ele>551</ele>
        <time>2012-09-01T08:03:58Z</time>
      </trkpt>
      <trkpt lat="45.84212" lon="4.78897">
        <ele>551</ele>
        <time>2012-09-01T08:04:01Z</time>
      </trkpt>
      <trkpt lat="45.8421" lon="4.78911">
        <ele>550</ele>
        <time>2012-09-01T08:04:03Z</time>
      </trkpt>
      <trkpt lat="45.84208" lon="4.78917">
        <ele>550</ele>
        <time>2012-09-01T08:04:04Z</time>
      </trkpt>
      <trkpt lat="45.84197" lon="4.78934">
        <ele>549</ele>
        <time>2012-09-01T08:04:07Z</time>
      </trkpt>
      <trkpt lat="45.84194" lon="4.78937">
        <ele>549</ele>
        <time>2012-09-01T08:04:08Z</time>
      </trkpt>
      <trkpt lat="45.84192" lon="4.78942">
        <ele>549</ele>
        <time>2012-09-01T08:04:09Z</time>
      </trkpt>
      <trkpt lat="45.84189" lon="4.78951">
        <ele>549</ele>
        <time>2012-09-01T08:04:14Z</time>
      </trkpt>
      <trkpt lat="45.84186" lon="4.78965">
        <ele>547</ele>
        <time>2012-09-01T08:04:25Z</time>
      </trkpt>
      <trkpt lat="45.84186" lon="4.78963">
        <ele>548</ele>
        <time>2012-09-01T08:04:41Z</time>
      </trkpt>
      <trkpt lat="45.84191" lon="4.78951">
        <ele>550</ele>
        <time>2012-09-01T08:04:50Z</time>
      </trkpt>
      <trkpt lat="45.84192" lon="4.78949">
        <ele>550</ele>
        <time>2012-09-01T08:04:52Z</time>
      </trkpt>
      <trkpt lat="45.84194" lon="4.78949">
        <ele>550</ele>
        <time>2012-09-01T08:04:53Z</time>
      </trkpt>
      <trkpt lat="45.84198" lon="4.78945">
        <ele>550</ele>
        <time>2012-09-01T08:05:04Z</time>
      </trkpt>
      <trkpt lat="45.84207" lon="4.7893">
        <ele>549</ele>
        <time>2012-09-01T08:05:12Z</time>
      </trkpt>
      <trkpt lat="45.84209" lon="4.78929">
        <ele>549</ele>
        <time>2012-09-01T08:05:13Z</time>
      </trkpt>
      <trkpt lat="45.84212" lon="4.78929">
        <ele>549</ele>
        <time>2012-09-01T08:05:14Z</time>
      </trkpt>
      <trkpt lat="45.84214" lon="4.78931">
        <ele>550</ele>
        <time>2012-09-01T08:05:15Z</time>
      </trkpt>
      <trkpt lat="45.84219" lon="4.78934">
        <ele>551</ele>
        <time>2012-09-01T08:05:17Z</time>
      </trkpt>
      <trkpt lat="45.84231" lon="4.78941">
        <ele>549</ele>
        <time>2012-09-01T08:05:21Z</time>
      </trkpt>
      <trkpt lat="45.84247" lon="4.78955">
        <ele>547</ele>
        <time>2012-09-01T08:05:26Z</time>
      </trkpt>
      <trkpt lat="45.84254" lon="4.7896">
        <ele>547</ele>
        <time>2012-09-01T08:05:29Z</time>
      </trkpt>
      <trkpt lat="45.84267" lon="4.78969">
        <ele>545</ele>
        <time>2012-09-01T08:05:35Z</time>
      </trkpt>
      <trkpt lat="45.8427" lon="4.78975">
        <ele>545</ele>
        <time>2012-09-01T08:05:38Z</time>
      </trkpt>
      <trkpt lat="45.84283" lon="4.78993">
        <ele>542</ele>
        <time>2012-09-01T08:05:49Z</time>
      </trkpt>
      <trkpt lat="45.84288" lon="4.78997">
        <ele>542</ele>
        <time>2012-09-01T08:05:57Z</time>
      </trkpt>
      <trkpt lat="45.84289" lon="4.78996">
        <ele>542</ele>
        <time>2012-09-01T08:05:59Z</time>
      </trkpt>
      <trkpt lat="45.84294" lon="4.78991">
        <ele>543</ele>
        <time>2012-09-01T08:06:03Z</time>
      </trkpt>
      <trkpt lat="45.84303" lon="4.78987">
        <ele>542</ele>
        <time>2012-09-01T08:06:07Z</time>
      </trkpt>
      <trkpt lat="45.84307" lon="4.78978">
        <ele>540</ele>
        <time>2012-09-01T08:06:11Z</time>
      </trkpt>
      <trkpt lat="45.84305" lon="4.78958">
        <ele>536</ele>
        <time>2012-09-01T08:06:16Z</time>
      </trkpt>
      <trkpt lat="45.84299" lon="4.78942">
        <ele>534</ele>
        <time>2012-09-01T08:06:20Z</time>
      </trkpt>
      <trkpt lat="45.84301" lon="4.78917">
        <ele>532</ele>
        <time>2012-09-01T08:06:26Z</time>
      </trkpt>
      <trkpt lat="45.84311" lon="4.78897">
        <ele>527</ele>
        <time>2012-09-01T08:06:33Z</time>
      </trkpt>
      <trkpt lat="45.84313" lon="4.78889">
        <ele>526</ele>
        <time>2012-09-01T08:06:35Z</time>
      </trkpt>
      <trkpt lat="45.84318" lon="4.78888">
        <ele>525</ele>
        <time>2012-09-01T08:06:37Z</time>
      </trkpt>
      <trkpt lat="45.84333" lon="4.78896">
        <ele>522</ele>
        <time>2012-09-01T08:06:44Z</time>
      </trkpt>
      <trkpt lat="45.84335" lon="4.78898">
        <ele>522</ele>
        <time>2012-09-01T08:06:45Z</time>
      </trkpt>
      <trkpt lat="45.84339" lon="4.78914">
        <ele>522</ele>
        <time>2012-09-01T08:06:55Z</time>
      </trkpt>
      <trkpt lat="45.84358" lon="4.78926">
        <ele>520</ele>
        <time>2012-09-01T08:07:05Z</time>
      </trkpt>
      <trkpt lat="45.84369" lon="4.78935">
        <ele>520</ele>
        <time>2012-09-01T08:07:11Z</time>
      </trkpt>
      <trkpt lat="45.84377" lon="4.78938">
        <ele>517</ele>
        <time>2012-09-01T08:07:15Z</time>
      </trkpt>
      <trkpt lat="45.84393" lon="4.7895">
        <ele>517</ele>
        <time>2012-09-01T08:07:22Z</time>
      </trkpt>
      <trkpt lat="45.84412" lon="4.78976">
        <ele>515</ele>
        <time>2012-09-01T08:07:32Z</time>
      </trkpt>
      <trkpt lat="45.84417" lon="4.7898">
        <ele>515</ele>
        <time>2012-09-01T08:07:35Z</time>
      </trkpt>
      <trkpt lat="45.84436" lon="4.79002">
        <ele>513</ele>
        <time>2012-09-01T08:07:45Z</time>
      </trkpt>
      <trkpt lat="45.84454" lon="4.79026">
        <ele>511</ele>
        <time>2012-09-01T08:07:55Z</time>
      </trkpt>
      <trkpt lat="45.84465" lon="4.79046">
        <ele>511</ele>
        <time>2012-09-01T08:08:14Z</time>
      </trkpt>
      <trkpt lat="45.84482" lon="4.79071">
        <ele>510</ele>
        <time>2012-09-01T08:08:22Z</time>
      </trkpt>
      <trkpt lat="45.84507" lon="4.79101">
        <ele>509</ele>
        <time>2012-09-01T08:08:32Z</time>
      </trkpt>
      <trkpt lat="45.84526" lon="4.79125">
        <ele>507</ele>
        <time>2012-09-01T08:08:40Z</time>
      </trkpt>
      <trkpt lat="45.84549" lon="4.79141">
        <ele>506</ele>
        <time>2012-09-01T08:08:48Z</time>
      </trkpt>
      <trkpt lat="45.8458" lon="4.79158">
        <ele>504</ele>
        <time>2012-09-01T08:08:56Z</time>
      </trkpt>
      <trkpt lat="45.84601" lon="4.79149">
        <ele>500</ele>
        <time>2012-09-01T08:09:06Z</time>
      </trkpt>
      <trkpt lat="45.8461" lon="4.79142">
        <ele>499</ele>
        <time>2012-09-01T08:09:09Z</time>
      </trkpt>
      <trkpt lat="45.84619" lon="4.79155">
        <ele>498</ele>
        <time>2012-09-01T08:09:19Z</time>
      </trkpt>
      <trkpt lat="45.84622" lon="4.79154">
        <ele>498</ele>
        <time>2012-09-01T08:09:50Z</time>
      </trkpt>
      <trkpt lat="45.84616" lon="4.7914">
        <ele>498</ele>
        <time>2012-09-01T08:09:59Z</time>
      </trkpt>
      <trkpt lat="45.8462" lon="4.79134">
        <ele>498</ele>
        <time>2012-09-01T08:10:02Z</time>
      </trkpt>
      <trkpt lat="45.8463" lon="4.79125">
        <ele>496</ele>
        <time>2012-09-01T08:10:09Z</time>
      </trkpt>
      <trkpt lat="45.84637" lon="4.79104">
        <ele>492</ele>
        <time>2012-09-01T08:10:15Z</time>
      </trkpt>
      <trkpt lat="45.8464" lon="4.79088">
        <ele>489</ele>
        <time>2012-09-01T08:10:18Z</time>
      </trkpt>
      <trkpt lat="45.84645" lon="4.79081">
        <ele>488</ele>
        <time>2012-09-01T08:10:20Z</time>
      </trkpt>
      <trkpt lat="45.8466" lon="4.79072">
        <ele>486</ele>
        <time>2012-09-01T08:10:24Z</time>
      </trkpt>
      <trkpt lat="45.84672" lon="4.79061">
        <ele>482</ele>
        <time>2012-09-01T08:10:29Z</time>
      </trkpt>
      <trkpt lat="45.84683" lon="4.79057">
        <ele>479</ele>
        <time>2012-09-01T08:10:33Z</time>
      </trkpt>
      <trkpt lat="45.84685" lon="4.79055">
        <ele>478</ele>
        <time>2012-09-01T08:10:34Z</time>
      </trkpt>
      <trkpt lat="45.84695" lon="4.79043">
        <ele>475</ele>
        <time>2012-09-01T08:10:38Z</time>
      </trkpt>
      <trkpt lat="45.84702" lon="4.79021">
        <ele>470</ele>
        <time>2012-09-01T08:10:43Z</time>
      </trkpt>
      <trkpt lat="45.84703" lon="4.79017">
        <ele>470</ele>
        <time>2012-09-01T08:10:44Z</time>
      </trkpt>
      <trkpt lat="45.8471" lon="4.79005">
        <ele>467</ele>
        <time>2012-09-01T08:10:47Z</time>
      </trkpt>
      <trkpt lat="45.8472" lon="4.78994">
        <ele>463</ele>
        <time>2012-09-01T08:10:51Z</time>
      </trkpt>
      <trkpt lat="45.8473" lon="4.78985">
        <ele>460</ele>
        <time>2012-09-01T08:10:55Z</time>
      </trkpt>
      <trkpt lat="45.84731" lon="4.78982">
        <ele>460</ele>
        <time>2012-09-01T08:10:56Z</time>
      </trkpt>
      <trkpt lat="45.84737" lon="4.78977">
        <ele>456</ele>
        <time>2012-09-01T08:10:59Z</time>
      </trkpt>
      <trkpt lat="45.84738" lon="4.78974">
        <ele>455</ele>
        <time>2012-09-01T08:11:00Z</time>
      </trkpt>
      <trkpt lat="45.84738" lon="4.78969">
        <ele>454</ele>
        <time>2012-09-01T08:11:02Z</time>
      </trkpt>
      <trkpt lat="45.84734" lon="4.78955">
        <ele>452</ele>
        <time>2012-09-01T08:11:05Z</time>
      </trkpt>
      <trkpt lat="45.84744" lon="4.78933">
        <ele>448</ele>
        <time>2012-09-01T08:11:10Z</time>
      </trkpt>
      <trkpt lat="45.84746" lon="4.78929">
        <ele>448</ele>
        <time>2012-09-01T08:11:11Z</time>
      </trkpt>
      <trkpt lat="45.84753" lon="4.78921">
        <ele>447</ele>
        <time>2012-09-01T08:11:13Z</time>
      </trkpt>
      <trkpt lat="45.84759" lon="4.78914">
        <ele>446</ele>
        <time>2012-09-01T08:11:15Z</time>
      </trkpt>
      <trkpt lat="45.8477" lon="4.78918">
        <ele>445</ele>
        <time>2012-09-01T08:11:19Z</time>
      </trkpt>
      <trkpt lat="45.84778" lon="4.78932">
        <ele>444</ele>
        <time>2012-09-01T08:11:22Z</time>
      </trkpt>
      <trkpt lat="45.84796" lon="4.78956">
        <ele>442</ele>
        <time>2012-09-01T08:11:27Z</time>
      </trkpt>
      <trkpt lat="45.84829" lon="4.79003">
        <ele>438</ele>
        <time>2012-09-01T08:11:36Z</time>
      </trkpt>
      <trkpt lat="45.84848" lon="4.79028">
        <ele>438</ele>
        <time>2012-09-01T08:11:43Z</time>
      </trkpt>
      <trkpt lat="45.84856" lon="4.79032">
        <ele>438</ele>
        <time>2012-09-01T08:11:52Z</time>
      </trkpt>
      <trkpt lat="45.8485" lon="4.79029">
        <ele>438</ele>
        <time>2012-09-01T08:12:04Z</time>
      </trkpt>
      <trkpt lat="45.84849" lon="4.79031">
        <ele>438</ele>
        <time>2012-09-01T08:12:05Z</time>
      </trkpt>
      <trkpt lat="45.84853" lon="4.79044">
        <ele>438</ele>
        <time>2012-09-01T08:12:16Z</time>
      </trkpt>
      <trkpt lat="45.84855" lon="4.79043">
        <ele>438</ele>
        <time>2012-09-01T08:12:18Z</time>
      </trkpt>
      <trkpt lat="45.84862" lon="4.79051">
        <ele>438</ele>
        <time>2012-09-01T08:12:29Z</time>
      </trkpt>
      <trkpt lat="45.84871" lon="4.7906">
        <ele>438</ele>
        <time>2012-09-01T08:12:38Z</time>
      </trkpt>
      <trkpt lat="45.84872" lon="4.79062">
        <ele>438</ele>
        <time>2012-09-01T08:12:39Z</time>
      </trkpt>
      <trkpt lat="45.84873" lon="4.79064">
        <ele>437</ele>
        <time>2012-09-01T08:12:40Z</time>
      </trkpt>
      <trkpt lat="45.84875" lon="4.79065">
        <ele>438</ele>
        <time>2012-09-01T08:12:41Z</time>
      </trkpt>
      <trkpt lat="45.84876" lon="4.79067">
        <ele>437</ele>
        <time>2012-09-01T08:12:42Z</time>
      </trkpt>
      <trkpt lat="45.84877" lon="4.79069">
        <ele>437</ele>
        <time>2012-09-01T08:12:43Z</time>
      </trkpt>
      <trkpt lat="45.84877" lon="4.79071">
        <ele>437</ele>
        <time>2012-09-01T08:12:44Z</time>
      </trkpt>
      <trkpt lat="45.84878" lon="4.79089">
        <ele>436</ele>
        <time>2012-09-01T08:12:50Z</time>
      </trkpt>
      <trkpt lat="45.84879" lon="4.79093">
        <ele>436</ele>
        <time>2012-09-01T08:12:51Z</time>
      </trkpt>
      <trkpt lat="45.8488" lon="4.79096">
        <ele>436</ele>
        <time>2012-09-01T08:12:52Z</time>
      </trkpt>
      <trkpt lat="45.84881" lon="4.791">
        <ele>436</ele>
        <time>2012-09-01T08:12:53Z</time>
      </trkpt>
      <trkpt lat="45.84881" lon="4.79105">
        <ele>435</ele>
        <time>2012-09-01T08:12:54Z</time>
      </trkpt>
      <trkpt lat="45.84882" lon="4.79108">
        <ele>435</ele>
        <time>2012-09-01T08:12:55Z</time>
      </trkpt>
      <trkpt lat="45.84884" lon="4.79136">
        <ele>434</ele>
        <time>2012-09-01T08:13:03Z</time>
      </trkpt>
      <trkpt lat="45.84883" lon="4.79155">
        <ele>432</ele>
        <time>2012-09-01T08:13:13Z</time>
      </trkpt>
      <trkpt lat="45.84884" lon="4.79173">
        <ele>433</ele>
        <time>2012-09-01T08:13:21Z</time>
      </trkpt>
      <trkpt lat="45.84882" lon="4.79178">
        <ele>434</ele>
        <time>2012-09-01T08:13:23Z</time>
      </trkpt>
      <trkpt lat="45.84881" lon="4.79181">
        <ele>434</ele>
        <time>2012-09-01T08:13:24Z</time>
      </trkpt>
      <trkpt lat="45.84883" lon="4.79183">
        <ele>434</ele>
        <time>2012-09-01T08:13:25Z</time>
      </trkpt>
      <trkpt lat="45.84884" lon="4.79185">
        <ele>434</ele>
        <time>2012-09-01T08:13:26Z</time>
      </trkpt>
      <trkpt lat="45.84885" lon="4.79188">
        <ele>435</ele>
        <time>2012-09-01T08:13:27Z</time>
      </trkpt>
      <trkpt lat="45.84886" lon="4.79216">
        <ele>438</ele>
        <time>2012-09-01T08:13:38Z</time>
      </trkpt>
      <trkpt lat="45.84893" lon="4.79237">
        <ele>439</ele>
        <time>2012-09-01T08:13:47Z</time>
      </trkpt>
      <trkpt lat="45.84902" lon="4.79254">
        <ele>441</ele>
        <time>2012-09-01T08:13:56Z</time>
      </trkpt>
      <trkpt lat="45.84904" lon="4.79257">
        <ele>441</ele>
        <time>2012-09-01T08:13:58Z</time>
      </trkpt>
      <trkpt lat="45.84915" lon="4.7927">
        <ele>443</ele>
        <time>2012-09-01T08:14:06Z</time>
      </trkpt>
      <trkpt lat="45.84916" lon="4.79277">
        <ele>444</ele>
        <time>2012-09-01T08:14:17Z</time>
      </trkpt>
      <trkpt lat="45.84921" lon="4.79284">
        <ele>444</ele>
        <time>2012-09-01T08:14:24Z</time>
      </trkpt>
      <trkpt lat="45.84923" lon="4.79285">
        <ele>444</ele>
        <time>2012-09-01T08:14:25Z</time>
      </trkpt>
      <trkpt lat="45.84934" lon="4.79287">
        <ele>446</ele>
        <time>2012-09-01T08:14:32Z</time>
      </trkpt>
      <trkpt lat="45.84948" lon="4.79287">
        <ele>447</ele>
        <time>2012-09-01T08:14:41Z</time>
      </trkpt>
      <trkpt lat="45.84949" lon="4.79289">
        <ele>447</ele>
        <time>2012-09-01T08:14:42Z</time>
      </trkpt>
      <trkpt lat="45.84952" lon="4.79291">
        <ele>447</ele>
        <time>2012-09-01T08:14:44Z</time>
      </trkpt>
      <trkpt lat="45.84955" lon="4.79294">
        <ele>447</ele>
        <time>2012-09-01T08:14:47Z</time>
      </trkpt>
      <trkpt lat="45.84965" lon="4.79291">
        <ele>449</ele>
        <time>2012-09-01T08:14:53Z</time>
      </trkpt>
      <trkpt lat="45.84954" lon="4.79279">
        <ele>451</ele>
        <time>2012-09-01T08:15:04Z</time>
      </trkpt>
      <trkpt lat="45.84951" lon="4.79276">
        <ele>451</ele>
        <time>2012-09-01T08:15:08Z</time>
      </trkpt>
      <trkpt lat="45.84945" lon="4.7926">
        <ele>452</ele>
        <time>2012-09-01T08:15:19Z</time>
      </trkpt>
      <trkpt lat="45.84942" lon="4.79249">
        <ele>453</ele>
        <time>2012-09-01T08:15:28Z</time>
      </trkpt>
      <trkpt lat="45.84955" lon="4.79243">
        <ele>456</ele>
        <time>2012-09-01T08:15:41Z</time>
      </trkpt>
      <trkpt lat="45.84959" lon="4.79243">
        <ele>456</ele>
        <time>2012-09-01T08:15:44Z</time>
      </trkpt>
      <trkpt lat="45.84975" lon="4.79243">
        <ele>458</ele>
        <time>2012-09-01T08:15:57Z</time>
      </trkpt>
      <trkpt lat="45.84997" lon="4.79244">
        <ele>459</ele>
        <time>2012-09-01T08:16:12Z</time>
      </trkpt>
      <trkpt lat="45.85009" lon="4.79245">
        <ele>461</ele>
        <time>2012-09-01T08:16:23Z</time>
      </trkpt>
      <trkpt lat="45.85013" lon="4.79244">
        <ele>461</ele>
        <time>2012-09-01T08:16:26Z</time>
      </trkpt>
      <trkpt lat="45.85032" lon="4.79242">
        <ele>463</ele>
        <time>2012-09-01T08:16:36Z</time>
      </trkpt>
      <trkpt lat="45.85052" lon="4.79247">
        <ele>464</ele>
        <time>2012-09-01T08:16:48Z</time>
      </trkpt>
      <trkpt lat="45.85062" lon="4.79247">
        <ele>464</ele>
        <time>2012-09-01T08:16:56Z</time>
      </trkpt>
      <trkpt lat="45.85081" lon="4.79268">
        <ele>466</ele>
        <time>2012-09-01T08:17:13Z</time>
      </trkpt>
      <trkpt lat="45.851" lon="4.7927">
        <ele>469</ele>
        <time>2012-09-01T08:17:29Z</time>
      </trkpt>
      <trkpt lat="45.85101" lon="4.79269">
        <ele>469</ele>
        <time>2012-09-01T08:17:30Z</time>
      </trkpt>
      <trkpt lat="45.85116" lon="4.79269">
        <ele>471</ele>
        <time>2012-09-01T08:17:40Z</time>
      </trkpt>
      <trkpt lat="45.85125" lon="4.7927">
        <ele>471</ele>
        <time>2012-09-01T08:17:48Z</time>
      </trkpt>
      <trkpt lat="45.85136" lon="4.79271">
        <ele>472</ele>
        <time>2012-09-01T08:17:56Z</time>
      </trkpt>
      <trkpt lat="45.85145" lon="4.79268">
        <ele>472</ele>
        <time>2012-09-01T08:18:02Z</time>
      </trkpt>
      <trkpt lat="45.85163" lon="4.79269">
        <ele>474</ele>
        <time>2012-09-01T08:18:12Z</time>
      </trkpt>
      <trkpt lat="45.85169" lon="4.79269">
        <ele>474</ele>
        <time>2012-09-01T08:18:18Z</time>
      </trkpt>
      <trkpt lat="45.85177" lon="4.79274">
        <ele>473</ele>
        <time>2012-09-01T08:18:23Z</time>
      </trkpt>
      <trkpt lat="45.85189" lon="4.7928">
        <ele>469</ele>
        <time>2012-09-01T08:18:28Z</time>
      </trkpt>
      <trkpt lat="45.85201" lon="4.79295">
        <ele>466</ele>
        <time>2012-09-01T08:18:31Z</time>
      </trkpt>
      <trkpt lat="45.85218" lon="4.79309">
        <ele>462</ele>
        <time>2012-09-01T08:18:35Z</time>
      </trkpt>
      <trkpt lat="45.85229" lon="4.79315">
        <ele>459</ele>
        <time>2012-09-01T08:18:38Z</time>
      </trkpt>
      <trkpt lat="45.85242" lon="4.79321">
        <ele>455</ele>
        <time>2012-09-01T08:18:41Z</time>
      </trkpt>
      <trkpt lat="45.85242" lon="4.79319">
        <ele>455</ele>
        <time>2012-09-01T08:18:48Z</time>
      </trkpt>
      <trkpt lat="45.85249" lon="4.7932">
        <ele>453</ele>
        <time>2012-09-01T08:19:07Z</time>
      </trkpt>
      <trkpt lat="45.85251" lon="4.79321">
        <ele>453</ele>
        <time>2012-09-01T08:19:33Z</time>
      </trkpt>
      <trkpt lat="45.85271" lon="4.79324">
        <ele>450</ele>
        <time>2012-09-01T08:19:53Z</time>
      </trkpt>
      <trkpt lat="45.8529" lon="4.79322">
        <ele>448</ele>
        <time>2012-09-01T08:19:57Z</time>
      </trkpt>
      <trkpt lat="45.85314" lon="4.79327">
        <ele>443</ele>
        <time>2012-09-01T08:20:01Z</time>
      </trkpt>
      <trkpt lat="45.85346" lon="4.79348">
        <ele>440</ele>
        <time>2012-09-01T08:20:06Z</time>
      </trkpt>
      <trkpt lat="45.85379" lon="4.79368">
        <ele>441</ele>
        <time>2012-09-01T08:20:17Z</time>
      </trkpt>
      <trkpt lat="45.85383" lon="4.79372">
        <ele>441</ele>
        <time>2012-09-01T08:20:21Z</time>
      </trkpt>
      <trkpt lat="45.85376" lon="4.79402">
        <ele>439</ele>
        <time>2012-09-01T08:20:32Z</time>
      </trkpt>
      <trkpt lat="45.85372" lon="4.79434">
        <ele>437</ele>
        <time>2012-09-01T08:20:38Z</time>
      </trkpt>
      <trkpt lat="45.85359" lon="4.79457">
        <ele>433</ele>
        <time>2012-09-01T08:20:43Z</time>
      </trkpt>
      <trkpt lat="45.85356" lon="4.79483">
        <ele>427</ele>
        <time>2012-09-01T08:20:47Z</time>
      </trkpt>
      <trkpt lat="45.85357" lon="4.79497">
        <ele>425</ele>
        <time>2012-09-01T08:20:49Z</time>
      </trkpt>
      <trkpt lat="45.85355" lon="4.79508">
        <ele>422</ele>
        <time>2012-09-01T08:20:51Z</time>
      </trkpt>
      <trkpt lat="45.85355" lon="4.79512">
        <ele>421</ele>
        <time>2012-09-01T08:20:52Z</time>
      </trkpt>
      <trkpt lat="45.85352" lon="4.79522">
        <ele>418</ele>
        <time>2012-09-01T08:20:56Z</time>
      </trkpt>
      <trkpt lat="45.85352" lon="4.79524">
        <ele>418</ele>
        <time>2012-09-01T08:20:57Z</time>
      </trkpt>
      <trkpt lat="45.85349" lon="4.79529">
        <ele>415</ele>
        <time>2012-09-01T08:21:01Z</time>
      </trkpt>
      <trkpt lat="45.85342" lon="4.79546">
        <ele>412</ele>
        <time>2012-09-01T08:21:05Z</time>
      </trkpt>
      <trkpt lat="45.8533" lon="4.79541">
        <ele>408</ele>
        <time>2012-09-01T08:21:09Z</time>
      </trkpt>
      <trkpt lat="45.85318" lon="4.79528">
        <ele>404</ele>
        <time>2012-09-01T08:21:12Z</time>
      </trkpt>
      <trkpt lat="45.85314" lon="4.79525">
        <ele>403</ele>
        <time>2012-09-01T08:21:13Z</time>
      </trkpt>
      <trkpt lat="45.85309" lon="4.79523">
        <ele>401</ele>
        <time>2012-09-01T08:21:14Z</time>
      </trkpt>
      <trkpt lat="45.85304" lon="4.79523">
        <ele>400</ele>
        <time>2012-09-01T08:21:15Z</time>
      </trkpt>
      <trkpt lat="45.85302" lon="4.79525">
        <ele>400</ele>
        <time>2012-09-01T08:21:16Z</time>
      </trkpt>
      <trkpt lat="45.85299" lon="4.79527">
        <ele>399</ele>
        <time>2012-09-01T08:21:17Z</time>
      </trkpt>
      <trkpt lat="45.85297" lon="4.79532">
        <ele>398</ele>
        <time>2012-09-01T08:21:18Z</time>
      </trkpt>
      <trkpt lat="45.85287" lon="4.79553">
        <ele>395</ele>
        <time>2012-09-01T08:21:21Z</time>
      </trkpt>
      <trkpt lat="45.85276" lon="4.79572">
        <ele>392</ele>
        <time>2012-09-01T08:21:24Z</time>
      </trkpt>
      <trkpt lat="45.85272" lon="4.79578">
        <ele>391</ele>
        <time>2012-09-01T08:21:26Z</time>
      </trkpt>
      <trkpt lat="45.85268" lon="4.79587">
        <ele>389</ele>
        <time>2012-09-01T08:21:28Z</time>
      </trkpt>
      <trkpt lat="45.85266" lon="4.79592">
        <ele>389</ele>
        <time>2012-09-01T08:21:29Z</time>
      </trkpt>
      <trkpt lat="45.85261" lon="4.79601">
        <ele>387</ele>
        <time>2012-09-01T08:21:33Z</time>
      </trkpt>
      <trkpt lat="45.8526" lon="4.79605">
        <ele>388</ele>
        <time>2012-09-01T08:23:18Z</time>
      </trkpt>
      <trkpt lat="45.85258" lon="4.79604">
        <ele>387</ele>
        <time>2012-09-01T08:23:19Z</time>
      </trkpt>
      <trkpt lat="45.85232" lon="4.79595">
        <ele>386</ele>
        <time>2012-09-01T08:23:27Z</time>
      </trkpt>
      <trkpt lat="45.85215" lon="4.79601">
        <ele>384</ele>
        <time>2012-09-01T08:23:33Z</time>
      </trkpt>
      <trkpt lat="45.8519" lon="4.79594">
        <ele>382</ele>
        <time>2012-09-01T08:23:38Z</time>
      </trkpt>
      <trkpt lat="45.85184" lon="4.79594">
        <ele>381</ele>
        <time>2012-09-01T08:23:39Z</time>
      </trkpt>
      <trkpt lat="45.8518" lon="4.79596">
        <ele>381</ele>
        <time>2012-09-01T08:23:40Z</time>
      </trkpt>
      <trkpt lat="45.85176" lon="4.79599">
        <ele>380</ele>
        <time>2012-09-01T08:23:41Z</time>
      </trkpt>
      <trkpt lat="45.85174" lon="4.79603">
        <ele>380</ele>
        <time>2012-09-01T08:23:42Z</time>
      </trkpt>
      <trkpt lat="45.85173" lon="4.7961">
        <ele>380</ele>
        <time>2012-09-01T08:23:43Z</time>
      </trkpt>
      <trkpt lat="45.85174" lon="4.79616">
        <ele>379</ele>
        <time>2012-09-01T08:23:44Z</time>
      </trkpt>
      <trkpt lat="45.85177" lon="4.79621">
        <ele>379</ele>
        <time>2012-09-01T08:23:45Z</time>
      </trkpt>
      <trkpt lat="45.8518" lon="4.79626">
        <ele>379</ele>
        <time>2012-09-01T08:23:46Z</time>
      </trkpt>
      <trkpt lat="45.85184" lon="4.79629">
        <ele>378</ele>
        <time>2012-09-01T08:23:47Z</time>
      </trkpt>
      <trkpt lat="45.85189" lon="4.79631">
        <ele>378</ele>
        <time>2012-09-01T08:23:48Z</time>
      </trkpt>
      <trkpt lat="45.85194" lon="4.79633">
        <ele>378</ele>
        <time>2012-09-01T08:23:49Z</time>
      </trkpt>
      <trkpt lat="45.85204" lon="4.79638">
        <ele>378</ele>
        <time>2012-09-01T08:23:51Z</time>
      </trkpt>
      <trkpt lat="45.85209" lon="4.79641">
        <ele>377</ele>
        <time>2012-09-01T08:23:52Z</time>
      </trkpt>
      <trkpt lat="45.85214" lon="4.79646">
        <ele>376</ele>
        <time>2012-09-01T08:23:53Z</time>
      </trkpt>
      <trkpt lat="45.85218" lon="4.79651">
        <ele>376</ele>
        <time>2012-09-01T08:23:54Z</time>
      </trkpt>
      <trkpt lat="45.85221" lon="4.79657">
        <ele>376</ele>
        <time>2012-09-01T08:23:55Z</time>
      </trkpt>
      <trkpt lat="45.85222" lon="4.79664">
        <ele>375</ele>
        <time>2012-09-01T08:23:56Z</time>
      </trkpt>
      <trkpt lat="45.85223" lon="4.79671">
        <ele>375</ele>
        <time>2012-09-01T08:23:57Z</time>
      </trkpt>
      <trkpt lat="45.85222" lon="4.79676">
        <ele>375</ele>
        <time>2012-09-01T08:23:58Z</time>
      </trkpt>
      <trkpt lat="45.85219" lon="4.7968">
        <ele>374</ele>
        <time>2012-09-01T08:23:59Z</time>
      </trkpt>
      <trkpt lat="45.85215" lon="4.79681">
        <ele>374</ele>
        <time>2012-09-01T08:24:00Z</time>
      </trkpt>
      <trkpt lat="45.85211" lon="4.79682">
        <ele>373</ele>
        <time>2012-09-01T08:24:01Z</time>
      </trkpt>
      <trkpt lat="45.85207" lon="4.7968">
        <ele>373</ele>
        <time>2012-09-01T08:24:02Z</time>
      </trkpt>
      <trkpt lat="45.85203" lon="4.79679">
        <ele>372</ele>
        <time>2012-09-01T08:24:03Z</time>
      </trkpt>
      <trkpt lat="45.8519" lon="4.79674">
        <ele>371</ele>
        <time>2012-09-01T08:24:06Z</time>
      </trkpt>
      <trkpt lat="45.85187" lon="4.79676">
        <ele>371</ele>
        <time>2012-09-01T08:24:07Z</time>
      </trkpt>
      <trkpt lat="45.85183" lon="4.79679">
        <ele>371</ele>
        <time>2012-09-01T08:24:08Z</time>
      </trkpt>
      <trkpt lat="45.85159" lon="4.79707">
        <ele>367</ele>
        <time>2012-09-01T08:24:14Z</time>
      </trkpt>
      <trkpt lat="45.85155" lon="4.79711">
        <ele>367</ele>
        <time>2012-09-01T08:24:15Z</time>
      </trkpt>
      <trkpt lat="45.85135" lon="4.7972">
        <ele>365</ele>
        <time>2012-09-01T08:24:21Z</time>
      </trkpt>
      <trkpt lat="45.85134" lon="4.79722">
        <ele>365</ele>
        <time>2012-09-01T08:24:22Z</time>
      </trkpt>
      <trkpt lat="45.85133" lon="4.79725">
        <ele>365</ele>
        <time>2012-09-01T08:24:23Z</time>
      </trkpt>
      <trkpt lat="45.85133" lon="4.79728">
        <ele>365</ele>
        <time>2012-09-01T08:24:24Z</time>
      </trkpt>
      <trkpt lat="45.85133" lon="4.7973">
        <ele>365</ele>
        <time>2012-09-01T08:24:25Z</time>
      </trkpt>
      <trkpt lat="45.85133" lon="4.79735">
        <ele>365</ele>
        <time>2012-09-01T08:24:27Z</time>
      </trkpt>
      <trkpt lat="45.85133" lon="4.79755">
        <ele>364</ele>
        <time>2012-09-01T08:24:33Z</time>
      </trkpt>
      <trkpt lat="45.85134" lon="4.79757">
        <ele>364</ele>
        <time>2012-09-01T08:24:34Z</time>
      </trkpt>
      <trkpt lat="45.8513" lon="4.79778">
        <ele>364</ele>
        <time>2012-09-01T08:24:37Z</time>
      </trkpt>
      <trkpt lat="45.85131" lon="4.79782">
        <ele>364</ele>
        <time>2012-09-01T08:24:38Z</time>
      </trkpt>
      <trkpt lat="45.85132" lon="4.79786">
        <ele>364</ele>
        <time>2012-09-01T08:24:39Z</time>
      </trkpt>
      <trkpt lat="45.85144" lon="4.7981">
        <ele>364</ele>
        <time>2012-09-01T08:24:48Z</time>
      </trkpt>
      <trkpt lat="45.85148" lon="4.79817">
        <ele>364</ele>
        <time>2012-09-01T08:24:50Z</time>
      </trkpt>
      <trkpt lat="45.85154" lon="4.79829">
        <ele>364</ele>
        <time>2012-09-01T08:24:55Z</time>
      </trkpt>
      <trkpt lat="45.85159" lon="4.79835">
        <ele>364</ele>
        <time>2012-09-01T08:24:58Z</time>
      </trkpt>
      <trkpt lat="45.85173" lon="4.79865">
        <ele>363</ele>
        <time>2012-09-01T08:25:07Z</time>
      </trkpt>
      <trkpt lat="45.85185" lon="4.79896">
        <ele>363</ele>
        <time>2012-09-01T08:25:15Z</time>
      </trkpt>
      <trkpt lat="45.85206" lon="4.79945">
        <ele>364</ele>
        <time>2012-09-01T08:25:27Z</time>
      </trkpt>
      <trkpt lat="45.85211" lon="4.79976">
        <ele>364</ele>
        <time>2012-09-01T08:25:35Z</time>
      </trkpt>
      <trkpt lat="45.85209" lon="4.79989">
        <ele>364</ele>
        <time>2012-09-01T08:25:43Z</time>
      </trkpt>
      <trkpt lat="45.85208" lon="4.79988">
        <ele>364</ele>
        <time>2012-09-01T08:25:44Z</time>
      </trkpt>
      <trkpt lat="45.85208" lon="4.79986">
        <ele>365</ele>
        <time>2012-09-01T08:25:45Z</time>
      </trkpt>
      <trkpt lat="45.85208" lon="4.79978">
        <ele>366</ele>
        <time>2012-09-01T08:25:49Z</time>
      </trkpt>
      <trkpt lat="45.85206" lon="4.79977">
        <ele>367</ele>
        <time>2012-09-01T08:25:50Z</time>
      </trkpt>
      <trkpt lat="45.85204" lon="4.79976">
        <ele>367</ele>
        <time>2012-09-01T08:25:51Z</time>
      </trkpt>
      <trkpt lat="45.85203" lon="4.79976">
        <ele>368</ele>
        <time>2012-09-01T08:25:53Z</time>
      </trkpt>
      <trkpt lat="45.85194" lon="4.7998">
        <ele>371</ele>
        <time>2012-09-01T08:25:59Z</time>
      </trkpt>
      <trkpt lat="45.85184" lon="4.79986">
        <ele>372</ele>
        <time>2012-09-01T08:26:15Z</time>
      </trkpt>
      <trkpt lat="45.85179" lon="4.79986">
        <ele>375</ele>
        <time>2012-09-01T08:26:26Z</time>
      </trkpt>
      <trkpt lat="45.8517" lon="4.79993">
        <ele>377</ele>
        <time>2012-09-01T08:26:45Z</time>
      </trkpt>
      <trkpt lat="45.85161" lon="4.79999">
        <ele>381</ele>
        <time>2012-09-01T08:27:00Z</time>
      </trkpt>
      <trkpt lat="45.85148" lon="4.80007">
        <ele>383</ele>
        <time>2012-09-01T08:27:17Z</time>
      </trkpt>
      <trkpt lat="45.85139" lon="4.80009">
        <ele>386</ele>
        <time>2012-09-01T08:27:52Z</time>
      </trkpt>
      <trkpt lat="45.85128" lon="4.79994">
        <ele>389</ele>
        <time>2012-09-01T08:28:08Z</time>
      </trkpt>
      <trkpt lat="45.85117" lon="4.79994">
        <ele>391</ele>
        <time>2012-09-01T08:28:21Z</time>
      </trkpt>
      <trkpt lat="45.85114" lon="4.80004">
        <ele>395</ele>
        <time>2012-09-01T08:28:36Z</time>
      </trkpt>
      <trkpt lat="45.85115" lon="4.80019">
        <ele>397</ele>
        <time>2012-09-01T08:28:54Z</time>
      </trkpt>
      <trkpt lat="45.85115" lon="4.80024">
        <ele>400</ele>
        <time>2012-09-01T08:29:15Z</time>
      </trkpt>
      <trkpt lat="45.85113" lon="4.80026">
        <ele>401</ele>
        <time>2012-09-01T08:29:28Z</time>
      </trkpt>
      <trkpt lat="45.85102" lon="4.80033">
        <ele>403</ele>
        <time>2012-09-01T08:29:45Z</time>
      </trkpt>
      <trkpt lat="45.85098" lon="4.80035">
        <ele>404</ele>
        <time>2012-09-01T08:30:06Z</time>
      </trkpt>
      <trkpt lat="45.85089" lon="4.8004">
        <ele>407</ele>
        <time>2012-09-01T08:30:41Z</time>
      </trkpt>
      <trkpt lat="45.85087" lon="4.80041">
        <ele>410</ele>
        <time>2012-09-01T08:31:03Z</time>
      </trkpt>
      <trkpt lat="45.85087" lon="4.80041">
        <ele>410</ele>
        <time>2012-09-01T08:31:04Z</time>
      </trkpt>
      <trkpt lat="45.85079" lon="4.8005">
        <ele>412</ele>
        <time>2012-09-01T08:31:20Z</time>
      </trkpt>
      <trkpt lat="45.85077" lon="4.80049">
        <ele>413</ele>
        <time>2012-09-01T08:31:40Z</time>
      </trkpt>
      <trkpt lat="45.85077" lon="4.8005">
        <ele>414</ele>
        <time>2012-09-01T08:32:10Z</time>
      </trkpt>
      <trkpt lat="45.85078" lon="4.8005">
        <ele>413</ele>
        <time>2012-09-01T08:32:36Z</time>
      </trkpt>
      <trkpt lat="45.85075" lon="4.80051">
        <ele>413</ele>
        <time>2012-09-01T08:32:53Z</time>
      </trkpt>
      <trkpt lat="45.85067" lon="4.80059">
        <ele>413</ele>
        <time>2012-09-01T08:33:00Z</time>
      </trkpt>
      <trkpt lat="45.85066" lon="4.80065">
        <ele>412</ele>
        <time>2012-09-01T08:33:03Z</time>
      </trkpt>
      <trkpt lat="45.85071" lon="4.80077">
        <ele>410</ele>
        <time>2012-09-01T08:33:09Z</time>
      </trkpt>
      <trkpt lat="45.85073" lon="4.80081">
        <ele>410</ele>
        <time>2012-09-01T08:33:11Z</time>
      </trkpt>
      <trkpt lat="45.85071" lon="4.80104">
        <ele>411</ele>
        <time>2012-09-01T08:33:19Z</time>
      </trkpt>
      <trkpt lat="45.8505" lon="4.80127">
        <ele>413</ele>
        <time>2012-09-01T08:33:33Z</time>
      </trkpt>
      <trkpt lat="45.85034" lon="4.80144">
        <ele>415</ele>
        <time>2012-09-01T08:33:46Z</time>
      </trkpt>
      <trkpt lat="45.85021" lon="4.80158">
        <ele>416</ele>
        <time>2012-09-01T08:33:56Z</time>
      </trkpt>
      <trkpt lat="45.85012" lon="4.8017">
        <ele>418</ele>
        <time>2012-09-01T08:34:06Z</time>
      </trkpt>
      <trkpt lat="45.85009" lon="4.80172">
        <ele>417</ele>
        <time>2012-09-01T08:34:09Z</time>
      </trkpt>
      <trkpt lat="45.85012" lon="4.80185">
        <ele>416</ele>
        <time>2012-09-01T08:34:15Z</time>
      </trkpt>
      <trkpt lat="45.85023" lon="4.80209">
        <ele>414</ele>
        <time>2012-09-01T08:34:23Z</time>
      </trkpt>
      <trkpt lat="45.85045" lon="4.80241">
        <ele>412</ele>
        <time>2012-09-01T08:34:32Z</time>
      </trkpt>
      <trkpt lat="45.85036" lon="4.80253">
        <ele>413</ele>
        <time>2012-09-01T08:34:40Z</time>
      </trkpt>
      <trkpt lat="45.85019" lon="4.80269">
        <ele>415</ele>
        <time>2012-09-01T08:34:54Z</time>
      </trkpt>
      <trkpt lat="45.85017" lon="4.80271">
        <ele>416</ele>
        <time>2012-09-01T08:34:56Z</time>
      </trkpt>
      <trkpt lat="45.85014" lon="4.80271">
        <ele>416</ele>
        <time>2012-09-01T08:34:58Z</time>
      </trkpt>
      <trkpt lat="45.85011" lon="4.80274">
        <ele>417</ele>
        <time>2012-09-01T08:35:01Z</time>
      </trkpt>
      <trkpt lat="45.85006" lon="4.80277">
        <ele>417</ele>
        <time>2012-09-01T08:35:04Z</time>
      </trkpt>
      <trkpt lat="45.84998" lon="4.80288">
        <ele>420</ele>
        <time>2012-09-01T08:35:15Z</time>
      </trkpt>
      <trkpt lat="45.84996" lon="4.80295">
        <ele>421</ele>
        <time>2012-09-01T08:35:36Z</time>
      </trkpt>
      <trkpt lat="45.84986" lon="4.80309">
        <ele>423</ele>
        <time>2012-09-01T08:35:48Z</time>
      </trkpt>
      <trkpt lat="45.84976" lon="4.80326">
        <ele>426</ele>
        <time>2012-09-01T08:36:01Z</time>
      </trkpt>
      <trkpt lat="45.84964" lon="4.80338">
        <ele>429</ele>
        <time>2012-09-01T08:36:12Z</time>
      </trkpt>
      <trkpt lat="45.84953" lon="4.80354">
        <ele>432</ele>
        <time>2012-09-01T08:36:26Z</time>
      </trkpt>
      <trkpt lat="45.84948" lon="4.80363">
        <ele>435</ele>
        <time>2012-09-01T08:36:31Z</time>
      </trkpt>
      <trkpt lat="45.84946" lon="4.80368">
        <ele>437</ele>
        <time>2012-09-01T08:36:35Z</time>
      </trkpt>
      <trkpt lat="45.84942" lon="4.80376">
        <ele>438</ele>
        <time>2012-09-01T08:36:41Z</time>
      </trkpt>
      <trkpt lat="45.84943" lon="4.80386">
        <ele>440</ele>
        <time>2012-09-01T08:36:51Z</time>
      </trkpt>
      <trkpt lat="45.84943" lon="4.80394">
        <ele>442</ele>
        <time>2012-09-01T08:37:14Z</time>
      </trkpt>
      <trkpt lat="45.84943" lon="4.80406">
        <ele>445</ele>
        <time>2012-09-01T08:37:29Z</time>
      </trkpt>
      <trkpt lat="45.8494" lon="4.80416">
        <ele>447</ele>
        <time>2012-09-01T08:37:45Z</time>
      </trkpt>
      <trkpt lat="45.84937" lon="4.8043">
        <ele>450</ele>
        <time>2012-09-01T08:38:14Z</time>
      </trkpt>
      <trkpt lat="45.84943" lon="4.80443">
        <ele>451</ele>
        <time>2012-09-01T08:38:26Z</time>
      </trkpt>
      <trkpt lat="45.84948" lon="4.80444">
        <ele>451</ele>
        <time>2012-09-01T08:40:31Z</time>
      </trkpt>
      <trkpt lat="45.84958" lon="4.80461">
        <ele>449</ele>
        <time>2012-09-01T08:40:40Z</time>
      </trkpt>
      <trkpt lat="45.84979" lon="4.80481">
        <ele>448</ele>
        <time>2012-09-01T08:40:47Z</time>
      </trkpt>
      <trkpt lat="45.84994" lon="4.80497">
        <ele>446</ele>
        <time>2012-09-01T08:40:52Z</time>
      </trkpt>
      <trkpt lat="45.84998" lon="4.80509">
        <ele>445</ele>
        <time>2012-09-01T08:40:54Z</time>
      </trkpt>
      <trkpt lat="45.85007" lon="4.80526">
        <ele>443</ele>
        <time>2012-09-01T08:40:57Z</time>
      </trkpt>
      <trkpt lat="45.85009" lon="4.80533">
        <ele>442</ele>
        <time>2012-09-01T08:40:58Z</time>
      </trkpt>
      <trkpt lat="45.85018" lon="4.80549">
        <ele>441</ele>
        <time>2012-09-01T08:41:00Z</time>
      </trkpt>
      <trkpt lat="45.85032" lon="4.80572">
        <ele>438</ele>
        <time>2012-09-01T08:41:03Z</time>
      </trkpt>
      <trkpt lat="45.85046" lon="4.80601">
        <ele>437</ele>
        <time>2012-09-01T08:41:06Z</time>
      </trkpt>
      <trkpt lat="45.85052" lon="4.80611">
        <ele>436</ele>
        <time>2012-09-01T08:41:07Z</time>
      </trkpt>
      <trkpt lat="45.85059" lon="4.80621">
        <ele>435</ele>
        <time>2012-09-01T08:41:08Z</time>
      </trkpt>
      <trkpt lat="45.85069" lon="4.80646">
        <ele>432</ele>
        <time>2012-09-01T08:41:11Z</time>
      </trkpt>
      <trkpt lat="45.85074" lon="4.80662">
        <ele>431</ele>
        <time>2012-09-01T08:41:13Z</time>
      </trkpt>
      <trkpt lat="45.85078" lon="4.80672">
        <ele>431</ele>
        <time>2012-09-01T08:41:14Z</time>
      </trkpt>
      <trkpt lat="45.85083" lon="4.80686">
        <ele>430</ele>
        <time>2012-09-01T08:41:15Z</time>
      </trkpt>
      <trkpt lat="45.85092" lon="4.80697">
        <ele>429</ele>
        <time>2012-09-01T08:41:16Z</time>
      </trkpt>
      <trkpt lat="45.85122" lon="4.80738">
        <ele>426</ele>
        <time>2012-09-01T08:41:20Z</time>
      </trkpt>
      <trkpt lat="45.85146" lon="4.80767">
        <ele>423</ele>
        <time>2012-09-01T08:41:23Z</time>
      </trkpt>
      <trkpt lat="45.8516" lon="4.80788">
        <ele>420</ele>
        <time>2012-09-01T08:41:26Z</time>
      </trkpt>
      <trkpt lat="45.85177" lon="4.80823">
        <ele>416</ele>
        <time>2012-09-01T08:41:30Z</time>
      </trkpt>
      <trkpt lat="45.85197" lon="4.80842">
        <ele>413</ele>
        <time>2012-09-01T08:41:34Z</time>
      </trkpt>
      <trkpt lat="45.8521" lon="4.80853">
        <ele>411</ele>
        <time>2012-09-01T08:41:37Z</time>
      </trkpt>
      <trkpt lat="45.85216" lon="4.80857">
        <ele>410</ele>
        <time>2012-09-01T08:41:38Z</time>
      </trkpt>
      <trkpt lat="45.85241" lon="4.80875">
        <ele>407</ele>
        <time>2012-09-01T08:41:42Z</time>
      </trkpt>
      <trkpt lat="45.85245" lon="4.80883">
        <ele>406</ele>
        <time>2012-09-01T08:41:44Z</time>
      </trkpt>
      <trkpt lat="45.8525" lon="4.80886">
        <ele>406</ele>
        <time>2012-09-01T08:41:47Z</time>
      </trkpt>
      <trkpt lat="45.85257" lon="4.80907">
        <ele>407</ele>
        <time>2012-09-01T08:41:59Z</time>
      </trkpt>
      <trkpt lat="45.85264" lon="4.80914">
        <ele>408</ele>
        <time>2012-09-01T08:42:11Z</time>
      </trkpt>
      <trkpt lat="45.85281" lon="4.8094">
        <ele>411</ele>
        <time>2012-09-01T08:42:21Z</time>
      </trkpt>
      <trkpt lat="45.85286" lon="4.8097">
        <ele>412</ele>
        <time>2012-09-01T08:42:31Z</time>
      </trkpt>
      <trkpt lat="45.85291" lon="4.80982">
        <ele>413</ele>
        <time>2012-09-01T08:42:35Z</time>
      </trkpt>
      <trkpt lat="45.85293" lon="4.80985">
        <ele>413</ele>
        <time>2012-09-01T08:42:36Z</time>
      </trkpt>
      <trkpt lat="45.85313" lon="4.81006">
        <ele>415</ele>
        <time>2012-09-01T08:42:45Z</time>
      </trkpt>
      <trkpt lat="45.85314" lon="4.81009">
        <ele>415</ele>
        <time>2012-09-01T08:42:46Z</time>
      </trkpt>
      <trkpt lat="45.85328" lon="4.81027">
        <ele>418</ele>
        <time>2012-09-01T08:42:55Z</time>
      </trkpt>
      <trkpt lat="45.85334" lon="4.81037">
        <ele>419</ele>
        <time>2012-09-01T08:43:00Z</time>
      </trkpt>
      <trkpt lat="45.85337" lon="4.81044">
        <ele>419</ele>
        <time>2012-09-01T08:43:03Z</time>
      </trkpt>
      <trkpt lat="45.85341" lon="4.81053">
        <ele>420</ele>
        <time>2012-09-01T08:43:06Z</time>
      </trkpt>
      <trkpt lat="45.85354" lon="4.81075">
        <ele>422</ele>
        <time>2012-09-01T08:43:15Z</time>
      </trkpt>
      <trkpt lat="45.8536" lon="4.81088">
        <ele>423</ele>
        <time>2012-09-01T08:43:21Z</time>
      </trkpt>
      <trkpt lat="45.8537" lon="4.81107">
        <ele>424</ele>
        <time>2012-09-01T08:43:28Z</time>
      </trkpt>
      <trkpt lat="45.8538" lon="4.81123">
        <ele>426</ele>
        <time>2012-09-01T08:43:35Z</time>
      </trkpt>
      <trkpt lat="45.85395" lon="4.81149">
        <ele>427</ele>
        <time>2012-09-01T08:43:46Z</time>
      </trkpt>
      <trkpt lat="45.85414" lon="4.81171">
        <ele>428</ele>
        <time>2012-09-01T08:43:57Z</time>
      </trkpt>
      <trkpt lat="45.85436" lon="4.81196">
        <ele>431</ele>
        <time>2012-09-01T08:44:10Z</time>
      </trkpt>
      <trkpt lat="45.85444" lon="4.81207">
        <ele>434</ele>
        <time>2012-09-01T08:44:15Z</time>
      </trkpt>
      <trkpt lat="45.85455" lon="4.81221">
        <ele>434</ele>
        <time>2012-09-01T08:44:24Z</time>
      </trkpt>
      <trkpt lat="45.8547" lon="4.81236">
        <ele>437</ele>
        <time>2012-09-01T08:44:33Z</time>
      </trkpt>
      <trkpt lat="45.85485" lon="4.8125">
        <ele>438</ele>
        <time>2012-09-01T08:44:44Z</time>
      </trkpt>
      <trkpt lat="45.855" lon="4.81269">
        <ele>440</ele>
        <time>2012-09-01T08:44:53Z</time>
      </trkpt>
      <trkpt lat="45.85503" lon="4.81282">
        <ele>441</ele>
        <time>2012-09-01T08:44:58Z</time>
      </trkpt>
      <trkpt lat="45.855" lon="4.81292">
        <ele>442</ele>
        <time>2012-09-01T08:45:04Z</time>
      </trkpt>
      <trkpt lat="45.85497" lon="4.81294">
        <ele>442</ele>
        <time>2012-09-01T08:45:06Z</time>
      </trkpt>
      <trkpt lat="45.85491" lon="4.81308">
        <ele>441</ele>
        <time>2012-09-01T08:45:14Z</time>
      </trkpt>
      <trkpt lat="45.85467" lon="4.81346">
        <ele>441</ele>
        <time>2012-09-01T08:45:26Z</time>
      </trkpt>
      <trkpt lat="45.85464" lon="4.81393">
        <ele>439</ele>
        <time>2012-09-01T08:45:36Z</time>
      </trkpt>
      <trkpt lat="45.85467" lon="4.81416">
        <ele>438</ele>
        <time>2012-09-01T08:45:41Z</time>
      </trkpt>
      <trkpt lat="45.85477" lon="4.81427">
        <ele>436</ele>
        <time>2012-09-01T08:45:46Z</time>
      </trkpt>
      <trkpt lat="45.85478" lon="4.81429">
        <ele>436</ele>
        <time>2012-09-01T08:45:47Z</time>
      </trkpt>
      <trkpt lat="45.85487" lon="4.81453">
        <ele>433</ele>
        <time>2012-09-01T08:45:52Z</time>
      </trkpt>
      <trkpt lat="45.85491" lon="4.81459">
        <ele>431</ele>
        <time>2012-09-01T08:45:55Z</time>
      </trkpt>
      <trkpt lat="45.85506" lon="4.81493">
        <ele>428</ele>
        <time>2012-09-01T08:46:02Z</time>
      </trkpt>
      <trkpt lat="45.85514" lon="4.81511">
        <ele>426</ele>
        <time>2012-09-01T08:46:04Z</time>
      </trkpt>
      <trkpt lat="45.85533" lon="4.81542">
        <ele>423</ele>
        <time>2012-09-01T08:46:09Z</time>
      </trkpt>
      <trkpt lat="45.85535" lon="4.81546">
        <ele>423</ele>
        <time>2012-09-01T08:46:10Z</time>
      </trkpt>
      <trkpt lat="45.85548" lon="4.81571">
        <ele>421</ele>
        <time>2012-09-01T08:46:14Z</time>
      </trkpt>
      <trkpt lat="45.8558" lon="4.81621">
        <ele>417</ele>
        <time>2012-09-01T08:46:21Z</time>
      </trkpt>
      <trkpt lat="45.85613" lon="4.8166">
        <ele>414</ele>
        <time>2012-09-01T08:46:26Z</time>
      </trkpt>
      <trkpt lat="45.8562" lon="4.81667">
        <ele>414</ele>
        <time>2012-09-01T08:46:27Z</time>
      </trkpt>
      <trkpt lat="45.85639" lon="4.81684">
        <ele>412</ele>
        <time>2012-09-01T08:46:30Z</time>
      </trkpt>
      <trkpt lat="45.8566" lon="4.81699">
        <ele>409</ele>
        <time>2012-09-01T08:46:34Z</time>
      </trkpt>
      <trkpt lat="45.85682" lon="4.81706">
        <ele>406</ele>
        <time>2012-09-01T08:46:38Z</time>
      </trkpt>
      <trkpt lat="45.85693" lon="4.81705">
        <ele>404</ele>
        <time>2012-09-01T08:46:40Z</time>
      </trkpt>
      <trkpt lat="45.857" lon="4.8171">
        <ele>402</ele>
        <time>2012-09-01T08:46:41Z</time>
      </trkpt>
      <trkpt lat="45.85703" lon="4.81709">
        <ele>401</ele>
        <time>2012-09-01T08:46:42Z</time>
      </trkpt>
      <trkpt lat="45.8571" lon="4.81711">
        <ele>401</ele>
        <time>2012-09-01T08:46:51Z</time>
      </trkpt>
      <trkpt lat="45.85705" lon="4.81717">
        <ele>403</ele>
        <time>2012-09-01T08:47:07Z</time>
      </trkpt>
      <trkpt lat="45.85697" lon="4.81719">
        <ele>406</ele>
        <time>2012-09-01T08:47:21Z</time>
      </trkpt>
      <trkpt lat="45.85694" lon="4.81719">
        <ele>406</ele>
        <time>2012-09-01T08:47:23Z</time>
      </trkpt>
      <trkpt lat="45.85683" lon="4.81714">
        <ele>408</ele>
        <time>2012-09-01T08:47:34Z</time>
      </trkpt>
      <trkpt lat="45.85675" lon="4.8171">
        <ele>409</ele>
        <time>2012-09-01T08:47:39Z</time>
      </trkpt>
      <trkpt lat="45.85674" lon="4.81711">
        <ele>409</ele>
        <time>2012-09-01T08:47:41Z</time>
      </trkpt>
      <trkpt lat="45.85669" lon="4.81708">
        <ele>409</ele>
        <time>2012-09-01T08:47:44Z</time>
      </trkpt>
      <trkpt lat="45.85652" lon="4.81694">
        <ele>411</ele>
        <time>2012-09-01T08:47:55Z</time>
      </trkpt>
      <trkpt lat="45.8563" lon="4.81681">
        <ele>412</ele>
        <time>2012-09-01T08:48:05Z</time>
      </trkpt>
      <trkpt lat="45.85628" lon="4.81681">
        <ele>412</ele>
        <time>2012-09-01T08:48:06Z</time>
      </trkpt>
      <trkpt lat="45.85626" lon="4.81679">
        <ele>412</ele>
        <time>2012-09-01T08:48:07Z</time>
      </trkpt>
      <trkpt lat="45.85624" lon="4.8168">
        <ele>413</ele>
        <time>2012-09-01T08:48:08Z</time>
      </trkpt>
      <trkpt lat="45.85619" lon="4.81683">
        <ele>414</ele>
        <time>2012-09-01T08:48:11Z</time>
      </trkpt>
      <trkpt lat="45.85612" lon="4.81696">
        <ele>415</ele>
        <time>2012-09-01T08:48:19Z</time>
      </trkpt>
      <trkpt lat="45.85616" lon="4.81704">
        <ele>417</ele>
        <time>2012-09-01T08:48:25Z</time>
      </trkpt>
      <trkpt lat="45.8562" lon="4.81712">
        <ele>415</ele>
        <time>2012-09-01T08:48:29Z</time>
      </trkpt>
      <trkpt lat="45.85618" lon="4.81722">
        <ele>418</ele>
        <time>2012-09-01T08:48:34Z</time>
      </trkpt>
      <trkpt lat="45.85613" lon="4.81739">
        <ele>420</ele>
        <time>2012-09-01T08:48:44Z</time>
      </trkpt>
      <trkpt lat="45.85604" lon="4.81749">
        <ele>419</ele>
        <time>2012-09-01T08:48:53Z</time>
      </trkpt>
      <trkpt lat="45.85599" lon="4.8175">
        <ele>421</ele>
        <time>2012-09-01T08:48:56Z</time>
      </trkpt>
      <trkpt lat="45.85595" lon="4.81754">
        <ele>422</ele>
        <time>2012-09-01T08:49:00Z</time>
      </trkpt>
      <trkpt lat="45.85593" lon="4.81759">
        <ele>422</ele>
        <time>2012-09-01T08:49:03Z</time>
      </trkpt>
      <trkpt lat="45.85579" lon="4.81779">
        <ele>422</ele>
        <time>2012-09-01T08:49:14Z</time>
      </trkpt>
      <trkpt lat="45.85578" lon="4.81779">
        <ele>423</ele>
        <time>2012-09-01T08:49:29Z</time>
      </trkpt>
      <trkpt lat="45.85577" lon="4.81779">
        <ele>422</ele>
        <time>2012-09-01T08:49:56Z</time>
      </trkpt>
      <trkpt lat="45.85576" lon="4.81778">
        <ele>421</ele>
        <time>2012-09-01T08:50:52Z</time>
      </trkpt>
      <trkpt lat="45.85562" lon="4.81772">
        <ele>421</ele>
        <time>2012-09-01T08:51:01Z</time>
      </trkpt>
      <trkpt lat="45.85559" lon="4.8177">
        <ele>421</ele>
        <time>2012-09-01T08:51:02Z</time>
      </trkpt>
      <trkpt lat="45.85539" lon="4.81753">
        <ele>421</ele>
        <time>2012-09-01T08:51:14Z</time>
      </trkpt>
      <trkpt lat="45.85525" lon="4.81765">
        <ele>418</ele>
        <time>2012-09-01T08:51:21Z</time>
      </trkpt>
      <trkpt lat="45.85522" lon="4.81768">
        <ele>418</ele>
        <time>2012-09-01T08:51:22Z</time>
      </trkpt>
      <trkpt lat="45.85516" lon="4.8177">
        <ele>418</ele>
        <time>2012-09-01T08:51:24Z</time>
      </trkpt>
      <trkpt lat="45.85516" lon="4.8178">
        <ele>417</ele>
        <time>2012-09-01T08:51:31Z</time>
      </trkpt>
      <trkpt lat="45.85521" lon="4.8178">
        <ele>417</ele>
        <time>2012-09-01T08:51:53Z</time>
      </trkpt>
      <trkpt lat="45.85529" lon="4.81791">
        <ele>418</ele>
        <time>2012-09-01T08:52:05Z</time>
      </trkpt>
      <trkpt lat="45.85544" lon="4.81808">
        <ele>418</ele>
        <time>2012-09-01T08:52:17Z</time>
      </trkpt>
      <trkpt lat="45.85541" lon="4.81804">
        <ele>418</ele>
        <time>2012-09-01T08:52:33Z</time>
      </trkpt>
      <trkpt lat="45.85536" lon="4.81799">
        <ele>417</ele>
        <time>2012-09-01T08:52:37Z</time>
      </trkpt>
      <trkpt lat="45.85523" lon="4.81787">
        <ele>417</ele>
        <time>2012-09-01T08:52:49Z</time>
      </trkpt>
      <trkpt lat="45.85519" lon="4.81783">
        <ele>418</ele>
        <time>2012-09-01T08:53:00Z</time>
      </trkpt>
      <trkpt lat="45.85511" lon="4.81773">
        <ele>417</ele>
        <time>2012-09-01T08:53:07Z</time>
      </trkpt>
      <trkpt lat="45.85507" lon="4.81772">
        <ele>417</ele>
        <time>2012-09-01T08:53:09Z</time>
      </trkpt>
      <trkpt lat="45.855" lon="4.81771">
        <ele>419</ele>
        <time>2012-09-01T08:53:12Z</time>
      </trkpt>
      <trkpt lat="45.85491" lon="4.81772">
        <ele>417</ele>
        <time>2012-09-01T08:53:16Z</time>
      </trkpt>
      <trkpt lat="45.85482" lon="4.81773">
        <ele>416</ele>
        <time>2012-09-01T08:53:20Z</time>
      </trkpt>
      <trkpt lat="45.85477" lon="4.81775">
        <ele>415</ele>
        <time>2012-09-01T08:53:30Z</time>
      </trkpt>
      <trkpt lat="45.85478" lon="4.81781">
        <ele>415</ele>
        <time>2012-09-01T08:53:49Z</time>
      </trkpt>
      <trkpt lat="45.85479" lon="4.81789">
        <ele>413</ele>
        <time>2012-09-01T08:54:07Z</time>
      </trkpt>
      <trkpt lat="45.85479" lon="4.8179">
        <ele>413</ele>
        <time>2012-09-01T08:54:09Z</time>
      </trkpt>
      <trkpt lat="45.85479" lon="4.81794">
        <ele>412</ele>
        <time>2012-09-01T08:54:21Z</time>
      </trkpt>
      <trkpt lat="45.8548" lon="4.818">
        <ele>412</ele>
        <time>2012-09-01T08:55:19Z</time>
      </trkpt>
      <trkpt lat="45.8548" lon="4.81795">
        <ele>413</ele>
        <time>2012-09-01T08:55:43Z</time>
      </trkpt>
      <trkpt lat="45.85481" lon="4.81796">
        <ele>412</ele>
        <time>2012-09-01T08:55:50Z</time>
      </trkpt>
      <trkpt lat="45.85481" lon="4.81802">
        <ele>412</ele>
        <time>2012-09-01T08:55:53Z</time>
      </trkpt>
      <trkpt lat="45.8548" lon="4.81813">
        <ele>408</ele>
        <time>2012-09-01T08:55:58Z</time>
      </trkpt>
      <trkpt lat="45.85478" lon="4.81822">
        <ele>405</ele>
        <time>2012-09-01T08:56:10Z</time>
      </trkpt>
      <trkpt lat="45.85474" lon="4.81826">
        <ele>404</ele>
        <time>2012-09-01T08:56:24Z</time>
      </trkpt>
      <trkpt lat="45.8546" lon="4.81825">
        <ele>403</ele>
        <time>2012-09-01T08:56:44Z</time>
      </trkpt>
      <trkpt lat="45.85443" lon="4.81827">
        <ele>401</ele>
        <time>2012-09-01T08:56:55Z</time>
      </trkpt>
      <trkpt lat="45.85434" lon="4.81828">
        <ele>400</ele>
        <time>2012-09-01T08:57:11Z</time>
      </trkpt>
      <trkpt lat="45.85433" lon="4.81836">
        <ele>398</ele>
        <time>2012-09-01T08:57:23Z</time>
      </trkpt>
      <trkpt lat="45.85436" lon="4.81844">
        <ele>395</ele>
        <time>2012-09-01T08:57:29Z</time>
      </trkpt>
      <trkpt lat="45.85434" lon="4.81845">
        <ele>394</ele>
        <time>2012-09-01T08:57:31Z</time>
      </trkpt>
      <trkpt lat="45.85432" lon="4.81852">
        <ele>392</ele>
        <time>2012-09-01T08:57:49Z</time>
      </trkpt>
      <trkpt lat="45.85431" lon="4.81855">
        <ele>390</ele>
        <time>2012-09-01T08:57:52Z</time>
      </trkpt>
      <trkpt lat="45.8543" lon="4.81867">
        <ele>388</ele>
        <time>2012-09-01T08:58:06Z</time>
      </trkpt>
      <trkpt lat="45.85429" lon="4.81874">
        <ele>386</ele>
        <time>2012-09-01T08:58:18Z</time>
      </trkpt>
      <trkpt lat="45.8543" lon="4.8188">
        <ele>383</ele>
        <time>2012-09-01T08:58:45Z</time>
      </trkpt>
      <trkpt lat="45.85428" lon="4.81885">
        <ele>380</ele>
        <time>2012-09-01T08:58:56Z</time>
      </trkpt>
      <trkpt lat="45.85428" lon="4.81895">
        <ele>377</ele>
        <time>2012-09-01T08:59:09Z</time>
      </trkpt>
      <trkpt lat="45.85425" lon="4.81905">
        <ele>373</ele>
        <time>2012-09-01T08:59:32Z</time>
      </trkpt>
      <trkpt lat="45.85424" lon="4.81909">
        <ele>371</ele>
        <time>2012-09-01T08:59:36Z</time>
      </trkpt>
      <trkpt lat="45.85425" lon="4.81921">
        <ele>368</ele>
        <time>2012-09-01T08:59:49Z</time>
      </trkpt>
      <trkpt lat="45.85425" lon="4.81929">
        <ele>366</ele>
        <time>2012-09-01T09:00:02Z</time>
      </trkpt>
      <trkpt lat="45.85427" lon="4.81931">
        <ele>364</ele>
        <time>2012-09-01T09:00:08Z</time>
      </trkpt>
      <trkpt lat="45.85422" lon="4.81938">
        <ele>361</ele>
        <time>2012-09-01T09:00:32Z</time>
      </trkpt>
      <trkpt lat="45.85413" lon="4.81947">
        <ele>356</ele>
        <time>2012-09-01T09:00:37Z</time>
      </trkpt>
      <trkpt lat="45.85411" lon="4.8195">
        <ele>356</ele>
        <time>2012-09-01T09:00:38Z</time>
      </trkpt>
      <trkpt lat="45.85401" lon="4.81958">
        <ele>353</ele>
        <time>2012-09-01T09:00:41Z</time>
      </trkpt>
      <trkpt lat="45.85398" lon="4.81961">
        <ele>353</ele>
        <time>2012-09-01T09:00:42Z</time>
      </trkpt>
      <trkpt lat="45.85392" lon="4.8196">
        <ele>352</ele>
        <time>2012-09-01T09:00:50Z</time>
      </trkpt>
      <trkpt lat="45.85386" lon="4.81969">
        <ele>351</ele>
        <time>2012-09-01T09:01:04Z</time>
      </trkpt>
      <trkpt lat="45.85387" lon="4.81975">
        <ele>350</ele>
        <time>2012-09-01T09:01:15Z</time>
      </trkpt>
      <trkpt lat="45.85384" lon="4.81977">
        <ele>347</ele>
        <time>2012-09-01T09:01:25Z</time>
      </trkpt>
      <trkpt lat="45.85383" lon="4.81979">
        <ele>347</ele>
        <time>2012-09-01T09:01:26Z</time>
      </trkpt>
      <trkpt lat="45.85378" lon="4.8199">
        <ele>343</ele>
        <time>2012-09-01T09:01:32Z</time>
      </trkpt>
      <trkpt lat="45.8537" lon="4.82001">
        <ele>340</ele>
        <time>2012-09-01T09:01:38Z</time>
      </trkpt>
      <trkpt lat="45.85368" lon="4.82">
        <ele>340</ele>
        <time>2012-09-01T09:02:11Z</time>
      </trkpt>
      <trkpt lat="45.85362" lon="4.81993">
        <ele>343</ele>
        <time>2012-09-01T09:02:25Z</time>
      </trkpt>
      <trkpt lat="45.85355" lon="4.81989">
        <ele>346</ele>
        <time>2012-09-01T09:02:46Z</time>
      </trkpt>
      <trkpt lat="45.85351" lon="4.81979">
        <ele>348</ele>
        <time>2012-09-01T09:02:59Z</time>
      </trkpt>
      <trkpt lat="45.85343" lon="4.81961">
        <ele>349</ele>
        <time>2012-09-01T09:03:30Z</time>
      </trkpt>
      <trkpt lat="45.85345" lon="4.81955">
        <ele>351</ele>
        <time>2012-09-01T09:03:50Z</time>
      </trkpt>
      <trkpt lat="45.85338" lon="4.81941">
        <ele>354</ele>
        <time>2012-09-01T09:04:15Z</time>
      </trkpt>
      <trkpt lat="45.85335" lon="4.81926">
        <ele>357</ele>
        <time>2012-09-01T09:04:28Z</time>
      </trkpt>
      <trkpt lat="45.85333" lon="4.81917">
        <ele>360</ele>
        <time>2012-09-01T09:04:39Z</time>
      </trkpt>
      <trkpt lat="45.85318" lon="4.81908">
        <ele>363</ele>
        <time>2012-09-01T09:04:53Z</time>
      </trkpt>
      <trkpt lat="45.85311" lon="4.81899">
        <ele>366</ele>
        <time>2012-09-01T09:05:13Z</time>
      </trkpt>
      <trkpt lat="45.85307" lon="4.81894">
        <ele>369</ele>
        <time>2012-09-01T09:05:33Z</time>
      </trkpt>
      <trkpt lat="45.85302" lon="4.81884">
        <ele>372</ele>
        <time>2012-09-01T09:05:47Z</time>
      </trkpt>
      <trkpt lat="45.85291" lon="4.81876">
        <ele>374</ele>
        <time>2012-09-01T09:06:01Z</time>
      </trkpt>
      <trkpt lat="45.8529" lon="4.8187">
        <ele>376</ele>
        <time>2012-09-01T09:06:07Z</time>
      </trkpt>
      <trkpt lat="45.85285" lon="4.81862">
        <ele>379</ele>
        <time>2012-09-01T09:06:22Z</time>
      </trkpt>
      <trkpt lat="45.85282" lon="4.81853">
        <ele>382</ele>
        <time>2012-09-01T09:06:37Z</time>
      </trkpt>
      <trkpt lat="45.85277" lon="4.81842">
        <ele>385</ele>
        <time>2012-09-01T09:06:51Z</time>
      </trkpt>
      <trkpt lat="45.85263" lon="4.81835">
        <ele>388</ele>
        <time>2012-09-01T09:07:06Z</time>
      </trkpt>
      <trkpt lat="45.85261" lon="4.81833">
        <ele>388</ele>
        <time>2012-09-01T09:07:17Z</time>
      </trkpt>
      <trkpt lat="45.85262" lon="4.81833">
        <ele>390</ele>
        <time>2012-09-01T09:07:23Z</time>
      </trkpt>
      <trkpt lat="45.85257" lon="4.81821">
        <ele>391</ele>
        <time>2012-09-01T09:07:43Z</time>
      </trkpt>
      <trkpt lat="45.85265" lon="4.81819">
        <ele>392</ele>
        <time>2012-09-01T09:08:46Z</time>
      </trkpt>
      <trkpt lat="45.85266" lon="4.81812">
        <ele>393</ele>
        <time>2012-09-01T09:09:04Z</time>
      </trkpt>
      <trkpt lat="45.85267" lon="4.81809">
        <ele>393</ele>
        <time>2012-09-01T09:09:08Z</time>
      </trkpt>
      <trkpt lat="45.85269" lon="4.81795">
        <ele>395</ele>
        <time>2012-09-01T09:09:15Z</time>
      </trkpt>
      <trkpt lat="45.85272" lon="4.81783">
        <ele>396</ele>
        <time>2012-09-01T09:09:19Z</time>
      </trkpt>
      <trkpt lat="45.8528" lon="4.81773">
        <ele>397</ele>
        <time>2012-09-01T09:09:24Z</time>
      </trkpt>
      <trkpt lat="45.85288" lon="4.81765">
        <ele>398</ele>
        <time>2012-09-01T09:09:29Z</time>
      </trkpt>
      <trkpt lat="45.85296" lon="4.81763">
        <ele>400</ele>
        <time>2012-09-01T09:09:33Z</time>
      </trkpt>
      <trkpt lat="45.85308" lon="4.81762">
        <ele>402</ele>
        <time>2012-09-01T09:09:39Z</time>
      </trkpt>
      <trkpt lat="45.85329" lon="4.81769">
        <ele>404</ele>
        <time>2012-09-01T09:09:48Z</time>
      </trkpt>
      <trkpt lat="45.85347" lon="4.8178">
        <ele>405</ele>
        <time>2012-09-01T09:09:57Z</time>
      </trkpt>
      <trkpt lat="45.85364" lon="4.81795">
        <ele>408</ele>
        <time>2012-09-01T09:10:07Z</time>
      </trkpt>
      <trkpt lat="45.85383" lon="4.81804">
        <ele>409</ele>
        <time>2012-09-01T09:10:18Z</time>
      </trkpt>
      <trkpt lat="45.85389" lon="4.81805">
        <ele>411</ele>
        <time>2012-09-01T09:10:22Z</time>
      </trkpt>
      <trkpt lat="45.85391" lon="4.81805">
        <ele>411</ele>
        <time>2012-09-01T09:10:23Z</time>
      </trkpt>
      <trkpt lat="45.85405" lon="4.81798">
        <ele>413</ele>
        <time>2012-09-01T09:10:31Z</time>
      </trkpt>
      <trkpt lat="45.8542" lon="4.81795">
        <ele>414</ele>
        <time>2012-09-01T09:10:40Z</time>
      </trkpt>
      <trkpt lat="45.85425" lon="4.81792">
        <ele>414</ele>
        <time>2012-09-01T09:10:43Z</time>
      </trkpt>
      <trkpt lat="45.85432" lon="4.8179">
        <ele>416</ele>
        <time>2012-09-01T09:10:46Z</time>
      </trkpt>
      <trkpt lat="45.85451" lon="4.81782">
        <ele>417</ele>
        <time>2012-09-01T09:10:58Z</time>
      </trkpt>
      <trkpt lat="45.85464" lon="4.81775">
        <ele>419</ele>
        <time>2012-09-01T09:11:06Z</time>
      </trkpt>
      <trkpt lat="45.8549" lon="4.81776">
        <ele>421</ele>
        <time>2012-09-01T09:11:18Z</time>
      </trkpt>
      <trkpt lat="45.85504" lon="4.81774">
        <ele>422</ele>
        <time>2012-09-01T09:11:25Z</time>
      </trkpt>
      <trkpt lat="45.85507" lon="4.81775">
        <ele>422</ele>
        <time>2012-09-01T09:11:27Z</time>
      </trkpt>
      <trkpt lat="45.85512" lon="4.81775">
        <ele>423</ele>
        <time>2012-09-01T09:11:30Z</time>
      </trkpt>
      <trkpt lat="45.85516" lon="4.8178">
        <ele>422</ele>
        <time>2012-09-01T09:11:39Z</time>
      </trkpt>
      <trkpt lat="45.85518" lon="4.81779">
        <ele>422</ele>
        <time>2012-09-01T09:11:53Z</time>
      </trkpt>
      <trkpt lat="45.85517" lon="4.81776">
        <ele>423</ele>
        <time>2012-09-01T09:21:14Z</time>
      </trkpt>
      <trkpt lat="45.85515" lon="4.81773">
        <ele>424</ele>
        <time>2012-09-01T09:28:16Z</time>
      </trkpt>
      <trkpt lat="45.85515" lon="4.81772">
        <ele>424</ele>
        <time>2012-09-01T09:30:56Z</time>
      </trkpt>
      <trkpt lat="45.85515" lon="4.81772">
        <ele>423</ele>
        <time>2012-09-01T09:30:59Z</time>
      </trkpt>
      <trkpt lat="45.85515" lon="4.81772">
        <ele>422</ele>
        <time>2012-09-01T09:32:16Z</time>
      </trkpt>
      <trkpt lat="45.85516" lon="4.81776">
        <ele>423</ele>
        <time>2012-09-01T09:32:19Z</time>
      </trkpt>
      <trkpt lat="45.85521" lon="4.81784">
        <ele>423</ele>
        <time>2012-09-01T09:32:30Z</time>
      </trkpt>
      <trkpt lat="45.85522" lon="4.81785">
        <ele>423</ele>
        <time>2012-09-01T09:32:32Z</time>
      </trkpt>
      <trkpt lat="45.85527" lon="4.8179">
        <ele>423</ele>
        <time>2012-09-01T09:32:37Z</time>
      </trkpt>
      <trkpt lat="45.85549" lon="4.81817">
        <ele>424</ele>
        <time>2012-09-01T09:32:50Z</time>
      </trkpt>
      <trkpt lat="45.85556" lon="4.81829">
        <ele>426</ele>
        <time>2012-09-01T09:32:59Z</time>
      </trkpt>
      <trkpt lat="45.85559" lon="4.81836">
        <ele>426</ele>
        <time>2012-09-01T09:33:03Z</time>
      </trkpt>
      <trkpt lat="45.85563" lon="4.81855">
        <ele>426</ele>
        <time>2012-09-01T09:33:11Z</time>
      </trkpt>
      <trkpt lat="45.85567" lon="4.81876">
        <ele>427</ele>
        <time>2012-09-01T09:33:19Z</time>
      </trkpt>
      <trkpt lat="45.85568" lon="4.81891">
        <ele>427</ele>
        <time>2012-09-01T09:33:26Z</time>
      </trkpt>
      <trkpt lat="45.85571" lon="4.81937">
        <ele>426</ele>
        <time>2012-09-01T09:33:42Z</time>
      </trkpt>
      <trkpt lat="45.85574" lon="4.81966">
        <ele>425</ele>
        <time>2012-09-01T09:33:50Z</time>
      </trkpt>
      <trkpt lat="45.85582" lon="4.81994">
        <ele>424</ele>
        <time>2012-09-01T09:33:55Z</time>
      </trkpt>
      <trkpt lat="45.85583" lon="4.82">
        <ele>423</ele>
        <time>2012-09-01T09:33:56Z</time>
      </trkpt>
      <trkpt lat="45.85585" lon="4.82006">
        <ele>423</ele>
        <time>2012-09-01T09:33:57Z</time>
      </trkpt>
      <trkpt lat="45.85585" lon="4.82013">
        <ele>423</ele>
        <time>2012-09-01T09:33:58Z</time>
      </trkpt>
      <trkpt lat="45.85585" lon="4.82022">
        <ele>422</ele>
        <time>2012-09-01T09:33:59Z</time>
      </trkpt>
      <trkpt lat="45.85588" lon="4.82064">
        <ele>418</ele>
        <time>2012-09-01T09:34:05Z</time>
      </trkpt>
      <trkpt lat="45.8559" lon="4.82075">
        <ele>416</ele>
        <time>2012-09-01T09:34:08Z</time>
      </trkpt>
      <trkpt lat="45.8559" lon="4.82085">
        <ele>415</ele>
        <time>2012-09-01T09:34:10Z</time>
      </trkpt>
      <trkpt lat="45.85586" lon="4.82097">
        <ele>413</ele>
        <time>2012-09-01T09:34:12Z</time>
      </trkpt>
      <trkpt lat="45.85584" lon="4.82102">
        <ele>413</ele>
        <time>2012-09-01T09:34:13Z</time>
      </trkpt>
      <trkpt lat="45.85571" lon="4.82128">
        <ele>410</ele>
        <time>2012-09-01T09:34:17Z</time>
      </trkpt>
      <trkpt lat="45.85565" lon="4.82138">
        <ele>408</ele>
        <time>2012-09-01T09:34:19Z</time>
      </trkpt>
      <trkpt lat="45.85561" lon="4.82143">
        <ele>407</ele>
        <time>2012-09-01T09:34:22Z</time>
      </trkpt>
      <trkpt lat="45.85561" lon="4.82144">
        <ele>407</ele>
        <time>2012-09-01T09:34:31Z</time>
      </trkpt>
      <trkpt lat="45.85562" lon="4.8214">
        <ele>407</ele>
        <time>2012-09-01T09:34:34Z</time>
      </trkpt>
      <trkpt lat="45.85568" lon="4.82136">
        <ele>409</ele>
        <time>2012-09-01T09:34:43Z</time>
      </trkpt>
      <trkpt lat="45.85571" lon="4.82122">
        <ele>410</ele>
        <time>2012-09-01T09:34:53Z</time>
      </trkpt>
      <trkpt lat="45.85581" lon="4.82102">
        <ele>413</ele>
        <time>2012-09-01T09:35:03Z</time>
      </trkpt>
      <trkpt lat="45.85588" lon="4.82077">
        <ele>415</ele>
        <time>2012-09-01T09:35:13Z</time>
      </trkpt>
      <trkpt lat="45.85588" lon="4.82071">
        <ele>416</ele>
        <time>2012-09-01T09:35:15Z</time>
      </trkpt>
      <trkpt lat="45.85589" lon="4.82067">
        <ele>417</ele>
        <time>2012-09-01T09:35:17Z</time>
      </trkpt>
      <trkpt lat="45.85588" lon="4.82066">
        <ele>417</ele>
        <time>2012-09-01T09:35:18Z</time>
      </trkpt>
      <trkpt lat="45.85587" lon="4.82067">
        <ele>416</ele>
        <time>2012-09-01T09:35:19Z</time>
      </trkpt>
      <trkpt lat="45.85586" lon="4.8207">
        <ele>416</ele>
        <time>2012-09-01T09:35:20Z</time>
      </trkpt>
      <trkpt lat="45.85584" lon="4.82072">
        <ele>416</ele>
        <time>2012-09-01T09:35:21Z</time>
      </trkpt>
      <trkpt lat="45.85583" lon="4.82074">
        <ele>416</ele>
        <time>2012-09-01T09:35:22Z</time>
      </trkpt>
      <trkpt lat="45.85581" lon="4.82076">
        <ele>415</ele>
        <time>2012-09-01T09:35:23Z</time>
      </trkpt>
      <trkpt lat="45.85579" lon="4.82078">
        <ele>415</ele>
        <time>2012-09-01T09:35:24Z</time>
      </trkpt>
      <trkpt lat="45.85568" lon="4.82092">
        <ele>413</ele>
        <time>2012-09-01T09:35:29Z</time>
      </trkpt>
      <trkpt lat="45.85551" lon="4.82113">
        <ele>410</ele>
        <time>2012-09-01T09:35:37Z</time>
      </trkpt>
      <trkpt lat="45.85542" lon="4.82122">
        <ele>407</ele>
        <time>2012-09-01T09:35:45Z</time>
      </trkpt>
      <trkpt lat="45.85537" lon="4.82134">
        <ele>405</ele>
        <time>2012-09-01T09:35:57Z</time>
      </trkpt>
      <trkpt lat="45.85531" lon="4.82152">
        <ele>402</ele>
        <time>2012-09-01T09:36:07Z</time>
      </trkpt>
      <trkpt lat="45.8553" lon="4.82153">
        <ele>402</ele>
        <time>2012-09-01T09:36:14Z</time>
      </trkpt>
      <trkpt lat="45.85529" lon="4.82155">
        <ele>402</ele>
        <time>2012-09-01T09:36:15Z</time>
      </trkpt>
      <trkpt lat="45.85525" lon="4.8216">
        <ele>401</ele>
        <time>2012-09-01T09:36:18Z</time>
      </trkpt>
      <trkpt lat="45.85524" lon="4.82161">
        <ele>401</ele>
        <time>2012-09-01T09:36:19Z</time>
      </trkpt>
      <trkpt lat="45.85523" lon="4.8216">
        <ele>400</ele>
        <time>2012-09-01T09:36:20Z</time>
      </trkpt>
      <trkpt lat="45.85521" lon="4.8216">
        <ele>399</ele>
        <time>2012-09-01T09:36:21Z</time>
      </trkpt>
      <trkpt lat="45.85519" lon="4.8216">
        <ele>399</ele>
        <time>2012-09-01T09:36:22Z</time>
      </trkpt>
      <trkpt lat="45.85516" lon="4.82158">
        <ele>398</ele>
        <time>2012-09-01T09:36:24Z</time>
      </trkpt>
      <trkpt lat="45.85515" lon="4.82156">
        <ele>398</ele>
        <time>2012-09-01T09:36:25Z</time>
      </trkpt>
      <trkpt lat="45.85514" lon="4.82154">
        <ele>397</ele>
        <time>2012-09-01T09:36:34Z</time>
      </trkpt>
      <trkpt lat="45.8552" lon="4.82159">
        <ele>399</ele>
        <time>2012-09-01T09:38:26Z</time>
      </trkpt>
      <trkpt lat="45.85522" lon="4.8216">
        <ele>401</ele>
        <time>2012-09-01T09:38:28Z</time>
      </trkpt>
      <trkpt lat="45.85529" lon="4.8216">
        <ele>402</ele>
        <time>2012-09-01T09:38:35Z</time>
      </trkpt>
      <trkpt lat="45.85532" lon="4.82148">
        <ele>403</ele>
        <time>2012-09-01T09:38:42Z</time>
      </trkpt>
      <trkpt lat="45.8554" lon="4.82131">
        <ele>405</ele>
        <time>2012-09-01T09:38:54Z</time>
      </trkpt>
      <trkpt lat="45.85544" lon="4.82125">
        <ele>406</ele>
        <time>2012-09-01T09:39:05Z</time>
      </trkpt>
      <trkpt lat="45.85544" lon="4.82124">
        <ele>406</ele>
        <time>2012-09-01T09:39:07Z</time>
      </trkpt>
      <trkpt lat="45.85553" lon="4.82111">
        <ele>408</ele>
        <time>2012-09-01T09:39:22Z</time>
      </trkpt>
      <trkpt lat="45.85559" lon="4.82103">
        <ele>410</ele>
        <time>2012-09-01T09:39:29Z</time>
      </trkpt>
      <trkpt lat="45.85572" lon="4.8209">
        <ele>412</ele>
        <time>2012-09-01T09:39:42Z</time>
      </trkpt>
      <trkpt lat="45.85575" lon="4.82084">
        <ele>413</ele>
        <time>2012-09-01T09:39:47Z</time>
      </trkpt>
      <trkpt lat="45.85572" lon="4.82076">
        <ele>414</ele>
        <time>2012-09-01T09:39:58Z</time>
      </trkpt>
      <trkpt lat="45.85567" lon="4.82074">
        <ele>413</ele>
        <time>2012-09-01T09:40:01Z</time>
      </trkpt>
      <trkpt lat="45.85558" lon="4.82075">
        <ele>413</ele>
        <time>2012-09-01T09:40:06Z</time>
      </trkpt>
      <trkpt lat="45.85554" lon="4.82077">
        <ele>412</ele>
        <time>2012-09-01T09:40:08Z</time>
      </trkpt>
      <trkpt lat="45.85545" lon="4.8208">
        <ele>409</ele>
        <time>2012-09-01T09:40:13Z</time>
      </trkpt>
      <trkpt lat="45.85541" lon="4.8208">
        <ele>407</ele>
        <time>2012-09-01T09:40:15Z</time>
      </trkpt>
      <trkpt lat="45.85533" lon="4.82086">
        <ele>405</ele>
        <time>2012-09-01T09:40:20Z</time>
      </trkpt>
      <trkpt lat="45.85525" lon="4.82093">
        <ele>401</ele>
        <time>2012-09-01T09:40:25Z</time>
      </trkpt>
      <trkpt lat="45.85519" lon="4.821">
        <ele>397</ele>
        <time>2012-09-01T09:40:33Z</time>
      </trkpt>
      <trkpt lat="45.85518" lon="4.82102">
        <ele>396</ele>
        <time>2012-09-01T09:40:35Z</time>
      </trkpt>
      <trkpt lat="45.85515" lon="4.82105">
        <ele>396</ele>
        <time>2012-09-01T09:40:46Z</time>
      </trkpt>
      <trkpt lat="45.85517" lon="4.82103">
        <ele>398</ele>
        <time>2012-09-01T09:40:53Z</time>
      </trkpt>
      <trkpt lat="45.8552" lon="4.82103">
        <ele>400</ele>
        <time>2012-09-01T09:40:57Z</time>
      </trkpt>
      <trkpt lat="45.85522" lon="4.82091">
        <ele>402</ele>
        <time>2012-09-01T09:41:09Z</time>
      </trkpt>
      <trkpt lat="45.85522" lon="4.82086">
        <ele>402</ele>
        <time>2012-09-01T09:41:19Z</time>
      </trkpt>
      <trkpt lat="45.85523" lon="4.82079">
        <ele>404</ele>
        <time>2012-09-01T09:41:26Z</time>
      </trkpt>
      <trkpt lat="45.85521" lon="4.82071">
        <ele>404</ele>
        <time>2012-09-01T09:41:29Z</time>
      </trkpt>
      <trkpt lat="45.85523" lon="4.82049">
        <ele>405</ele>
        <time>2012-09-01T09:41:37Z</time>
      </trkpt>
      <trkpt lat="45.85525" lon="4.82045">
        <ele>405</ele>
        <time>2012-09-01T09:41:39Z</time>
      </trkpt>
      <trkpt lat="45.85522" lon="4.8203">
        <ele>405</ele>
        <time>2012-09-01T09:41:48Z</time>
      </trkpt>
      <trkpt lat="45.8552" lon="4.82026">
        <ele>404</ele>
        <time>2012-09-01T09:42:03Z</time>
      </trkpt>
      <trkpt lat="45.85524" lon="4.82032">
        <ele>406</ele>
        <time>2012-09-01T09:42:21Z</time>
      </trkpt>
      <trkpt lat="45.85523" lon="4.82036">
        <ele>405</ele>
        <time>2012-09-01T09:42:39Z</time>
      </trkpt>
      <trkpt lat="45.8552" lon="4.82035">
        <ele>404</ele>
        <time>2012-09-01T09:42:42Z</time>
      </trkpt>
      <trkpt lat="45.85517" lon="4.82032">
        <ele>402</ele>
        <time>2012-09-01T09:42:56Z</time>
      </trkpt>
      <trkpt lat="45.85512" lon="4.82037">
        <ele>400</ele>
        <time>2012-09-01T09:43:06Z</time>
      </trkpt>
      <trkpt lat="45.85507" lon="4.82036">
        <ele>397</ele>
        <time>2012-09-01T09:43:15Z</time>
      </trkpt>
      <trkpt lat="45.85503" lon="4.82036">
        <ele>395</ele>
        <time>2012-09-01T09:43:24Z</time>
      </trkpt>
      <trkpt lat="45.85499" lon="4.82016">
        <ele>391</ele>
        <time>2012-09-01T09:43:31Z</time>
      </trkpt>
      <trkpt lat="45.85498" lon="4.82013">
        <ele>389</ele>
        <time>2012-09-01T09:43:33Z</time>
      </trkpt>
      <trkpt lat="45.85494" lon="4.82024">
        <ele>386</ele>
        <time>2012-09-01T09:43:38Z</time>
      </trkpt>
      <trkpt lat="45.85488" lon="4.82038">
        <ele>382</ele>
        <time>2012-09-01T09:43:43Z</time>
      </trkpt>
      <trkpt lat="45.85477" lon="4.82019">
        <ele>379</ele>
        <time>2012-09-01T09:43:52Z</time>
      </trkpt>
      <trkpt lat="45.85473" lon="4.82011">
        <ele>378</ele>
        <time>2012-09-01T09:43:54Z</time>
      </trkpt>
      <trkpt lat="45.85466" lon="4.82026">
        <ele>373</ele>
        <time>2012-09-01T09:44:01Z</time>
      </trkpt>
      <trkpt lat="45.85463" lon="4.8204">
        <ele>370</ele>
        <time>2012-09-01T09:44:05Z</time>
      </trkpt>
      <trkpt lat="45.85461" lon="4.82046">
        <ele>369</ele>
        <time>2012-09-01T09:44:07Z</time>
      </trkpt>
      <trkpt lat="45.85459" lon="4.82048">
        <ele>368</ele>
        <time>2012-09-01T09:44:08Z</time>
      </trkpt>
      <trkpt lat="45.85454" lon="4.82038">
        <ele>365</ele>
        <time>2012-09-01T09:44:15Z</time>
      </trkpt>
      <trkpt lat="45.85444" lon="4.82024">
        <ele>362</ele>
        <time>2012-09-01T09:44:21Z</time>
      </trkpt>
      <trkpt lat="45.8544" lon="4.82028">
        <ele>359</ele>
        <time>2012-09-01T09:44:25Z</time>
      </trkpt>
      <trkpt lat="45.85439" lon="4.82032">
        <ele>358</ele>
        <time>2012-09-01T09:44:27Z</time>
      </trkpt>
      <trkpt lat="45.85436" lon="4.82034">
        <ele>356</ele>
        <time>2012-09-01T09:44:30Z</time>
      </trkpt>
      <trkpt lat="45.85433" lon="4.8203">
        <ele>356</ele>
        <time>2012-09-01T09:44:33Z</time>
      </trkpt>
      <trkpt lat="45.85431" lon="4.82031">
        <ele>354</ele>
        <time>2012-09-01T09:44:36Z</time>
      </trkpt>
      <trkpt lat="45.8543" lon="4.82032">
        <ele>354</ele>
        <time>2012-09-01T09:44:37Z</time>
      </trkpt>
      <trkpt lat="45.8543" lon="4.8204">
        <ele>353</ele>
        <time>2012-09-01T09:44:41Z</time>
      </trkpt>
      <trkpt lat="45.85431" lon="4.82053">
        <ele>352</ele>
        <time>2012-09-01T09:44:47Z</time>
      </trkpt>
      <trkpt lat="45.85428" lon="4.8206">
        <ele>351</ele>
        <time>2012-09-01T09:44:56Z</time>
      </trkpt>
      <trkpt lat="45.85428" lon="4.8206">
        <ele>351</ele>
        <time>2012-09-01T09:44:58Z</time>
      </trkpt>
      <trkpt lat="45.85427" lon="4.82068">
        <ele>350</ele>
        <time>2012-09-01T09:45:02Z</time>
      </trkpt>
      <trkpt lat="45.85421" lon="4.82073">
        <ele>345</ele>
        <time>2012-09-01T09:45:08Z</time>
      </trkpt>
      <trkpt lat="45.8542" lon="4.82071">
        <ele>344</ele>
        <time>2012-09-01T09:45:10Z</time>
      </trkpt>
      <trkpt lat="45.85419" lon="4.8207">
        <ele>344</ele>
        <time>2012-09-01T09:45:11Z</time>
      </trkpt>
      <trkpt lat="45.85416" lon="4.82064">
        <ele>342</ele>
        <time>2012-09-01T09:45:14Z</time>
      </trkpt>
      <trkpt lat="45.85412" lon="4.82053">
        <ele>340</ele>
        <time>2012-09-01T09:45:18Z</time>
      </trkpt>
      <trkpt lat="45.85404" lon="4.82047">
        <ele>337</ele>
        <time>2012-09-01T09:45:22Z</time>
      </trkpt>
      <trkpt lat="45.85397" lon="4.82044">
        <ele>333</ele>
        <time>2012-09-01T09:45:26Z</time>
      </trkpt>
      <trkpt lat="45.85392" lon="4.82043">
        <ele>331</ele>
        <time>2012-09-01T09:45:28Z</time>
      </trkpt>
      <trkpt lat="45.85389" lon="4.82044">
        <ele>330</ele>
        <time>2012-09-01T09:45:30Z</time>
      </trkpt>
      <trkpt lat="45.85385" lon="4.82048">
        <ele>329</ele>
        <time>2012-09-01T09:45:32Z</time>
      </trkpt>
      <trkpt lat="45.85383" lon="4.82053">
        <ele>327</ele>
        <time>2012-09-01T09:45:35Z</time>
      </trkpt>
      <trkpt lat="45.85381" lon="4.82057">
        <ele>325</ele>
        <time>2012-09-01T09:45:37Z</time>
      </trkpt>
      <trkpt lat="45.85383" lon="4.82066">
        <ele>324</ele>
        <time>2012-09-01T09:45:41Z</time>
      </trkpt>
      <trkpt lat="45.85386" lon="4.82069">
        <ele>322</ele>
        <time>2012-09-01T09:45:43Z</time>
      </trkpt>
      <trkpt lat="45.85394" lon="4.82084">
        <ele>319</ele>
        <time>2012-09-01T09:45:48Z</time>
      </trkpt>
      <trkpt lat="45.85394" lon="4.82091">
        <ele>318</ele>
        <time>2012-09-01T09:45:49Z</time>
      </trkpt>
      <trkpt lat="45.85387" lon="4.82118">
        <ele>316</ele>
        <time>2012-09-01T09:45:55Z</time>
      </trkpt>
      <trkpt lat="45.85385" lon="4.82134">
        <ele>314</ele>
        <time>2012-09-01T09:45:58Z</time>
      </trkpt>
      <trkpt lat="45.8538" lon="4.82145">
        <ele>313</ele>
        <time>2012-09-01T09:46:00Z</time>
      </trkpt>
      <trkpt lat="45.85373" lon="4.82171">
        <ele>309</ele>
        <time>2012-09-01T09:46:04Z</time>
      </trkpt>
      <trkpt lat="45.85367" lon="4.82189">
        <ele>305</ele>
        <time>2012-09-01T09:46:07Z</time>
      </trkpt>
      <trkpt lat="45.85356" lon="4.82212">
        <ele>301</ele>
        <time>2012-09-01T09:46:11Z</time>
      </trkpt>
      <trkpt lat="45.8535" lon="4.82223">
        <ele>301</ele>
        <time>2012-09-01T09:46:13Z</time>
      </trkpt>
      <trkpt lat="45.85347" lon="4.82245">
        <ele>296</ele>
        <time>2012-09-01T09:46:17Z</time>
      </trkpt>
      <trkpt lat="45.85341" lon="4.82261">
        <ele>291</ele>
        <time>2012-09-01T09:46:20Z</time>
      </trkpt>
      <trkpt lat="45.85339" lon="4.8227">
        <ele>289</ele>
        <time>2012-09-01T09:46:22Z</time>
      </trkpt>
      <trkpt lat="45.85338" lon="4.82274">
        <ele>289</ele>
        <time>2012-09-01T09:46:23Z</time>
      </trkpt>
      <trkpt lat="45.8534" lon="4.82301">
        <ele>286</ele>
        <time>2012-09-01T09:46:30Z</time>
      </trkpt>
      <trkpt lat="45.85339" lon="4.82312">
        <ele>285</ele>
        <time>2012-09-01T09:46:33Z</time>
      </trkpt>
      <trkpt lat="45.85338" lon="4.82315">
        <ele>285</ele>
        <time>2012-09-01T09:46:34Z</time>
      </trkpt>
      <trkpt lat="45.85327" lon="4.82324">
        <ele>281</ele>
        <time>2012-09-01T09:46:38Z</time>
      </trkpt>
      <trkpt lat="45.85313" lon="4.82329">
        <ele>277</ele>
        <time>2012-09-01T09:46:41Z</time>
      </trkpt>
      <trkpt lat="45.85303" lon="4.82333">
        <ele>275</ele>
        <time>2012-09-01T09:46:43Z</time>
      </trkpt>
      <trkpt lat="45.85298" lon="4.82337">
        <ele>273</ele>
        <time>2012-09-01T09:46:44Z</time>
      </trkpt>
      <trkpt lat="45.8529" lon="4.82344">
        <ele>271</ele>
        <time>2012-09-01T09:46:46Z</time>
      </trkpt>
      <trkpt lat="45.85283" lon="4.82354">
        <ele>270</ele>
        <time>2012-09-01T09:46:48Z</time>
      </trkpt>
      <trkpt lat="45.85281" lon="4.8236">
        <ele>270</ele>
        <time>2012-09-01T09:46:49Z</time>
      </trkpt>
      <trkpt lat="45.8528" lon="4.82367">
        <ele>269</ele>
        <time>2012-09-01T09:46:50Z</time>
      </trkpt>
      <trkpt lat="45.85275" lon="4.8238">
        <ele>268</ele>
        <time>2012-09-01T09:46:52Z</time>
      </trkpt>
      <trkpt lat="45.85251" lon="4.82408">
        <ele>264</ele>
        <time>2012-09-01T09:46:58Z</time>
      </trkpt>
      <trkpt lat="45.85248" lon="4.82414">
        <ele>263</ele>
        <time>2012-09-01T09:46:59Z</time>
      </trkpt>
      <trkpt lat="45.85245" lon="4.82421">
        <ele>262</ele>
        <time>2012-09-01T09:47:00Z</time>
      </trkpt>
      <trkpt lat="45.85244" lon="4.82428">
        <ele>261</ele>
        <time>2012-09-01T09:47:01Z</time>
      </trkpt>
      <trkpt lat="45.85244" lon="4.82443">
        <ele>258</ele>
        <time>2012-09-01T09:47:03Z</time>
      </trkpt>
      <trkpt lat="45.85245" lon="4.8245">
        <ele>257</ele>
        <time>2012-09-01T09:47:04Z</time>
      </trkpt>
      <trkpt lat="45.85249" lon="4.82466">
        <ele>254</ele>
        <time>2012-09-01T09:47:06Z</time>
      </trkpt>
      <trkpt lat="45.85251" lon="4.82475">
        <ele>253</ele>
        <time>2012-09-01T09:47:07Z</time>
      </trkpt>
      <trkpt lat="45.85254" lon="4.82492">
        <ele>249</ele>
        <time>2012-09-01T09:47:09Z</time>
      </trkpt>
      <trkpt lat="45.85257" lon="4.82516">
        <ele>246</ele>
        <time>2012-09-01T09:47:12Z</time>
      </trkpt>
      <trkpt lat="45.85259" lon="4.82528">
        <ele>244</ele>
        <time>2012-09-01T09:47:14Z</time>
      </trkpt>
      <trkpt lat="45.8526" lon="4.82542">
        <ele>242</ele>
        <time>2012-09-01T09:47:16Z</time>
      </trkpt>
      <trkpt lat="45.8526" lon="4.82549">
        <ele>241</ele>
        <time>2012-09-01T09:47:17Z</time>
      </trkpt>
      <trkpt lat="45.85259" lon="4.82557">
        <ele>239</ele>
        <time>2012-09-01T09:47:18Z</time>
      </trkpt>
      <trkpt lat="45.85256" lon="4.8258">
        <ele>236</ele>
        <time>2012-09-01T09:47:22Z</time>
      </trkpt>
      <trkpt lat="45.85256" lon="4.82586">
        <ele>236</ele>
        <time>2012-09-01T09:47:29Z</time>
      </trkpt>
      <trkpt lat="45.85256" lon="4.82589">
        <ele>236</ele>
        <time>2012-09-01T09:47:58Z</time>
      </trkpt>
      <trkpt lat="45.85254" lon="4.82595">
        <ele>235</ele>
        <time>2012-09-01T09:48:10Z</time>
      </trkpt>
      <trkpt lat="45.85254" lon="4.82592">
        <ele>235</ele>
        <time>2012-09-01T09:49:28Z</time>
      </trkpt>
      <trkpt lat="45.85246" lon="4.82597">
        <ele>235</ele>
        <time>2012-09-01T09:49:57Z</time>
      </trkpt>
      <trkpt lat="45.85245" lon="4.82598">
        <ele>235</ele>
        <time>2012-09-01T09:49:58Z</time>
      </trkpt>
      <trkpt lat="45.85245" lon="4.82599">
        <ele>235</ele>
        <time>2012-09-01T09:50:07Z</time>
      </trkpt>
      <trkpt lat="45.85245" lon="4.82598">
        <ele>235</ele>
        <time>2012-09-01T09:50:21Z</time>
      </trkpt>
      <trkpt lat="45.85244" lon="4.82601">
        <ele>234</ele>
        <time>2012-09-01T09:50:22Z</time>
      </trkpt>
      <trkpt lat="45.85238" lon="4.8262">
        <ele>232</ele>
        <time>2012-09-01T09:50:26Z</time>
      </trkpt>
      <trkpt lat="45.85238" lon="4.82627">
        <ele>230</ele>
        <time>2012-09-01T09:50:27Z</time>
      </trkpt>
      <trkpt lat="45.85236" lon="4.82659">
        <ele>227</ele>
        <time>2012-09-01T09:50:30Z</time>
      </trkpt>
      <trkpt lat="45.85237" lon="4.82686">
        <ele>222</ele>
        <time>2012-09-01T09:50:32Z</time>
      </trkpt>
      <trkpt lat="45.85235" lon="4.827">
        <ele>221</ele>
        <time>2012-09-01T09:50:33Z</time>
      </trkpt>
      <trkpt lat="45.85234" lon="4.82731">
        <ele>217</ele>
        <time>2012-09-01T09:50:35Z</time>
      </trkpt>
      <trkpt lat="45.8523" lon="4.82761">
        <ele>214</ele>
        <time>2012-09-01T09:50:37Z</time>
      </trkpt>
      <trkpt lat="45.85222" lon="4.82797">
        <ele>209</ele>
        <time>2012-09-01T09:50:40Z</time>
      </trkpt>
      <trkpt lat="45.85215" lon="4.82816">
        <ele>208</ele>
        <time>2012-09-01T09:50:42Z</time>
      </trkpt>
      <trkpt lat="45.85214" lon="4.82825">
        <ele>207</ele>
        <time>2012-09-01T09:50:43Z</time>
      </trkpt>
      <trkpt lat="45.85209" lon="4.82846">
        <ele>205</ele>
        <time>2012-09-01T09:50:45Z</time>
      </trkpt>
      <trkpt lat="45.85207" lon="4.82856">
        <ele>204</ele>
        <time>2012-09-01T09:50:46Z</time>
      </trkpt>
      <trkpt lat="45.85206" lon="4.82867">
        <ele>202</ele>
        <time>2012-09-01T09:50:47Z</time>
      </trkpt>
      <trkpt lat="45.85203" lon="4.82876">
        <ele>201</ele>
        <time>2012-09-01T09:50:48Z</time>
      </trkpt>
      <trkpt lat="45.852" lon="4.82885">
        <ele>200</ele>
        <time>2012-09-01T09:50:49Z</time>
      </trkpt>
      <trkpt lat="45.85199" lon="4.82895">
        <ele>198</ele>
        <time>2012-09-01T09:50:50Z</time>
      </trkpt>
      <trkpt lat="45.8519" lon="4.82916">
        <ele>195</ele>
        <time>2012-09-01T09:50:53Z</time>
      </trkpt>
      <trkpt lat="45.85187" lon="4.82919">
        <ele>194</ele>
        <time>2012-09-01T09:50:54Z</time>
      </trkpt>
      <trkpt lat="45.85183" lon="4.82918">
        <ele>194</ele>
        <time>2012-09-01T09:50:55Z</time>
      </trkpt>
      <trkpt lat="45.8518" lon="4.82917">
        <ele>194</ele>
        <time>2012-09-01T09:50:56Z</time>
      </trkpt>
      <trkpt lat="45.85177" lon="4.82916">
        <ele>194</ele>
        <time>2012-09-01T09:50:57Z</time>
      </trkpt>
      <trkpt lat="45.85145" lon="4.82902">
        <ele>194</ele>
        <time>2012-09-01T09:51:08Z</time>
      </trkpt>
      <trkpt lat="45.85119" lon="4.82889">
        <ele>196</ele>
        <time>2012-09-01T09:51:16Z</time>
      </trkpt>
      <trkpt lat="45.85106" lon="4.82882">
        <ele>198</ele>
        <time>2012-09-01T09:51:20Z</time>
      </trkpt>
      <trkpt lat="45.85054" lon="4.82869">
        <ele>199</ele>
        <time>2012-09-01T09:51:36Z</time>
      </trkpt>
      <trkpt lat="45.8499" lon="4.82865">
        <ele>201</ele>
        <time>2012-09-01T09:51:54Z</time>
      </trkpt>
      <trkpt lat="45.8494" lon="4.8286">
        <ele>202</ele>
        <time>2012-09-01T09:52:09Z</time>
      </trkpt>
      <trkpt lat="45.84891" lon="4.82857">
        <ele>204</ele>
        <time>2012-09-01T09:52:24Z</time>
      </trkpt>
      <trkpt lat="45.84836" lon="4.82846">
        <ele>202</ele>
        <time>2012-09-01T09:52:38Z</time>
      </trkpt>
      <trkpt lat="45.84804" lon="4.82841">
        <ele>200</ele>
        <time>2012-09-01T09:52:44Z</time>
      </trkpt>
      <trkpt lat="45.84762" lon="4.82831">
        <ele>197</ele>
        <time>2012-09-01T09:52:51Z</time>
      </trkpt>
      <trkpt lat="45.84758" lon="4.8283">
        <ele>197</ele>
        <time>2012-09-01T09:52:52Z</time>
      </trkpt>
      <trkpt lat="45.84746" lon="4.8283">
        <ele>196</ele>
        <time>2012-09-01T09:52:55Z</time>
      </trkpt>
      <trkpt lat="45.84684" lon="4.82826">
        <ele>194</ele>
        <time>2012-09-01T09:53:07Z</time>
      </trkpt>
      <trkpt lat="45.84666" lon="4.82826">
        <ele>194</ele>
        <time>2012-09-01T09:53:10Z</time>
      </trkpt>
      <trkpt lat="45.8461" lon="4.82819">
        <ele>194</ele>
        <time>2012-09-01T09:53:22Z</time>
      </trkpt>
      <trkpt lat="45.846" lon="4.82802">
        <ele>195</ele>
        <time>2012-09-01T09:53:27Z</time>
      </trkpt>
      <trkpt lat="45.84597" lon="4.828">
        <ele>195</ele>
        <time>2012-09-01T09:53:28Z</time>
      </trkpt>
      <trkpt lat="45.84559" lon="4.82801">
        <ele>193</ele>
        <time>2012-09-01T09:53:38Z</time>
      </trkpt>
      <trkpt lat="45.84551" lon="4.82804">
        <ele>193</ele>
        <time>2012-09-01T09:53:41Z</time>
      </trkpt>
      <trkpt lat="45.84549" lon="4.82807">
        <ele>192</ele>
        <time>2012-09-01T09:53:42Z</time>
      </trkpt>
      <trkpt lat="45.84541" lon="4.82819">
        <ele>190</ele>
        <time>2012-09-01T09:53:45Z</time>
      </trkpt>
      <trkpt lat="45.84537" lon="4.82821">
        <ele>191</ele>
        <time>2012-09-01T09:53:46Z</time>
      </trkpt>
      <trkpt lat="45.84532" lon="4.8282">
        <ele>190</ele>
        <time>2012-09-01T09:53:47Z</time>
      </trkpt>
      <trkpt lat="45.84496" lon="4.82818">
        <ele>187</ele>
        <time>2012-09-01T09:53:53Z</time>
      </trkpt>
      <trkpt lat="45.84492" lon="4.82817">
        <ele>187</ele>
        <time>2012-09-01T09:53:54Z</time>
      </trkpt>
      <trkpt lat="45.84489" lon="4.82814">
        <ele>187</ele>
        <time>2012-09-01T09:53:55Z</time>
      </trkpt>
      <trkpt lat="45.84456" lon="4.82811">
        <ele>186</ele>
        <time>2012-09-01T09:54:03Z</time>
      </trkpt>
      <trkpt lat="45.84451" lon="4.8281">
        <ele>186</ele>
        <time>2012-09-01T09:54:04Z</time>
      </trkpt>
      <trkpt lat="45.84435" lon="4.82807">
        <ele>186</ele>
        <time>2012-09-01T09:54:09Z</time>
      </trkpt>
      <trkpt lat="45.84434" lon="4.82805">
        <ele>186</ele>
        <time>2012-09-01T09:54:10Z</time>
      </trkpt>
      <trkpt lat="45.84431" lon="4.82804">
        <ele>186</ele>
        <time>2012-09-01T09:54:20Z</time>
      </trkpt>
      <trkpt lat="45.84427" lon="4.82803">
        <ele>186</ele>
        <time>2012-09-01T09:54:27Z</time>
      </trkpt>
      <trkpt lat="45.84405" lon="4.828">
        <ele>186</ele>
        <time>2012-09-01T09:54:36Z</time>
      </trkpt>
      <trkpt lat="45.84369" lon="4.82789">
        <ele>185</ele>
        <time>2012-09-01T09:54:46Z</time>
      </trkpt>
      <trkpt lat="45.84301" lon="4.82785">
        <ele>184</ele>
        <time>2012-09-01T09:55:01Z</time>
      </trkpt>
      <trkpt lat="45.84216" lon="4.82787">
        <ele>184</ele>
        <time>2012-09-01T09:55:19Z</time>
      </trkpt>
      <trkpt lat="45.84168" lon="4.82792">
        <ele>184</ele>
        <time>2012-09-01T09:55:30Z</time>
      </trkpt>
      <trkpt lat="45.84119" lon="4.82805">
        <ele>184</ele>
        <time>2012-09-01T09:55:42Z</time>
      </trkpt>
      <trkpt lat="45.84063" lon="4.82821">
        <ele>183</ele>
        <time>2012-09-01T09:55:54Z</time>
      </trkpt>
      <trkpt lat="45.84058" lon="4.82822">
        <ele>183</ele>
        <time>2012-09-01T09:55:55Z</time>
      </trkpt>
      <trkpt lat="45.84007" lon="4.8284">
        <ele>182</ele>
        <time>2012-09-01T09:56:06Z</time>
      </trkpt>
      <trkpt lat="45.83988" lon="4.8285">
        <ele>181</ele>
        <time>2012-09-01T09:56:13Z</time>
      </trkpt>
      <trkpt lat="45.83987" lon="4.82852">
        <ele>180</ele>
        <time>2012-09-01T09:56:14Z</time>
      </trkpt>
      <trkpt lat="45.83986" lon="4.82853">
        <ele>180</ele>
        <time>2012-09-01T09:56:15Z</time>
      </trkpt>
      <trkpt lat="45.83982" lon="4.82849">
        <ele>179</ele>
        <time>2012-09-01T09:56:20Z</time>
      </trkpt>
      <trkpt lat="45.83971" lon="4.8283">
        <ele>181</ele>
        <time>2012-09-01T09:56:28Z</time>
      </trkpt>
      <trkpt lat="45.83961" lon="4.82813">
        <ele>182</ele>
        <time>2012-09-01T09:56:36Z</time>
      </trkpt>
      <trkpt lat="45.83948" lon="4.82797">
        <ele>183</ele>
        <time>2012-09-01T09:56:43Z</time>
      </trkpt>
      <trkpt lat="45.83939" lon="4.82792">
        <ele>183</ele>
        <time>2012-09-01T09:56:51Z</time>
      </trkpt>
      <trkpt lat="45.83923" lon="4.82776">
        <ele>184</ele>
        <time>2012-09-01T09:56:59Z</time>
      </trkpt>
      <trkpt lat="45.8391" lon="4.82758">
        <ele>185</ele>
        <time>2012-09-01T09:57:07Z</time>
      </trkpt>
      <trkpt lat="45.83892" lon="4.82736">
        <ele>186</ele>
        <time>2012-09-01T09:57:19Z</time>
      </trkpt>
      <trkpt lat="45.83873" lon="4.82721">
        <ele>187</ele>
        <time>2012-09-01T09:57:29Z</time>
      </trkpt>
      <trkpt lat="45.83871" lon="4.82718">
        <ele>187</ele>
        <time>2012-09-01T09:57:31Z</time>
      </trkpt>
      <trkpt lat="45.8387" lon="4.82716">
        <ele>187</ele>
        <time>2012-09-01T09:57:32Z</time>
      </trkpt>
      <trkpt lat="45.8387" lon="4.82715">
        <ele>187</ele>
        <time>2012-09-01T09:57:33Z</time>
      </trkpt>
      <trkpt lat="45.8386" lon="4.82697">
        <ele>187</ele>
        <time>2012-09-01T09:57:40Z</time>
      </trkpt>
      <trkpt lat="45.8385" lon="4.82665">
        <ele>189</ele>
        <time>2012-09-01T09:57:51Z</time>
      </trkpt>
      <trkpt lat="45.8385" lon="4.82662">
        <ele>189</ele>
        <time>2012-09-01T09:57:52Z</time>
      </trkpt>
      <trkpt lat="45.83833" lon="4.82617">
        <ele>190</ele>
        <time>2012-09-01T09:58:06Z</time>
      </trkpt>
      <trkpt lat="45.83825" lon="4.82581">
        <ele>192</ele>
        <time>2012-09-01T09:58:18Z</time>
      </trkpt>
      <trkpt lat="45.83823" lon="4.82541">
        <ele>194</ele>
        <time>2012-09-01T09:58:30Z</time>
      </trkpt>
      <trkpt lat="45.83824" lon="4.8253">
        <ele>195</ele>
        <time>2012-09-01T09:58:39Z</time>
      </trkpt>
      <trkpt lat="45.83824" lon="4.82525">
        <ele>195</ele>
        <time>2012-09-01T09:58:50Z</time>
      </trkpt>
      <trkpt lat="45.83823" lon="4.82519">
        <ele>196</ele>
        <time>2012-09-01T09:58:54Z</time>
      </trkpt>
      <trkpt lat="45.83822" lon="4.82517">
        <ele>196</ele>
        <time>2012-09-01T09:58:55Z</time>
      </trkpt>
      <trkpt lat="45.83823" lon="4.82515">
        <ele>196</ele>
        <time>2012-09-01T09:58:56Z</time>
      </trkpt>
      <trkpt lat="45.83824" lon="4.82512">
        <ele>196</ele>
        <time>2012-09-01T09:58:57Z</time>
      </trkpt>
      <trkpt lat="45.83826" lon="4.8251">
        <ele>197</ele>
        <time>2012-09-01T09:58:58Z</time>
      </trkpt>
      <trkpt lat="45.83828" lon="4.82505">
        <ele>197</ele>
        <time>2012-09-01T09:58:59Z</time>
      </trkpt>
    </trkseg>
  </trk>
</gpx>